<?xml version="1.0" encoding="UTF-8" standalone="no" ?>
<gpx xmlns="http://www.topografix.com/GPX/1/1" xmlns:xsi="http://www.w3.org/2001/XMLSchema-instance" xsi:schemaLocation="http://www.topografix.com/GPX/1/1 http://www.topografix.com/GPX/1/1/gpx.xsd" version="1.1" creator="VisuGPX - https://www.visugpx.com">
  <metadata>
    <name>Du refuge de Baysselance au Vignemale</name>
    <desc><![CDATA[Du refuge de Baysselance au Vignemale

Montée à skis sur la grande majorité du parcours. Temps bouché se dégageant au moment de la descente.]]></desc>
  </metadata>
  <trk>
    <name><![CDATA[Du refuge de Baysselance au Vignemale_1]]></name>
    <trkseg>
      <trkpt lat="42.77946" lon="-0.12425">
        <ele>2642.9</ele>
        <time>2014-06-15T07:26:02Z</time>
      </trkpt>
      <trkpt lat="42.7793" lon="-0.124">
        <ele>2654.8291861542</ele>
        <time>2014-06-15T07:26:08Z</time>
      </trkpt>
      <trkpt lat="42.77938" lon="-0.12411">
        <ele>2666.1138556389</ele>
        <time>2014-06-15T07:26:12Z</time>
      </trkpt>
      <trkpt lat="42.77938" lon="-0.1241">
        <ele>2666.1138556389</ele>
        <time>2014-06-15T07:26:18Z</time>
      </trkpt>
      <trkpt lat="42.77943" lon="-0.12421">
        <ele>2678.3293589166</ele>
        <time>2014-06-15T07:36:53Z</time>
      </trkpt>
      <trkpt lat="42.77943" lon="-0.12421">
        <ele>2678.3293589166</ele>
        <time>2014-06-15T07:36:58Z</time>
      </trkpt>
      <trkpt lat="42.77939" lon="-0.1242">
        <ele>2678.3293589166</ele>
        <time>2014-06-15T07:38:47Z</time>
      </trkpt>
      <trkpt lat="42.77939" lon="-0.12419">
        <ele>2678.3293589166</ele>
        <time>2014-06-15T07:38:53Z</time>
      </trkpt>
      <trkpt lat="42.7794" lon="-0.12415">
        <ele>2678.3293589166</ele>
        <time>2014-06-15T07:38:58Z</time>
      </trkpt>
      <trkpt lat="42.7794" lon="-0.12413">
        <ele>2691.911671361</ele>
        <time>2014-06-15T07:39:03Z</time>
      </trkpt>
      <trkpt lat="42.77938" lon="-0.12413">
        <ele>2691.911671361</ele>
        <time>2014-06-15T07:39:08Z</time>
      </trkpt>
      <trkpt lat="42.77938" lon="-0.12413">
        <ele>2691.911671361</ele>
        <time>2014-06-15T07:39:12Z</time>
      </trkpt>
      <trkpt lat="42.77932" lon="-0.12409">
        <ele>2705.0200600832</ele>
        <time>2014-06-15T07:40:02Z</time>
      </trkpt>
      <trkpt lat="42.77928" lon="-0.12408">
        <ele>2705.0200600832</ele>
        <time>2014-06-15T07:40:08Z</time>
      </trkpt>
      <trkpt lat="42.77924" lon="-0.1241">
        <ele>2705.0200600832</ele>
        <time>2014-06-15T07:40:13Z</time>
      </trkpt>
      <trkpt lat="42.77921" lon="-0.12413">
        <ele>2716.875822645</ele>
        <time>2014-06-15T07:40:18Z</time>
      </trkpt>
      <trkpt lat="42.7792" lon="-0.12414">
        <ele>2716.875822645</ele>
        <time>2014-06-15T07:40:23Z</time>
      </trkpt>
      <trkpt lat="42.77919" lon="-0.12414">
        <ele>2716.875822645</ele>
        <time>2014-06-15T07:40:28Z</time>
      </trkpt>
      <trkpt lat="42.77921" lon="-0.12414">
        <ele>2716.875822645</ele>
        <time>2014-06-15T07:41:48Z</time>
      </trkpt>
      <trkpt lat="42.77926" lon="-0.12413">
        <ele>2716.875822645</ele>
        <time>2014-06-15T07:41:53Z</time>
      </trkpt>
      <trkpt lat="42.77931" lon="-0.12412">
        <ele>2727.5563990193</ele>
        <time>2014-06-15T07:41:58Z</time>
      </trkpt>
      <trkpt lat="42.77934" lon="-0.12412">
        <ele>2727.5563990193</ele>
        <time>2014-06-15T07:42:03Z</time>
      </trkpt>
      <trkpt lat="42.77936" lon="-0.12413">
        <ele>2727.5563990193</ele>
        <time>2014-06-15T07:42:08Z</time>
      </trkpt>
      <trkpt lat="42.77937" lon="-0.12414">
        <ele>2727.5563990193</ele>
        <time>2014-06-15T07:42:12Z</time>
      </trkpt>
      <trkpt lat="42.77942" lon="-0.12414">
        <ele>2735.8707037953</ele>
        <time>2014-06-15T07:42:28Z</time>
      </trkpt>
      <trkpt lat="42.77938" lon="-0.12417">
        <ele>2735.8707037953</ele>
        <time>2014-06-15T07:42:32Z</time>
      </trkpt>
      <trkpt lat="42.77931" lon="-0.12414">
        <ele>2742.3460169672</ele>
        <time>2014-06-15T07:42:38Z</time>
      </trkpt>
      <trkpt lat="42.77926" lon="-0.12413">
        <ele>2742.3460169672</ele>
        <time>2014-06-15T07:42:43Z</time>
      </trkpt>
      <trkpt lat="42.77923" lon="-0.12413">
        <ele>2742.3460169672</ele>
        <time>2014-06-15T07:42:48Z</time>
      </trkpt>
      <trkpt lat="42.77921" lon="-0.12414">
        <ele>2746.8178405017</ele>
        <time>2014-06-15T07:42:53Z</time>
      </trkpt>
      <trkpt lat="42.77918" lon="-0.12415">
        <ele>2746.8178405017</ele>
        <time>2014-06-15T07:42:57Z</time>
      </trkpt>
      <trkpt lat="42.77918" lon="-0.12415">
        <ele>2746.8178405017</ele>
        <time>2014-06-15T07:43:05Z</time>
      </trkpt>
      <trkpt lat="42.77916" lon="-0.12413">
        <ele>2746.8178405017</ele>
        <time>2014-06-15T07:43:07Z</time>
      </trkpt>
      <trkpt lat="42.77914" lon="-0.1241">
        <ele>2746.8178405017</ele>
        <time>2014-06-15T07:43:13Z</time>
      </trkpt>
      <trkpt lat="42.77912" lon="-0.12407">
        <ele>2749.2102112211</ele>
        <time>2014-06-15T07:43:18Z</time>
      </trkpt>
      <trkpt lat="42.7791" lon="-0.12402">
        <ele>2749.2102112211</ele>
        <time>2014-06-15T07:43:22Z</time>
      </trkpt>
      <trkpt lat="42.77909" lon="-0.12399">
        <ele>2749.2102112211</ele>
        <time>2014-06-15T07:43:28Z</time>
      </trkpt>
      <trkpt lat="42.77909" lon="-0.12398">
        <ele>2749.2102112211</ele>
        <time>2014-06-15T07:43:33Z</time>
      </trkpt>
      <trkpt lat="42.77906" lon="-0.12396">
        <ele>2749.4898089495</ele>
        <time>2014-06-15T07:43:38Z</time>
      </trkpt>
      <trkpt lat="42.77906" lon="-0.12393">
        <ele>2749.4898089495</ele>
        <time>2014-06-15T07:43:43Z</time>
      </trkpt>
      <trkpt lat="42.77905" lon="-0.12389">
        <ele>2749.4898089495</ele>
        <time>2014-06-15T07:43:48Z</time>
      </trkpt>
      <trkpt lat="42.77904" lon="-0.12386">
        <ele>2749.4898089495</ele>
        <time>2014-06-15T07:43:53Z</time>
      </trkpt>
      <trkpt lat="42.77903" lon="-0.12383">
        <ele>2747.8981652807</ele>
        <time>2014-06-15T07:43:58Z</time>
      </trkpt>
      <trkpt lat="42.779" lon="-0.12382">
        <ele>2747.8981652807</ele>
        <time>2014-06-15T07:44:03Z</time>
      </trkpt>
      <trkpt lat="42.77899" lon="-0.12384">
        <ele>2747.8981652807</ele>
        <time>2014-06-15T07:44:07Z</time>
      </trkpt>
      <trkpt lat="42.77897" lon="-0.12388">
        <ele>2747.8981652807</ele>
        <time>2014-06-15T07:44:12Z</time>
      </trkpt>
      <trkpt lat="42.77895" lon="-0.12392">
        <ele>2744.5950168735</ele>
        <time>2014-06-15T07:44:18Z</time>
      </trkpt>
      <trkpt lat="42.77895" lon="-0.12394">
        <ele>2744.5950168735</ele>
        <time>2014-06-15T07:44:22Z</time>
      </trkpt>
      <trkpt lat="42.77894" lon="-0.12397">
        <ele>2744.5950168735</ele>
        <time>2014-06-15T07:44:28Z</time>
      </trkpt>
      <trkpt lat="42.77892" lon="-0.12402">
        <ele>2744.5950168735</ele>
        <time>2014-06-15T07:44:37Z</time>
      </trkpt>
      <trkpt lat="42.77891" lon="-0.12407">
        <ele>2740.2671279408</ele>
        <time>2014-06-15T07:44:43Z</time>
      </trkpt>
      <trkpt lat="42.7789" lon="-0.1241">
        <ele>2740.2671279408</ele>
        <time>2014-06-15T07:44:48Z</time>
      </trkpt>
      <trkpt lat="42.77889" lon="-0.12414">
        <ele>2740.2671279408</ele>
        <time>2014-06-15T07:44:53Z</time>
      </trkpt>
      <trkpt lat="42.77889" lon="-0.12418">
        <ele>2740.2671279408</ele>
        <time>2014-06-15T07:44:58Z</time>
      </trkpt>
      <trkpt lat="42.77888" lon="-0.12423">
        <ele>2735.2197427195</ele>
        <time>2014-06-15T07:45:03Z</time>
      </trkpt>
      <trkpt lat="42.77887" lon="-0.12428">
        <ele>2735.2197427195</ele>
        <time>2014-06-15T07:45:07Z</time>
      </trkpt>
      <trkpt lat="42.77885" lon="-0.12432">
        <ele>2735.2197427195</ele>
        <time>2014-06-15T07:45:13Z</time>
      </trkpt>
      <trkpt lat="42.77883" lon="-0.12435">
        <ele>2729.5788719725</ele>
        <time>2014-06-15T07:45:20Z</time>
      </trkpt>
      <trkpt lat="42.77882" lon="-0.12438">
        <ele>2729.5788719725</ele>
        <time>2014-06-15T07:45:23Z</time>
      </trkpt>
      <trkpt lat="42.7788" lon="-0.12442">
        <ele>2729.5788719725</ele>
        <time>2014-06-15T07:45:28Z</time>
      </trkpt>
      <trkpt lat="42.77878" lon="-0.12446">
        <ele>2723.499700635</ele>
        <time>2014-06-15T07:45:33Z</time>
      </trkpt>
      <trkpt lat="42.77877" lon="-0.12448">
        <ele>2723.499700635</ele>
        <time>2014-06-15T07:45:38Z</time>
      </trkpt>
      <trkpt lat="42.77874" lon="-0.1245">
        <ele>2723.499700635</ele>
        <time>2014-06-15T07:45:43Z</time>
      </trkpt>
      <trkpt lat="42.77872" lon="-0.12454">
        <ele>2723.499700635</ele>
        <time>2014-06-15T07:45:48Z</time>
      </trkpt>
      <trkpt lat="42.77871" lon="-0.12454">
        <ele>2717.0168605326</ele>
        <time>2014-06-15T07:45:53Z</time>
      </trkpt>
      <trkpt lat="42.77868" lon="-0.12457">
        <ele>2717.0168605326</ele>
        <time>2014-06-15T07:45:58Z</time>
      </trkpt>
      <trkpt lat="42.77868" lon="-0.12457">
        <ele>2717.0168605326</ele>
        <time>2014-06-15T07:46:03Z</time>
      </trkpt>
      <trkpt lat="42.7786" lon="-0.12449">
        <ele>2709.9832408278</ele>
        <time>2014-06-15T07:50:18Z</time>
      </trkpt>
      <trkpt lat="42.77855" lon="-0.12434">
        <ele>2703.257784904</ele>
        <time>2014-06-15T07:50:23Z</time>
      </trkpt>
      <trkpt lat="42.77852" lon="-0.1242">
        <ele>2696.7938087047</ele>
        <time>2014-06-15T07:50:28Z</time>
      </trkpt>
      <trkpt lat="42.77846" lon="-0.12401">
        <ele>2690.2206815408</ele>
        <time>2014-06-15T07:50:33Z</time>
      </trkpt>
      <trkpt lat="42.77837" lon="-0.12389">
        <ele>2683.6909199598</ele>
        <time>2014-06-15T07:50:38Z</time>
      </trkpt>
      <trkpt lat="42.77833" lon="-0.12364">
        <ele>2676.6881501154</ele>
        <time>2014-06-15T07:50:43Z</time>
      </trkpt>
      <trkpt lat="42.77829" lon="-0.12347">
        <ele>2669.6428946061</ele>
        <time>2014-06-15T07:50:48Z</time>
      </trkpt>
      <trkpt lat="42.77824" lon="-0.12322">
        <ele>2662.4326732466</ele>
        <time>2014-06-15T07:50:53Z</time>
      </trkpt>
      <trkpt lat="42.77817" lon="-0.12296">
        <ele>2655.1704731888</ele>
        <time>2014-06-15T07:50:58Z</time>
      </trkpt>
      <trkpt lat="42.77811" lon="-0.12272">
        <ele>2647.9978944327</ele>
        <time>2014-06-15T07:51:02Z</time>
      </trkpt>
      <trkpt lat="42.77802" lon="-0.12248">
        <ele>2640.889807091</ele>
        <time>2014-06-15T07:51:08Z</time>
      </trkpt>
      <trkpt lat="42.77798" lon="-0.12234">
        <ele>2634.0194189687</ele>
        <time>2014-06-15T07:51:13Z</time>
      </trkpt>
      <trkpt lat="42.77793" lon="-0.12219">
        <ele>2627.3684063525</ele>
        <time>2014-06-15T07:51:18Z</time>
      </trkpt>
      <trkpt lat="42.7779" lon="-0.12205">
        <ele>2620.9930986521</ele>
        <time>2014-06-15T07:51:23Z</time>
      </trkpt>
      <trkpt lat="42.77789" lon="-0.12193">
        <ele>2620.9930986521</ele>
        <time>2014-06-15T07:51:28Z</time>
      </trkpt>
      <trkpt lat="42.77787" lon="-0.12183">
        <ele>2614.824916929</ele>
        <time>2014-06-15T07:51:33Z</time>
      </trkpt>
      <trkpt lat="42.77784" lon="-0.12175">
        <ele>2614.824916929</ele>
        <time>2014-06-15T07:51:38Z</time>
      </trkpt>
      <trkpt lat="42.7778" lon="-0.12161">
        <ele>2608.510640084</ele>
        <time>2014-06-15T07:51:43Z</time>
      </trkpt>
      <trkpt lat="42.77771" lon="-0.12145">
        <ele>2602.099720477</ele>
        <time>2014-06-15T07:51:48Z</time>
      </trkpt>
      <trkpt lat="42.77763" lon="-0.12137">
        <ele>2595.8388047876</ele>
        <time>2014-06-15T07:51:53Z</time>
      </trkpt>
      <trkpt lat="42.77758" lon="-0.12134">
        <ele>2595.8388047876</ele>
        <time>2014-06-15T07:51:58Z</time>
      </trkpt>
      <trkpt lat="42.77759" lon="-0.12134">
        <ele>2595.8388047876</ele>
        <time>2014-06-15T07:52:02Z</time>
      </trkpt>
      <trkpt lat="42.77757" lon="-0.12129">
        <ele>2590.1763536896</ele>
        <time>2014-06-15T07:55:28Z</time>
      </trkpt>
      <trkpt lat="42.77755" lon="-0.12125">
        <ele>2590.1763536896</ele>
        <time>2014-06-15T07:55:33Z</time>
      </trkpt>
      <trkpt lat="42.77753" lon="-0.12122">
        <ele>2590.1763536896</ele>
        <time>2014-06-15T07:55:38Z</time>
      </trkpt>
      <trkpt lat="42.77752" lon="-0.12117">
        <ele>2584.8535479595</ele>
        <time>2014-06-15T07:55:43Z</time>
      </trkpt>
      <trkpt lat="42.77751" lon="-0.12111">
        <ele>2584.8535479595</ele>
        <time>2014-06-15T07:55:48Z</time>
      </trkpt>
      <trkpt lat="42.77748" lon="-0.12107">
        <ele>2584.8535479595</ele>
        <time>2014-06-15T07:55:53Z</time>
      </trkpt>
      <trkpt lat="42.77746" lon="-0.12104">
        <ele>2579.768412282</ele>
        <time>2014-06-15T07:55:58Z</time>
      </trkpt>
      <trkpt lat="42.77745" lon="-0.12101">
        <ele>2579.768412282</ele>
        <time>2014-06-15T07:56:03Z</time>
      </trkpt>
      <trkpt lat="42.77744" lon="-0.12097">
        <ele>2579.768412282</ele>
        <time>2014-06-15T07:56:08Z</time>
      </trkpt>
      <trkpt lat="42.77744" lon="-0.12096">
        <ele>2579.768412282</ele>
        <time>2014-06-15T07:56:13Z</time>
      </trkpt>
      <trkpt lat="42.77746" lon="-0.12093">
        <ele>2574.67883426</ele>
        <time>2014-06-15T07:56:18Z</time>
      </trkpt>
      <trkpt lat="42.77745" lon="-0.12088">
        <ele>2574.67883426</ele>
        <time>2014-06-15T07:56:23Z</time>
      </trkpt>
      <trkpt lat="42.77743" lon="-0.12085">
        <ele>2574.67883426</ele>
        <time>2014-06-15T07:56:28Z</time>
      </trkpt>
      <trkpt lat="42.77741" lon="-0.12082">
        <ele>2569.6897822791</ele>
        <time>2014-06-15T07:56:33Z</time>
      </trkpt>
      <trkpt lat="42.77739" lon="-0.12079">
        <ele>2569.6897822791</ele>
        <time>2014-06-15T07:56:37Z</time>
      </trkpt>
      <trkpt lat="42.77742" lon="-0.12078">
        <ele>2569.6897822791</ele>
        <time>2014-06-15T07:56:42Z</time>
      </trkpt>
      <trkpt lat="42.77745" lon="-0.12077">
        <ele>2569.6897822791</ele>
        <time>2014-06-15T07:56:48Z</time>
      </trkpt>
      <trkpt lat="42.77744" lon="-0.12075">
        <ele>2564.548023382</ele>
        <time>2014-06-15T07:56:52Z</time>
      </trkpt>
      <trkpt lat="42.77742" lon="-0.12072">
        <ele>2564.548023382</ele>
        <time>2014-06-15T07:56:58Z</time>
      </trkpt>
      <trkpt lat="42.77738" lon="-0.1207">
        <ele>2564.548023382</ele>
        <time>2014-06-15T07:57:03Z</time>
      </trkpt>
      <trkpt lat="42.77734" lon="-0.12071">
        <ele>2559.5005050173</ele>
        <time>2014-06-15T07:57:08Z</time>
      </trkpt>
      <trkpt lat="42.77733" lon="-0.12068">
        <ele>2559.5005050173</ele>
        <time>2014-06-15T07:57:13Z</time>
      </trkpt>
      <trkpt lat="42.77736" lon="-0.12066">
        <ele>2559.5005050173</ele>
        <time>2014-06-15T07:57:18Z</time>
      </trkpt>
      <trkpt lat="42.77738" lon="-0.12062">
        <ele>2559.5005050173</ele>
        <time>2014-06-15T07:57:22Z</time>
      </trkpt>
      <trkpt lat="42.7774" lon="-0.12058">
        <ele>2554.2010135137</ele>
        <time>2014-06-15T07:57:28Z</time>
      </trkpt>
      <trkpt lat="42.77744" lon="-0.12054">
        <ele>2554.2010135137</ele>
        <time>2014-06-15T07:57:33Z</time>
      </trkpt>
      <trkpt lat="42.77742" lon="-0.12052">
        <ele>2554.2010135137</ele>
        <time>2014-06-15T07:57:38Z</time>
      </trkpt>
      <trkpt lat="42.77739" lon="-0.12052">
        <ele>2548.8152330451</ele>
        <time>2014-06-15T07:57:43Z</time>
      </trkpt>
      <trkpt lat="42.77736" lon="-0.12051">
        <ele>2548.8152330451</ele>
        <time>2014-06-15T07:57:48Z</time>
      </trkpt>
      <trkpt lat="42.7773" lon="-0.1205">
        <ele>2543.663096633</ele>
        <time>2014-06-15T07:57:53Z</time>
      </trkpt>
      <trkpt lat="42.77726" lon="-0.12051">
        <ele>2543.663096633</ele>
        <time>2014-06-15T07:57:58Z</time>
      </trkpt>
      <trkpt lat="42.77723" lon="-0.12053">
        <ele>2543.663096633</ele>
        <time>2014-06-15T07:58:03Z</time>
      </trkpt>
      <trkpt lat="42.7772" lon="-0.12057">
        <ele>2538.8770775273</ele>
        <time>2014-06-15T07:58:09Z</time>
      </trkpt>
      <trkpt lat="42.77715" lon="-0.12061">
        <ele>2538.8770775273</ele>
        <time>2014-06-15T07:58:13Z</time>
      </trkpt>
      <trkpt lat="42.77713" lon="-0.12066">
        <ele>2534.4272806008</ele>
        <time>2014-06-15T07:58:18Z</time>
      </trkpt>
      <trkpt lat="42.77711" lon="-0.12068">
        <ele>2534.4272806008</ele>
        <time>2014-06-15T07:58:22Z</time>
      </trkpt>
      <trkpt lat="42.77709" lon="-0.12071">
        <ele>2534.4272806008</ele>
        <time>2014-06-15T07:58:28Z</time>
      </trkpt>
      <trkpt lat="42.77707" lon="-0.12072">
        <ele>2534.4272806008</ele>
        <time>2014-06-15T07:58:32Z</time>
      </trkpt>
      <trkpt lat="42.77706" lon="-0.12074">
        <ele>2534.4272806008</ele>
        <time>2014-06-15T07:58:38Z</time>
      </trkpt>
      <trkpt lat="42.77706" lon="-0.12074">
        <ele>2529.951259421</ele>
        <time>2014-06-15T07:58:43Z</time>
      </trkpt>
      <trkpt lat="42.77703" lon="-0.12075">
        <ele>2529.951259421</ele>
        <time>2014-06-15T07:58:47Z</time>
      </trkpt>
      <trkpt lat="42.77701" lon="-0.12079">
        <ele>2529.951259421</ele>
        <time>2014-06-15T07:58:53Z</time>
      </trkpt>
      <trkpt lat="42.77699" lon="-0.12084">
        <ele>2525.8507037508</ele>
        <time>2014-06-15T07:58:58Z</time>
      </trkpt>
      <trkpt lat="42.77698" lon="-0.12087">
        <ele>2525.8507037508</ele>
        <time>2014-06-15T07:59:03Z</time>
      </trkpt>
      <trkpt lat="42.77696" lon="-0.12089">
        <ele>2525.8507037508</ele>
        <time>2014-06-15T07:59:08Z</time>
      </trkpt>
      <trkpt lat="42.77694" lon="-0.12092">
        <ele>2525.8507037508</ele>
        <time>2014-06-15T07:59:13Z</time>
      </trkpt>
      <trkpt lat="42.77691" lon="-0.12096">
        <ele>2522.0425012523</ele>
        <time>2014-06-15T07:59:18Z</time>
      </trkpt>
      <trkpt lat="42.77689" lon="-0.12101">
        <ele>2522.0425012523</ele>
        <time>2014-06-15T07:59:23Z</time>
      </trkpt>
      <trkpt lat="42.77687" lon="-0.12105">
        <ele>2522.0425012523</ele>
        <time>2014-06-15T07:59:27Z</time>
      </trkpt>
      <trkpt lat="42.77683" lon="-0.1211">
        <ele>2518.4778155617</ele>
        <time>2014-06-15T07:59:33Z</time>
      </trkpt>
      <trkpt lat="42.7768" lon="-0.12114">
        <ele>2518.4778155617</ele>
        <time>2014-06-15T07:59:37Z</time>
      </trkpt>
      <trkpt lat="42.77678" lon="-0.12122">
        <ele>2515.2004505067</ele>
        <time>2014-06-15T07:59:43Z</time>
      </trkpt>
      <trkpt lat="42.77679" lon="-0.12124">
        <ele>2515.2004505067</ele>
        <time>2014-06-15T07:59:48Z</time>
      </trkpt>
      <trkpt lat="42.77678" lon="-0.12128">
        <ele>2515.2004505067</ele>
        <time>2014-06-15T07:59:53Z</time>
      </trkpt>
      <trkpt lat="42.77678" lon="-0.12129">
        <ele>2515.2004505067</ele>
        <time>2014-06-15T07:59:58Z</time>
      </trkpt>
      <trkpt lat="42.77676" lon="-0.12133">
        <ele>2515.2004505067</ele>
        <time>2014-06-15T08:00:02Z</time>
      </trkpt>
      <trkpt lat="42.77676" lon="-0.12133">
        <ele>2515.2004505067</ele>
        <time>2014-06-15T08:00:08Z</time>
      </trkpt>
      <trkpt lat="42.77676" lon="-0.12136">
        <ele>2511.7818460135</ele>
        <time>2014-06-15T08:00:13Z</time>
      </trkpt>
      <trkpt lat="42.77676" lon="-0.1214">
        <ele>2511.7818460135</ele>
        <time>2014-06-15T08:00:18Z</time>
      </trkpt>
      <trkpt lat="42.77676" lon="-0.12139">
        <ele>2511.7818460135</ele>
        <time>2014-06-15T08:00:23Z</time>
      </trkpt>
      <trkpt lat="42.77678" lon="-0.12135">
        <ele>2511.7818460135</ele>
        <time>2014-06-15T08:00:33Z</time>
      </trkpt>
      <trkpt lat="42.77679" lon="-0.12132">
        <ele>2508.9270304543</ele>
        <time>2014-06-15T08:00:38Z</time>
      </trkpt>
      <trkpt lat="42.7768" lon="-0.12133">
        <ele>2508.9270304543</ele>
        <time>2014-06-15T08:00:43Z</time>
      </trkpt>
      <trkpt lat="42.77681" lon="-0.12138">
        <ele>2508.9270304543</ele>
        <time>2014-06-15T08:00:48Z</time>
      </trkpt>
      <trkpt lat="42.77681" lon="-0.12142">
        <ele>2508.9270304543</ele>
        <time>2014-06-15T08:00:52Z</time>
      </trkpt>
      <trkpt lat="42.77682" lon="-0.12148">
        <ele>2506.4998626061</ele>
        <time>2014-06-15T08:00:58Z</time>
      </trkpt>
      <trkpt lat="42.77682" lon="-0.12149">
        <ele>2506.4998626061</ele>
        <time>2014-06-15T08:01:03Z</time>
      </trkpt>
      <trkpt lat="42.77681" lon="-0.12154">
        <ele>2506.4998626061</ele>
        <time>2014-06-15T08:01:08Z</time>
      </trkpt>
      <trkpt lat="42.77681" lon="-0.12157">
        <ele>2506.4998626061</ele>
        <time>2014-06-15T08:01:13Z</time>
      </trkpt>
      <trkpt lat="42.77681" lon="-0.12162">
        <ele>2504.5685946669</ele>
        <time>2014-06-15T08:01:18Z</time>
      </trkpt>
      <trkpt lat="42.77681" lon="-0.12165">
        <ele>2504.5685946669</ele>
        <time>2014-06-15T08:01:22Z</time>
      </trkpt>
      <trkpt lat="42.7768" lon="-0.12167">
        <ele>2504.5685946669</ele>
        <time>2014-06-15T08:01:28Z</time>
      </trkpt>
      <trkpt lat="42.7768" lon="-0.12171">
        <ele>2504.5685946669</ele>
        <time>2014-06-15T08:01:33Z</time>
      </trkpt>
      <trkpt lat="42.77679" lon="-0.12174">
        <ele>2503.0892445792</ele>
        <time>2014-06-15T08:01:38Z</time>
      </trkpt>
      <trkpt lat="42.77679" lon="-0.12174">
        <ele>2503.0892445792</ele>
        <time>2014-06-15T08:01:43Z</time>
      </trkpt>
      <trkpt lat="42.77679" lon="-0.1218">
        <ele>2503.0892445792</ele>
        <time>2014-06-15T08:01:48Z</time>
      </trkpt>
      <trkpt lat="42.7768" lon="-0.12182">
        <ele>2503.0892445792</ele>
        <time>2014-06-15T08:01:53Z</time>
      </trkpt>
      <trkpt lat="42.77679" lon="-0.12185">
        <ele>2503.0892445792</ele>
        <time>2014-06-15T08:01:58Z</time>
      </trkpt>
      <trkpt lat="42.77679" lon="-0.12186">
        <ele>2502.1394758845</ele>
        <time>2014-06-15T08:02:03Z</time>
      </trkpt>
      <trkpt lat="42.77679" lon="-0.12189">
        <ele>2502.1394758845</ele>
        <time>2014-06-15T08:02:13Z</time>
      </trkpt>
      <trkpt lat="42.77678" lon="-0.12189">
        <ele>2502.1394758845</ele>
        <time>2014-06-15T08:02:18Z</time>
      </trkpt>
      <trkpt lat="42.77675" lon="-0.12194">
        <ele>2502.1394758845</ele>
        <time>2014-06-15T08:02:48Z</time>
      </trkpt>
      <trkpt lat="42.77675" lon="-0.12198">
        <ele>2501.5356588104</ele>
        <time>2014-06-15T08:02:53Z</time>
      </trkpt>
      <trkpt lat="42.7768" lon="-0.12195">
        <ele>2501.5356588104</ele>
        <time>2014-06-15T08:03:43Z</time>
      </trkpt>
      <trkpt lat="42.7768" lon="-0.12195">
        <ele>2501.5356588104</ele>
        <time>2014-06-15T08:03:48Z</time>
      </trkpt>
      <trkpt lat="42.7768" lon="-0.12208">
        <ele>2501.7773058535</ele>
        <time>2014-06-15T08:04:18Z</time>
      </trkpt>
      <trkpt lat="42.7768" lon="-0.12211">
        <ele>2501.7773058535</ele>
        <time>2014-06-15T08:04:23Z</time>
      </trkpt>
      <trkpt lat="42.7768" lon="-0.12213">
        <ele>2501.7773058535</ele>
        <time>2014-06-15T08:04:28Z</time>
      </trkpt>
      <trkpt lat="42.77681" lon="-0.12216">
        <ele>2501.7773058535</ele>
        <time>2014-06-15T08:04:43Z</time>
      </trkpt>
      <trkpt lat="42.77681" lon="-0.12217">
        <ele>2501.7773058535</ele>
        <time>2014-06-15T08:04:48Z</time>
      </trkpt>
      <trkpt lat="42.77679" lon="-0.12223">
        <ele>2502.4452652507</ele>
        <time>2014-06-15T08:05:03Z</time>
      </trkpt>
      <trkpt lat="42.77678" lon="-0.12226">
        <ele>2502.4452652507</ele>
        <time>2014-06-15T08:05:08Z</time>
      </trkpt>
      <trkpt lat="42.77678" lon="-0.12227">
        <ele>2502.4452652507</ele>
        <time>2014-06-15T08:05:13Z</time>
      </trkpt>
      <trkpt lat="42.77679" lon="-0.12233">
        <ele>2502.4452652507</ele>
        <time>2014-06-15T08:05:23Z</time>
      </trkpt>
      <trkpt lat="42.77679" lon="-0.12236">
        <ele>2503.4355795182</ele>
        <time>2014-06-15T08:05:28Z</time>
      </trkpt>
      <trkpt lat="42.77679" lon="-0.12236">
        <ele>2503.4355795182</ele>
        <time>2014-06-15T08:05:33Z</time>
      </trkpt>
      <trkpt lat="42.77678" lon="-0.12241">
        <ele>2503.4355795182</ele>
        <time>2014-06-15T08:05:43Z</time>
      </trkpt>
      <trkpt lat="42.77678" lon="-0.12246">
        <ele>2503.4355795182</ele>
        <time>2014-06-15T08:05:48Z</time>
      </trkpt>
      <trkpt lat="42.77678" lon="-0.1225">
        <ele>2504.8293603575</ele>
        <time>2014-06-15T08:05:53Z</time>
      </trkpt>
      <trkpt lat="42.77678" lon="-0.12251">
        <ele>2504.8293603575</ele>
        <time>2014-06-15T08:05:58Z</time>
      </trkpt>
      <trkpt lat="42.7768" lon="-0.12254">
        <ele>2504.8293603575</ele>
        <time>2014-06-15T08:06:08Z</time>
      </trkpt>
      <trkpt lat="42.7768" lon="-0.12257">
        <ele>2504.8293603575</ele>
        <time>2014-06-15T08:06:13Z</time>
      </trkpt>
      <trkpt lat="42.7768" lon="-0.12259">
        <ele>2504.8293603575</ele>
        <time>2014-06-15T08:06:18Z</time>
      </trkpt>
      <trkpt lat="42.7768" lon="-0.12261">
        <ele>2504.8293603575</ele>
        <time>2014-06-15T08:06:23Z</time>
      </trkpt>
      <trkpt lat="42.7768" lon="-0.12261">
        <ele>2506.6412975614</ele>
        <time>2014-06-15T08:06:28Z</time>
      </trkpt>
      <trkpt lat="42.7768" lon="-0.12265">
        <ele>2506.6412975614</ele>
        <time>2014-06-15T08:06:38Z</time>
      </trkpt>
      <trkpt lat="42.7768" lon="-0.12266">
        <ele>2506.6412975614</ele>
        <time>2014-06-15T08:06:43Z</time>
      </trkpt>
      <trkpt lat="42.7768" lon="-0.12273">
        <ele>2506.6412975614</ele>
        <time>2014-06-15T08:07:23Z</time>
      </trkpt>
      <trkpt lat="42.77679" lon="-0.12277">
        <ele>2509.0748695915</ele>
        <time>2014-06-15T08:07:28Z</time>
      </trkpt>
      <trkpt lat="42.77679" lon="-0.1228">
        <ele>2509.0748695915</ele>
        <time>2014-06-15T08:07:33Z</time>
      </trkpt>
      <trkpt lat="42.77678" lon="-0.12283">
        <ele>2509.0748695915</ele>
        <time>2014-06-15T08:07:38Z</time>
      </trkpt>
      <trkpt lat="42.77679" lon="-0.12283">
        <ele>2509.0748695915</ele>
        <time>2014-06-15T08:07:43Z</time>
      </trkpt>
      <trkpt lat="42.7768" lon="-0.1229">
        <ele>2512.0518292656</ele>
        <time>2014-06-15T08:08:28Z</time>
      </trkpt>
      <trkpt lat="42.77679" lon="-0.12291">
        <ele>2512.0518292656</ele>
        <time>2014-06-15T08:08:33Z</time>
      </trkpt>
      <trkpt lat="42.7768" lon="-0.12296">
        <ele>2512.0518292656</ele>
        <time>2014-06-15T08:08:43Z</time>
      </trkpt>
      <trkpt lat="42.77679" lon="-0.12301">
        <ele>2512.0518292656</ele>
        <time>2014-06-15T08:08:48Z</time>
      </trkpt>
      <trkpt lat="42.77679" lon="-0.12304">
        <ele>2515.1630891742</ele>
        <time>2014-06-15T08:08:53Z</time>
      </trkpt>
      <trkpt lat="42.77679" lon="-0.12308">
        <ele>2515.1630891742</ele>
        <time>2014-06-15T08:08:58Z</time>
      </trkpt>
      <trkpt lat="42.7768" lon="-0.1231">
        <ele>2515.1630891742</ele>
        <time>2014-06-15T08:09:03Z</time>
      </trkpt>
      <trkpt lat="42.7768" lon="-0.12314">
        <ele>2515.1630891742</ele>
        <time>2014-06-15T08:09:08Z</time>
      </trkpt>
      <trkpt lat="42.77681" lon="-0.12318">
        <ele>2518.2953702363</ele>
        <time>2014-06-15T08:09:13Z</time>
      </trkpt>
      <trkpt lat="42.77681" lon="-0.12318">
        <ele>2518.2953702363</ele>
        <time>2014-06-15T08:09:18Z</time>
      </trkpt>
      <trkpt lat="42.77679" lon="-0.12327">
        <ele>2518.2953702363</ele>
        <time>2014-06-15T08:10:18Z</time>
      </trkpt>
      <trkpt lat="42.77678" lon="-0.1233">
        <ele>2521.6941856309</ele>
        <time>2014-06-15T08:10:28Z</time>
      </trkpt>
      <trkpt lat="42.77678" lon="-0.12331">
        <ele>2521.6941856309</ele>
        <time>2014-06-15T08:10:33Z</time>
      </trkpt>
      <trkpt lat="42.77676" lon="-0.12343">
        <ele>2525.1049799958</ele>
        <time>2014-06-15T08:13:48Z</time>
      </trkpt>
      <trkpt lat="42.77671" lon="-0.1235">
        <ele>2525.1049799958</ele>
        <time>2014-06-15T08:14:53Z</time>
      </trkpt>
      <trkpt lat="42.77671" lon="-0.1235">
        <ele>2525.1049799958</ele>
        <time>2014-06-15T08:14:58Z</time>
      </trkpt>
      <trkpt lat="42.77673" lon="-0.12357">
        <ele>2528.0757203067</ele>
        <time>2014-06-15T08:15:33Z</time>
      </trkpt>
      <trkpt lat="42.77673" lon="-0.12357">
        <ele>2528.0757203067</ele>
        <time>2014-06-15T08:15:38Z</time>
      </trkpt>
      <trkpt lat="42.77671" lon="-0.12369">
        <ele>2528.0757203067</ele>
        <time>2014-06-15T08:16:23Z</time>
      </trkpt>
      <trkpt lat="42.77671" lon="-0.1237">
        <ele>2530.9743232117</ele>
        <time>2014-06-15T08:16:38Z</time>
      </trkpt>
      <trkpt lat="42.77671" lon="-0.12371">
        <ele>2530.9743232117</ele>
        <time>2014-06-15T08:16:43Z</time>
      </trkpt>
      <trkpt lat="42.7767" lon="-0.1238">
        <ele>2530.9743232117</ele>
        <time>2014-06-15T08:17:38Z</time>
      </trkpt>
      <trkpt lat="42.7767" lon="-0.12382">
        <ele>2533.4447544428</ele>
        <time>2014-06-15T08:17:43Z</time>
      </trkpt>
      <trkpt lat="42.7767" lon="-0.12384">
        <ele>2533.4447544428</ele>
        <time>2014-06-15T08:17:48Z</time>
      </trkpt>
      <trkpt lat="42.7767" lon="-0.12384">
        <ele>2533.4447544428</ele>
        <time>2014-06-15T08:17:53Z</time>
      </trkpt>
      <trkpt lat="42.77671" lon="-0.12388">
        <ele>2533.4447544428</ele>
        <time>2014-06-15T08:18:03Z</time>
      </trkpt>
      <trkpt lat="42.77671" lon="-0.1239">
        <ele>2533.4447544428</ele>
        <time>2014-06-15T08:18:08Z</time>
      </trkpt>
      <trkpt lat="42.77671" lon="-0.12392">
        <ele>2533.4447544428</ele>
        <time>2014-06-15T08:18:13Z</time>
      </trkpt>
      <trkpt lat="42.77671" lon="-0.12395">
        <ele>2536.0571191674</ele>
        <time>2014-06-15T08:18:38Z</time>
      </trkpt>
      <trkpt lat="42.77671" lon="-0.12396">
        <ele>2536.0571191674</ele>
        <time>2014-06-15T08:18:43Z</time>
      </trkpt>
      <trkpt lat="42.77672" lon="-0.12399">
        <ele>2536.0571191674</ele>
        <time>2014-06-15T08:18:53Z</time>
      </trkpt>
      <trkpt lat="42.77671" lon="-0.12404">
        <ele>2536.0571191674</ele>
        <time>2014-06-15T08:19:04Z</time>
      </trkpt>
      <trkpt lat="42.77671" lon="-0.12406">
        <ele>2536.0571191674</ele>
        <time>2014-06-15T08:19:07Z</time>
      </trkpt>
      <trkpt lat="42.7767" lon="-0.1241">
        <ele>2538.7733839408</ele>
        <time>2014-06-15T08:19:13Z</time>
      </trkpt>
      <trkpt lat="42.77669" lon="-0.12411">
        <ele>2538.7733839408</ele>
        <time>2014-06-15T08:19:18Z</time>
      </trkpt>
      <trkpt lat="42.77669" lon="-0.12414">
        <ele>2538.7733839408</ele>
        <time>2014-06-15T08:19:23Z</time>
      </trkpt>
      <trkpt lat="42.77668" lon="-0.12417">
        <ele>2538.7733839408</ele>
        <time>2014-06-15T08:19:28Z</time>
      </trkpt>
      <trkpt lat="42.77668" lon="-0.12421">
        <ele>2538.7733839408</ele>
        <time>2014-06-15T08:19:33Z</time>
      </trkpt>
      <trkpt lat="42.77668" lon="-0.12422">
        <ele>2541.500618165</ele>
        <time>2014-06-15T08:19:38Z</time>
      </trkpt>
      <trkpt lat="42.77667" lon="-0.12425">
        <ele>2541.500618165</ele>
        <time>2014-06-15T08:19:43Z</time>
      </trkpt>
      <trkpt lat="42.77667" lon="-0.12427">
        <ele>2541.500618165</ele>
        <time>2014-06-15T08:19:48Z</time>
      </trkpt>
      <trkpt lat="42.77667" lon="-0.12429">
        <ele>2541.500618165</ele>
        <time>2014-06-15T08:19:53Z</time>
      </trkpt>
      <trkpt lat="42.77667" lon="-0.12432">
        <ele>2541.500618165</ele>
        <time>2014-06-15T08:19:58Z</time>
      </trkpt>
      <trkpt lat="42.77667" lon="-0.12436">
        <ele>2544.0665340669</ele>
        <time>2014-06-15T08:20:03Z</time>
      </trkpt>
      <trkpt lat="42.77667" lon="-0.12439">
        <ele>2544.0665340669</ele>
        <time>2014-06-15T08:20:08Z</time>
      </trkpt>
      <trkpt lat="42.77666" lon="-0.12441">
        <ele>2544.0665340669</ele>
        <time>2014-06-15T08:20:13Z</time>
      </trkpt>
      <trkpt lat="42.77666" lon="-0.12442">
        <ele>2544.0665340669</ele>
        <time>2014-06-15T08:20:18Z</time>
      </trkpt>
      <trkpt lat="42.77666" lon="-0.12444">
        <ele>2544.0665340669</ele>
        <time>2014-06-15T08:20:22Z</time>
      </trkpt>
      <trkpt lat="42.77666" lon="-0.12448">
        <ele>2544.0665340669</ele>
        <time>2014-06-15T08:20:28Z</time>
      </trkpt>
      <trkpt lat="42.77667" lon="-0.1245">
        <ele>2546.5435053066</ele>
        <time>2014-06-15T08:20:33Z</time>
      </trkpt>
      <trkpt lat="42.77666" lon="-0.12453">
        <ele>2546.5435053066</ele>
        <time>2014-06-15T08:20:38Z</time>
      </trkpt>
      <trkpt lat="42.77666" lon="-0.12455">
        <ele>2546.5435053066</ele>
        <time>2014-06-15T08:20:43Z</time>
      </trkpt>
      <trkpt lat="42.77665" lon="-0.12458">
        <ele>2546.5435053066</ele>
        <time>2014-06-15T08:20:48Z</time>
      </trkpt>
      <trkpt lat="42.77664" lon="-0.12461">
        <ele>2546.5435053066</ele>
        <time>2014-06-15T08:20:53Z</time>
      </trkpt>
      <trkpt lat="42.77664" lon="-0.12461">
        <ele>2548.8979440551</ele>
        <time>2014-06-15T08:20:57Z</time>
      </trkpt>
      <trkpt lat="42.77662" lon="-0.12465">
        <ele>2548.8979440551</ele>
        <time>2014-06-15T08:21:03Z</time>
      </trkpt>
      <trkpt lat="42.77661" lon="-0.12467">
        <ele>2548.8979440551</ele>
        <time>2014-06-15T08:21:08Z</time>
      </trkpt>
      <trkpt lat="42.7766" lon="-0.12471">
        <ele>2548.8979440551</ele>
        <time>2014-06-15T08:21:13Z</time>
      </trkpt>
      <trkpt lat="42.77659" lon="-0.12473">
        <ele>2551.1715211034</ele>
        <time>2014-06-15T08:21:18Z</time>
      </trkpt>
      <trkpt lat="42.77658" lon="-0.12476">
        <ele>2551.1715211034</ele>
        <time>2014-06-15T08:21:23Z</time>
      </trkpt>
      <trkpt lat="42.77657" lon="-0.12479">
        <ele>2551.1715211034</ele>
        <time>2014-06-15T08:21:28Z</time>
      </trkpt>
      <trkpt lat="42.77656" lon="-0.12484">
        <ele>2551.1715211034</ele>
        <time>2014-06-15T08:21:33Z</time>
      </trkpt>
      <trkpt lat="42.77656" lon="-0.12488">
        <ele>2553.1437253152</ele>
        <time>2014-06-15T08:21:38Z</time>
      </trkpt>
      <trkpt lat="42.77655" lon="-0.12491">
        <ele>2553.1437253152</ele>
        <time>2014-06-15T08:21:43Z</time>
      </trkpt>
      <trkpt lat="42.77653" lon="-0.12495">
        <ele>2553.1437253152</ele>
        <time>2014-06-15T08:21:48Z</time>
      </trkpt>
      <trkpt lat="42.77651" lon="-0.12499">
        <ele>2554.9287970447</ele>
        <time>2014-06-15T08:21:53Z</time>
      </trkpt>
      <trkpt lat="42.7765" lon="-0.12501">
        <ele>2554.9287970447</ele>
        <time>2014-06-15T08:21:58Z</time>
      </trkpt>
      <trkpt lat="42.7765" lon="-0.12503">
        <ele>2554.9287970447</ele>
        <time>2014-06-15T08:22:02Z</time>
      </trkpt>
      <trkpt lat="42.77648" lon="-0.12507">
        <ele>2554.9287970447</ele>
        <time>2014-06-15T08:22:08Z</time>
      </trkpt>
      <trkpt lat="42.77647" lon="-0.12511">
        <ele>2556.460329163</ele>
        <time>2014-06-15T08:22:18Z</time>
      </trkpt>
      <trkpt lat="42.77645" lon="-0.12512">
        <ele>2556.460329163</ele>
        <time>2014-06-15T08:22:22Z</time>
      </trkpt>
      <trkpt lat="42.77644" lon="-0.12513">
        <ele>2556.460329163</ele>
        <time>2014-06-15T08:22:28Z</time>
      </trkpt>
      <trkpt lat="42.77643" lon="-0.12513">
        <ele>2556.460329163</ele>
        <time>2014-06-15T08:31:58Z</time>
      </trkpt>
      <trkpt lat="42.77642" lon="-0.12513">
        <ele>2556.460329163</ele>
        <time>2014-06-15T08:32:03Z</time>
      </trkpt>
      <trkpt lat="42.77643" lon="-0.12515">
        <ele>2556.460329163</ele>
        <time>2014-06-15T08:32:48Z</time>
      </trkpt>
      <trkpt lat="42.7764" lon="-0.12521">
        <ele>2558.9898858118</ele>
        <time>2014-06-15T08:32:53Z</time>
      </trkpt>
      <trkpt lat="42.7764" lon="-0.12523">
        <ele>2558.9898858118</ele>
        <time>2014-06-15T08:32:58Z</time>
      </trkpt>
      <trkpt lat="42.77639" lon="-0.12526">
        <ele>2558.9898858118</ele>
        <time>2014-06-15T08:33:03Z</time>
      </trkpt>
      <trkpt lat="42.77638" lon="-0.12529">
        <ele>2558.9898858118</ele>
        <time>2014-06-15T08:33:08Z</time>
      </trkpt>
      <trkpt lat="42.77637" lon="-0.12534">
        <ele>2561.2667501079</ele>
        <time>2014-06-15T08:33:13Z</time>
      </trkpt>
      <trkpt lat="42.77637" lon="-0.12537">
        <ele>2561.2667501079</ele>
        <time>2014-06-15T08:33:18Z</time>
      </trkpt>
      <trkpt lat="42.77636" lon="-0.1254">
        <ele>2561.2667501079</ele>
        <time>2014-06-15T08:33:23Z</time>
      </trkpt>
      <trkpt lat="42.77636" lon="-0.12541">
        <ele>2561.2667501079</ele>
        <time>2014-06-15T08:33:27Z</time>
      </trkpt>
      <trkpt lat="42.77635" lon="-0.12546">
        <ele>2563.3876464877</ele>
        <time>2014-06-15T08:33:33Z</time>
      </trkpt>
      <trkpt lat="42.77634" lon="-0.12548">
        <ele>2563.3876464877</ele>
        <time>2014-06-15T08:33:38Z</time>
      </trkpt>
      <trkpt lat="42.77633" lon="-0.1255">
        <ele>2563.3876464877</ele>
        <time>2014-06-15T08:33:43Z</time>
      </trkpt>
      <trkpt lat="42.77632" lon="-0.12553">
        <ele>2563.3876464877</ele>
        <time>2014-06-15T08:33:48Z</time>
      </trkpt>
      <trkpt lat="42.77631" lon="-0.12555">
        <ele>2563.3876464877</ele>
        <time>2014-06-15T08:33:53Z</time>
      </trkpt>
      <trkpt lat="42.77629" lon="-0.12558">
        <ele>2565.8178517864</ele>
        <time>2014-06-15T08:33:58Z</time>
      </trkpt>
      <trkpt lat="42.77627" lon="-0.1256">
        <ele>2565.8178517864</ele>
        <time>2014-06-15T08:34:03Z</time>
      </trkpt>
      <trkpt lat="42.77626" lon="-0.12562">
        <ele>2565.8178517864</ele>
        <time>2014-06-15T08:34:08Z</time>
      </trkpt>
      <trkpt lat="42.77624" lon="-0.12564">
        <ele>2565.8178517864</ele>
        <time>2014-06-15T08:34:13Z</time>
      </trkpt>
      <trkpt lat="42.77622" lon="-0.12565">
        <ele>2565.8178517864</ele>
        <time>2014-06-15T08:34:18Z</time>
      </trkpt>
      <trkpt lat="42.77621" lon="-0.12566">
        <ele>2568.5554461641</ele>
        <time>2014-06-15T08:34:23Z</time>
      </trkpt>
      <trkpt lat="42.77619" lon="-0.12565">
        <ele>2568.5554461641</ele>
        <time>2014-06-15T08:34:33Z</time>
      </trkpt>
      <trkpt lat="42.7762" lon="-0.12567">
        <ele>2568.5554461641</ele>
        <time>2014-06-15T08:34:38Z</time>
      </trkpt>
      <trkpt lat="42.77622" lon="-0.12571">
        <ele>2568.5554461641</ele>
        <time>2014-06-15T08:34:43Z</time>
      </trkpt>
      <trkpt lat="42.77624" lon="-0.12574">
        <ele>2571.1223280894</ele>
        <time>2014-06-15T08:34:48Z</time>
      </trkpt>
      <trkpt lat="42.77626" lon="-0.12576">
        <ele>2571.1223280894</ele>
        <time>2014-06-15T08:34:53Z</time>
      </trkpt>
      <trkpt lat="42.77628" lon="-0.12579">
        <ele>2571.1223280894</ele>
        <time>2014-06-15T08:34:58Z</time>
      </trkpt>
      <trkpt lat="42.77631" lon="-0.12581">
        <ele>2571.1223280894</ele>
        <time>2014-06-15T08:35:03Z</time>
      </trkpt>
      <trkpt lat="42.77633" lon="-0.12583">
        <ele>2573.8261498638</ele>
        <time>2014-06-15T08:35:08Z</time>
      </trkpt>
      <trkpt lat="42.77634" lon="-0.12584">
        <ele>2573.8261498638</ele>
        <time>2014-06-15T08:35:13Z</time>
      </trkpt>
      <trkpt lat="42.77637" lon="-0.12584">
        <ele>2573.8261498638</ele>
        <time>2014-06-15T08:35:18Z</time>
      </trkpt>
      <trkpt lat="42.77639" lon="-0.12584">
        <ele>2573.8261498638</ele>
        <time>2014-06-15T08:35:23Z</time>
      </trkpt>
      <trkpt lat="42.77642" lon="-0.12584">
        <ele>2576.7645136732</ele>
        <time>2014-06-15T08:35:28Z</time>
      </trkpt>
      <trkpt lat="42.77644" lon="-0.12584">
        <ele>2576.7645136732</ele>
        <time>2014-06-15T08:35:33Z</time>
      </trkpt>
      <trkpt lat="42.77644" lon="-0.12585">
        <ele>2576.7645136732</ele>
        <time>2014-06-15T08:35:48Z</time>
      </trkpt>
      <trkpt lat="42.77643" lon="-0.12589">
        <ele>2576.7645136732</ele>
        <time>2014-06-15T08:35:53Z</time>
      </trkpt>
      <trkpt lat="42.7764" lon="-0.12593">
        <ele>2579.753550022</ele>
        <time>2014-06-15T08:35:58Z</time>
      </trkpt>
      <trkpt lat="42.77639" lon="-0.12596">
        <ele>2579.753550022</ele>
        <time>2014-06-15T08:36:03Z</time>
      </trkpt>
      <trkpt lat="42.77638" lon="-0.12598">
        <ele>2579.753550022</ele>
        <time>2014-06-15T08:36:08Z</time>
      </trkpt>
      <trkpt lat="42.77637" lon="-0.12602">
        <ele>2579.753550022</ele>
        <time>2014-06-15T08:36:13Z</time>
      </trkpt>
      <trkpt lat="42.77635" lon="-0.12606">
        <ele>2582.5653949056</ele>
        <time>2014-06-15T08:36:18Z</time>
      </trkpt>
      <trkpt lat="42.77634" lon="-0.12607">
        <ele>2582.5653949056</ele>
        <time>2014-06-15T08:36:22Z</time>
      </trkpt>
      <trkpt lat="42.77632" lon="-0.12611">
        <ele>2582.5653949056</ele>
        <time>2014-06-15T08:36:28Z</time>
      </trkpt>
      <trkpt lat="42.7763" lon="-0.12612">
        <ele>2582.5653949056</ele>
        <time>2014-06-15T08:36:33Z</time>
      </trkpt>
      <trkpt lat="42.77628" lon="-0.12614">
        <ele>2582.5653949056</ele>
        <time>2014-06-15T08:36:38Z</time>
      </trkpt>
      <trkpt lat="42.77629" lon="-0.12617">
        <ele>2585.4224504817</ele>
        <time>2014-06-15T08:36:43Z</time>
      </trkpt>
      <trkpt lat="42.77631" lon="-0.12618">
        <ele>2585.4224504817</ele>
        <time>2014-06-15T08:36:48Z</time>
      </trkpt>
      <trkpt lat="42.77632" lon="-0.1262">
        <ele>2585.4224504817</ele>
        <time>2014-06-15T08:36:53Z</time>
      </trkpt>
      <trkpt lat="42.77633" lon="-0.12621">
        <ele>2585.4224504817</ele>
        <time>2014-06-15T08:36:58Z</time>
      </trkpt>
      <trkpt lat="42.77636" lon="-0.12623">
        <ele>2585.4224504817</ele>
        <time>2014-06-15T08:37:03Z</time>
      </trkpt>
      <trkpt lat="42.77639" lon="-0.12624">
        <ele>2588.4156325896</ele>
        <time>2014-06-15T08:37:08Z</time>
      </trkpt>
      <trkpt lat="42.77641" lon="-0.12624">
        <ele>2588.4156325896</ele>
        <time>2014-06-15T08:37:13Z</time>
      </trkpt>
      <trkpt lat="42.77641" lon="-0.12625">
        <ele>2588.4156325896</ele>
        <time>2014-06-15T08:37:18Z</time>
      </trkpt>
      <trkpt lat="42.77644" lon="-0.12626">
        <ele>2588.4156325896</ele>
        <time>2014-06-15T08:37:27Z</time>
      </trkpt>
      <trkpt lat="42.77644" lon="-0.12625">
        <ele>2588.4156325896</ele>
        <time>2014-06-15T08:37:33Z</time>
      </trkpt>
      <trkpt lat="42.77643" lon="-0.12628">
        <ele>2588.4156325896</ele>
        <time>2014-06-15T08:37:38Z</time>
      </trkpt>
      <trkpt lat="42.77642" lon="-0.1263">
        <ele>2588.4156325896</ele>
        <time>2014-06-15T08:37:43Z</time>
      </trkpt>
      <trkpt lat="42.77639" lon="-0.12634">
        <ele>2591.7733808819</ele>
        <time>2014-06-15T08:37:48Z</time>
      </trkpt>
      <trkpt lat="42.77638" lon="-0.12637">
        <ele>2591.7733808819</ele>
        <time>2014-06-15T08:37:52Z</time>
      </trkpt>
      <trkpt lat="42.77635" lon="-0.1264">
        <ele>2591.7733808819</ele>
        <time>2014-06-15T08:37:58Z</time>
      </trkpt>
      <trkpt lat="42.77633" lon="-0.12642">
        <ele>2591.7733808819</ele>
        <time>2014-06-15T08:38:03Z</time>
      </trkpt>
      <trkpt lat="42.77632" lon="-0.12645">
        <ele>2595.3172030858</ele>
        <time>2014-06-15T08:38:08Z</time>
      </trkpt>
      <trkpt lat="42.77629" lon="-0.12648">
        <ele>2595.3172030858</ele>
        <time>2014-06-15T08:38:13Z</time>
      </trkpt>
      <trkpt lat="42.77628" lon="-0.12649">
        <ele>2595.3172030858</ele>
        <time>2014-06-15T08:38:18Z</time>
      </trkpt>
      <trkpt lat="42.77628" lon="-0.12652">
        <ele>2595.3172030858</ele>
        <time>2014-06-15T08:38:28Z</time>
      </trkpt>
      <trkpt lat="42.7763" lon="-0.12655">
        <ele>2598.5497630244</ele>
        <time>2014-06-15T08:38:33Z</time>
      </trkpt>
      <trkpt lat="42.77632" lon="-0.12657">
        <ele>2598.5497630244</ele>
        <time>2014-06-15T08:38:38Z</time>
      </trkpt>
      <trkpt lat="42.77635" lon="-0.12658">
        <ele>2598.5497630244</ele>
        <time>2014-06-15T08:38:43Z</time>
      </trkpt>
      <trkpt lat="42.77635" lon="-0.12658">
        <ele>2598.5497630244</ele>
        <time>2014-06-15T08:38:48Z</time>
      </trkpt>
      <trkpt lat="42.7764" lon="-0.12659">
        <ele>2602.1654445636</ele>
        <time>2014-06-15T08:39:07Z</time>
      </trkpt>
      <trkpt lat="42.77643" lon="-0.1266">
        <ele>2602.1654445636</ele>
        <time>2014-06-15T08:39:13Z</time>
      </trkpt>
      <trkpt lat="42.77643" lon="-0.12661">
        <ele>2602.1654445636</ele>
        <time>2014-06-15T08:39:18Z</time>
      </trkpt>
      <trkpt lat="42.7764" lon="-0.12664">
        <ele>2602.1654445636</ele>
        <time>2014-06-15T08:39:28Z</time>
      </trkpt>
      <trkpt lat="42.77638" lon="-0.12665">
        <ele>2605.4797849455</ele>
        <time>2014-06-15T08:39:33Z</time>
      </trkpt>
      <trkpt lat="42.77636" lon="-0.12668">
        <ele>2605.4797849455</ele>
        <time>2014-06-15T08:39:37Z</time>
      </trkpt>
      <trkpt lat="42.77633" lon="-0.12671">
        <ele>2605.4797849455</ele>
        <time>2014-06-15T08:39:43Z</time>
      </trkpt>
      <trkpt lat="42.77631" lon="-0.12672">
        <ele>2605.4797849455</ele>
        <time>2014-06-15T08:39:47Z</time>
      </trkpt>
      <trkpt lat="42.77631" lon="-0.12673">
        <ele>2605.4797849455</ele>
        <time>2014-06-15T08:39:53Z</time>
      </trkpt>
      <trkpt lat="42.77629" lon="-0.12676">
        <ele>2608.7108577498</ele>
        <time>2014-06-15T08:40:38Z</time>
      </trkpt>
      <trkpt lat="42.77627" lon="-0.12677">
        <ele>2608.7108577498</ele>
        <time>2014-06-15T08:40:43Z</time>
      </trkpt>
      <trkpt lat="42.77626" lon="-0.12679">
        <ele>2608.7108577498</ele>
        <time>2014-06-15T08:40:48Z</time>
      </trkpt>
      <trkpt lat="42.77626" lon="-0.12679">
        <ele>2608.7108577498</ele>
        <time>2014-06-15T08:40:52Z</time>
      </trkpt>
      <trkpt lat="42.77624" lon="-0.12681">
        <ele>2608.7108577498</ele>
        <time>2014-06-15T08:42:03Z</time>
      </trkpt>
      <trkpt lat="42.77622" lon="-0.12681">
        <ele>2611.7439233489</ele>
        <time>2014-06-15T08:42:08Z</time>
      </trkpt>
      <trkpt lat="42.7762" lon="-0.12681">
        <ele>2611.7439233489</ele>
        <time>2014-06-15T08:42:13Z</time>
      </trkpt>
      <trkpt lat="42.77619" lon="-0.12682">
        <ele>2611.7439233489</ele>
        <time>2014-06-15T08:42:18Z</time>
      </trkpt>
      <trkpt lat="42.77617" lon="-0.12689">
        <ele>2611.7439233489</ele>
        <time>2014-06-15T08:42:33Z</time>
      </trkpt>
      <trkpt lat="42.77618" lon="-0.12693">
        <ele>2614.4302861111</ele>
        <time>2014-06-15T08:42:38Z</time>
      </trkpt>
      <trkpt lat="42.77618" lon="-0.12697">
        <ele>2614.4302861111</ele>
        <time>2014-06-15T08:42:42Z</time>
      </trkpt>
      <trkpt lat="42.77619" lon="-0.12702">
        <ele>2614.4302861111</ele>
        <time>2014-06-15T08:42:48Z</time>
      </trkpt>
      <trkpt lat="42.77619" lon="-0.12705">
        <ele>2616.8786545103</ele>
        <time>2014-06-15T08:42:53Z</time>
      </trkpt>
      <trkpt lat="42.7762" lon="-0.12706">
        <ele>2616.8786545103</ele>
        <time>2014-06-15T08:42:58Z</time>
      </trkpt>
      <trkpt lat="42.7762" lon="-0.12708">
        <ele>2616.8786545103</ele>
        <time>2014-06-15T08:43:13Z</time>
      </trkpt>
      <trkpt lat="42.7762" lon="-0.12711">
        <ele>2616.8786545103</ele>
        <time>2014-06-15T08:43:18Z</time>
      </trkpt>
      <trkpt lat="42.7762" lon="-0.12713">
        <ele>2616.8786545103</ele>
        <time>2014-06-15T08:43:22Z</time>
      </trkpt>
      <trkpt lat="42.77621" lon="-0.12715">
        <ele>2616.8786545103</ele>
        <time>2014-06-15T08:43:28Z</time>
      </trkpt>
      <trkpt lat="42.77621" lon="-0.12718">
        <ele>2619.6521787447</ele>
        <time>2014-06-15T08:43:33Z</time>
      </trkpt>
      <trkpt lat="42.77622" lon="-0.12725">
        <ele>2619.6521787447</ele>
        <time>2014-06-15T08:45:52Z</time>
      </trkpt>
      <trkpt lat="42.77622" lon="-0.12726">
        <ele>2619.6521787447</ele>
        <time>2014-06-15T08:45:57Z</time>
      </trkpt>
      <trkpt lat="42.77621" lon="-0.12729">
        <ele>2619.6521787447</ele>
        <time>2014-06-15T08:46:03Z</time>
      </trkpt>
      <trkpt lat="42.7762" lon="-0.12734">
        <ele>2622.5508260792</ele>
        <time>2014-06-15T08:46:08Z</time>
      </trkpt>
      <trkpt lat="42.7762" lon="-0.12738">
        <ele>2622.5508260792</ele>
        <time>2014-06-15T08:46:13Z</time>
      </trkpt>
      <trkpt lat="42.77619" lon="-0.12741">
        <ele>2622.5508260792</ele>
        <time>2014-06-15T08:46:18Z</time>
      </trkpt>
      <trkpt lat="42.77619" lon="-0.12745">
        <ele>2622.5508260792</ele>
        <time>2014-06-15T08:46:23Z</time>
      </trkpt>
      <trkpt lat="42.77619" lon="-0.12746">
        <ele>2622.5508260792</ele>
        <time>2014-06-15T08:46:28Z</time>
      </trkpt>
      <trkpt lat="42.77619" lon="-0.12749">
        <ele>2625.2161612069</ele>
        <time>2014-06-15T08:46:48Z</time>
      </trkpt>
      <trkpt lat="42.77618" lon="-0.12752">
        <ele>2625.2161612069</ele>
        <time>2014-06-15T08:46:52Z</time>
      </trkpt>
      <trkpt lat="42.77617" lon="-0.12756">
        <ele>2625.2161612069</ele>
        <time>2014-06-15T08:46:58Z</time>
      </trkpt>
      <trkpt lat="42.77616" lon="-0.1276">
        <ele>2625.2161612069</ele>
        <time>2014-06-15T08:47:03Z</time>
      </trkpt>
      <trkpt lat="42.77614" lon="-0.12763">
        <ele>2627.6198681865</ele>
        <time>2014-06-15T08:47:08Z</time>
      </trkpt>
      <trkpt lat="42.77614" lon="-0.12767">
        <ele>2627.6198681865</ele>
        <time>2014-06-15T08:47:13Z</time>
      </trkpt>
      <trkpt lat="42.77614" lon="-0.12767">
        <ele>2627.6198681865</ele>
        <time>2014-06-15T08:47:18Z</time>
      </trkpt>
      <trkpt lat="42.77611" lon="-0.12771">
        <ele>2627.6198681865</ele>
        <time>2014-06-15T08:47:28Z</time>
      </trkpt>
      <trkpt lat="42.77609" lon="-0.12776">
        <ele>2629.6213327206</ele>
        <time>2014-06-15T08:47:33Z</time>
      </trkpt>
      <trkpt lat="42.77608" lon="-0.12781">
        <ele>2629.6213327206</ele>
        <time>2014-06-15T08:47:38Z</time>
      </trkpt>
      <trkpt lat="42.77606" lon="-0.12786">
        <ele>2629.6213327206</ele>
        <time>2014-06-15T08:47:43Z</time>
      </trkpt>
      <trkpt lat="42.77603" lon="-0.1279">
        <ele>2631.3223337221</ele>
        <time>2014-06-15T08:47:48Z</time>
      </trkpt>
      <trkpt lat="42.77601" lon="-0.12793">
        <ele>2631.3223337221</ele>
        <time>2014-06-15T08:47:53Z</time>
      </trkpt>
      <trkpt lat="42.77599" lon="-0.12795">
        <ele>2631.3223337221</ele>
        <time>2014-06-15T08:47:58Z</time>
      </trkpt>
      <trkpt lat="42.77598" lon="-0.12796">
        <ele>2631.3223337221</ele>
        <time>2014-06-15T08:48:03Z</time>
      </trkpt>
      <trkpt lat="42.77594" lon="-0.128">
        <ele>2632.7605236596</ele>
        <time>2014-06-15T08:48:08Z</time>
      </trkpt>
      <trkpt lat="42.77592" lon="-0.12803">
        <ele>2632.7605236596</ele>
        <time>2014-06-15T08:48:13Z</time>
      </trkpt>
      <trkpt lat="42.77589" lon="-0.12806">
        <ele>2632.7605236596</ele>
        <time>2014-06-15T08:48:18Z</time>
      </trkpt>
      <trkpt lat="42.77587" lon="-0.12809">
        <ele>2634.1735314761</ele>
        <time>2014-06-15T08:48:23Z</time>
      </trkpt>
      <trkpt lat="42.77585" lon="-0.12811">
        <ele>2634.1735314761</ele>
        <time>2014-06-15T08:48:28Z</time>
      </trkpt>
      <trkpt lat="42.77584" lon="-0.12813">
        <ele>2634.1735314761</ele>
        <time>2014-06-15T08:48:33Z</time>
      </trkpt>
      <trkpt lat="42.77582" lon="-0.12816">
        <ele>2634.1735314761</ele>
        <time>2014-06-15T08:48:38Z</time>
      </trkpt>
      <trkpt lat="42.7758" lon="-0.1282">
        <ele>2635.4789812679</ele>
        <time>2014-06-15T08:48:43Z</time>
      </trkpt>
      <trkpt lat="42.77578" lon="-0.12822">
        <ele>2635.4789812679</ele>
        <time>2014-06-15T08:48:48Z</time>
      </trkpt>
      <trkpt lat="42.77578" lon="-0.12822">
        <ele>2635.4789812679</ele>
        <time>2014-06-15T08:48:53Z</time>
      </trkpt>
      <trkpt lat="42.77577" lon="-0.12824">
        <ele>2635.4789812679</ele>
        <time>2014-06-15T08:48:58Z</time>
      </trkpt>
      <trkpt lat="42.77575" lon="-0.12827">
        <ele>2635.4789812679</ele>
        <time>2014-06-15T08:49:03Z</time>
      </trkpt>
      <trkpt lat="42.77573" lon="-0.12829">
        <ele>2636.6298388799</ele>
        <time>2014-06-15T08:49:07Z</time>
      </trkpt>
      <trkpt lat="42.77569" lon="-0.12832">
        <ele>2636.6298388799</ele>
        <time>2014-06-15T08:49:13Z</time>
      </trkpt>
      <trkpt lat="42.77567" lon="-0.12835">
        <ele>2636.6298388799</ele>
        <time>2014-06-15T08:49:18Z</time>
      </trkpt>
      <trkpt lat="42.77564" lon="-0.12839">
        <ele>2637.8713860104</ele>
        <time>2014-06-15T08:49:23Z</time>
      </trkpt>
      <trkpt lat="42.77561" lon="-0.12842">
        <ele>2637.8713860104</ele>
        <time>2014-06-15T08:49:28Z</time>
      </trkpt>
      <trkpt lat="42.77558" lon="-0.12845">
        <ele>2637.8713860104</ele>
        <time>2014-06-15T08:49:33Z</time>
      </trkpt>
      <trkpt lat="42.77556" lon="-0.1285">
        <ele>2639.0271021309</ele>
        <time>2014-06-15T08:49:38Z</time>
      </trkpt>
      <trkpt lat="42.77554" lon="-0.12854">
        <ele>2639.0271021309</ele>
        <time>2014-06-15T08:49:43Z</time>
      </trkpt>
      <trkpt lat="42.77552" lon="-0.12857">
        <ele>2639.0271021309</ele>
        <time>2014-06-15T08:49:48Z</time>
      </trkpt>
      <trkpt lat="42.77549" lon="-0.12861">
        <ele>2640.1067537681</ele>
        <time>2014-06-15T08:49:53Z</time>
      </trkpt>
      <trkpt lat="42.77546" lon="-0.12866">
        <ele>2640.1067537681</ele>
        <time>2014-06-15T08:49:58Z</time>
      </trkpt>
      <trkpt lat="42.77544" lon="-0.12871">
        <ele>2640.1067537681</ele>
        <time>2014-06-15T08:50:03Z</time>
      </trkpt>
      <trkpt lat="42.77542" lon="-0.12877">
        <ele>2640.9178864677</ele>
        <time>2014-06-15T08:50:08Z</time>
      </trkpt>
      <trkpt lat="42.77539" lon="-0.12881">
        <ele>2640.9178864677</ele>
        <time>2014-06-15T08:50:13Z</time>
      </trkpt>
      <trkpt lat="42.77537" lon="-0.12885">
        <ele>2640.9178864677</ele>
        <time>2014-06-15T08:50:18Z</time>
      </trkpt>
      <trkpt lat="42.77535" lon="-0.12887">
        <ele>2641.6433337101</ele>
        <time>2014-06-15T08:50:23Z</time>
      </trkpt>
      <trkpt lat="42.77532" lon="-0.12891">
        <ele>2641.6433337101</ele>
        <time>2014-06-15T08:50:28Z</time>
      </trkpt>
      <trkpt lat="42.77529" lon="-0.12894">
        <ele>2641.6433337101</ele>
        <time>2014-06-15T08:50:33Z</time>
      </trkpt>
      <trkpt lat="42.77527" lon="-0.12898">
        <ele>2642.1356787277</ele>
        <time>2014-06-15T08:50:37Z</time>
      </trkpt>
      <trkpt lat="42.77524" lon="-0.12903">
        <ele>2642.1356787277</ele>
        <time>2014-06-15T08:50:44Z</time>
      </trkpt>
      <trkpt lat="42.77522" lon="-0.12906">
        <ele>2642.1356787277</ele>
        <time>2014-06-15T08:50:48Z</time>
      </trkpt>
      <trkpt lat="42.7752" lon="-0.1291">
        <ele>2642.576089084</ele>
        <time>2014-06-15T08:50:53Z</time>
      </trkpt>
      <trkpt lat="42.77519" lon="-0.12914">
        <ele>2642.576089084</ele>
        <time>2014-06-15T08:50:58Z</time>
      </trkpt>
      <trkpt lat="42.77517" lon="-0.12919">
        <ele>2642.576089084</ele>
        <time>2014-06-15T08:51:03Z</time>
      </trkpt>
      <trkpt lat="42.77515" lon="-0.12924">
        <ele>2643.0460856496</ele>
        <time>2014-06-15T08:51:08Z</time>
      </trkpt>
      <trkpt lat="42.77514" lon="-0.12927">
        <ele>2643.0460856496</ele>
        <time>2014-06-15T08:51:13Z</time>
      </trkpt>
      <trkpt lat="42.77512" lon="-0.12928">
        <ele>2643.0460856496</ele>
        <time>2014-06-15T08:51:18Z</time>
      </trkpt>
      <trkpt lat="42.7751" lon="-0.12932">
        <ele>2643.0460856496</ele>
        <time>2014-06-15T08:51:28Z</time>
      </trkpt>
      <trkpt lat="42.77508" lon="-0.12936">
        <ele>2643.549040429</ele>
        <time>2014-06-15T08:51:33Z</time>
      </trkpt>
      <trkpt lat="42.77506" lon="-0.1294">
        <ele>2643.549040429</ele>
        <time>2014-06-15T08:51:38Z</time>
      </trkpt>
      <trkpt lat="42.77505" lon="-0.12944">
        <ele>2643.549040429</ele>
        <time>2014-06-15T08:51:43Z</time>
      </trkpt>
      <trkpt lat="42.77503" lon="-0.12947">
        <ele>2644.1167801915</ele>
        <time>2014-06-15T08:51:47Z</time>
      </trkpt>
      <trkpt lat="42.77501" lon="-0.12952">
        <ele>2644.1167801915</ele>
        <time>2014-06-15T08:51:53Z</time>
      </trkpt>
      <trkpt lat="42.77499" lon="-0.12957">
        <ele>2644.1167801915</ele>
        <time>2014-06-15T08:51:58Z</time>
      </trkpt>
      <trkpt lat="42.77497" lon="-0.1296">
        <ele>2644.6488644762</ele>
        <time>2014-06-15T08:52:03Z</time>
      </trkpt>
      <trkpt lat="42.77495" lon="-0.12963">
        <ele>2644.6488644762</ele>
        <time>2014-06-15T08:52:08Z</time>
      </trkpt>
      <trkpt lat="42.77492" lon="-0.12965">
        <ele>2644.6488644762</ele>
        <time>2014-06-15T08:52:13Z</time>
      </trkpt>
      <trkpt lat="42.7749" lon="-0.12967">
        <ele>2644.6488644762</ele>
        <time>2014-06-15T08:52:18Z</time>
      </trkpt>
      <trkpt lat="42.77487" lon="-0.12969">
        <ele>2645.2252159964</ele>
        <time>2014-06-15T08:52:23Z</time>
      </trkpt>
      <trkpt lat="42.77484" lon="-0.12971">
        <ele>2645.2252159964</ele>
        <time>2014-06-15T08:52:30Z</time>
      </trkpt>
      <trkpt lat="42.77482" lon="-0.12973">
        <ele>2645.2252159964</ele>
        <time>2014-06-15T08:52:32Z</time>
      </trkpt>
      <trkpt lat="42.77479" lon="-0.12974">
        <ele>2645.9196932844</ele>
        <time>2014-06-15T08:52:38Z</time>
      </trkpt>
      <trkpt lat="42.77476" lon="-0.12974">
        <ele>2645.9196932844</ele>
        <time>2014-06-15T08:52:43Z</time>
      </trkpt>
      <trkpt lat="42.77473" lon="-0.12975">
        <ele>2645.9196932844</ele>
        <time>2014-06-15T08:52:48Z</time>
      </trkpt>
      <trkpt lat="42.77471" lon="-0.12975">
        <ele>2645.9196932844</ele>
        <time>2014-06-15T08:52:53Z</time>
      </trkpt>
      <trkpt lat="42.77471" lon="-0.12975">
        <ele>2645.9196932844</ele>
        <time>2014-06-15T08:52:58Z</time>
      </trkpt>
      <trkpt lat="42.77469" lon="-0.12975">
        <ele>2646.8435544598</ele>
        <time>2014-06-15T08:53:13Z</time>
      </trkpt>
      <trkpt lat="42.77466" lon="-0.12975">
        <ele>2646.8435544598</ele>
        <time>2014-06-15T08:53:18Z</time>
      </trkpt>
      <trkpt lat="42.77463" lon="-0.12975">
        <ele>2646.8435544598</ele>
        <time>2014-06-15T08:53:22Z</time>
      </trkpt>
      <trkpt lat="42.77461" lon="-0.12975">
        <ele>2646.8435544598</ele>
        <time>2014-06-15T08:53:28Z</time>
      </trkpt>
      <trkpt lat="42.77457" lon="-0.12974">
        <ele>2647.9838663773</ele>
        <time>2014-06-15T08:53:33Z</time>
      </trkpt>
      <trkpt lat="42.77455" lon="-0.12974">
        <ele>2647.9838663773</ele>
        <time>2014-06-15T08:53:38Z</time>
      </trkpt>
      <trkpt lat="42.77452" lon="-0.12974">
        <ele>2647.9838663773</ele>
        <time>2014-06-15T08:53:43Z</time>
      </trkpt>
      <trkpt lat="42.77449" lon="-0.12972">
        <ele>2647.9838663773</ele>
        <time>2014-06-15T08:53:48Z</time>
      </trkpt>
      <trkpt lat="42.77447" lon="-0.12971">
        <ele>2649.2703049569</ele>
        <time>2014-06-15T08:53:53Z</time>
      </trkpt>
      <trkpt lat="42.77445" lon="-0.12969">
        <ele>2649.2703049569</ele>
        <time>2014-06-15T08:53:58Z</time>
      </trkpt>
      <trkpt lat="42.77444" lon="-0.12969">
        <ele>2649.2703049569</ele>
        <time>2014-06-15T08:54:03Z</time>
      </trkpt>
      <trkpt lat="42.7744" lon="-0.12969">
        <ele>2649.2703049569</ele>
        <time>2014-06-15T08:54:38Z</time>
      </trkpt>
      <trkpt lat="42.77438" lon="-0.12968">
        <ele>2650.9254351549</ele>
        <time>2014-06-15T08:54:43Z</time>
      </trkpt>
      <trkpt lat="42.77435" lon="-0.12967">
        <ele>2650.9254351549</ele>
        <time>2014-06-15T08:54:48Z</time>
      </trkpt>
      <trkpt lat="42.77433" lon="-0.12966">
        <ele>2650.9254351549</ele>
        <time>2014-06-15T08:54:55Z</time>
      </trkpt>
      <trkpt lat="42.7743" lon="-0.12965">
        <ele>2650.9254351549</ele>
        <time>2014-06-15T08:54:58Z</time>
      </trkpt>
      <trkpt lat="42.77428" lon="-0.12964">
        <ele>2652.9093540097</ele>
        <time>2014-06-15T08:55:03Z</time>
      </trkpt>
      <trkpt lat="42.77425" lon="-0.12963">
        <ele>2652.9093540097</ele>
        <time>2014-06-15T08:55:08Z</time>
      </trkpt>
      <trkpt lat="42.77422" lon="-0.12962">
        <ele>2652.9093540097</ele>
        <time>2014-06-15T08:55:13Z</time>
      </trkpt>
      <trkpt lat="42.7742" lon="-0.1296">
        <ele>2652.9093540097</ele>
        <time>2014-06-15T08:55:18Z</time>
      </trkpt>
      <trkpt lat="42.77418" lon="-0.12959">
        <ele>2655.1552544379</ele>
        <time>2014-06-15T08:55:22Z</time>
      </trkpt>
      <trkpt lat="42.77418" lon="-0.12959">
        <ele>2655.1552544379</ele>
        <time>2014-06-15T08:55:28Z</time>
      </trkpt>
      <trkpt lat="42.77415" lon="-0.12958">
        <ele>2655.1552544379</ele>
        <time>2014-06-15T08:55:42Z</time>
      </trkpt>
      <trkpt lat="42.77413" lon="-0.12959">
        <ele>2655.1552544379</ele>
        <time>2014-06-15T08:55:48Z</time>
      </trkpt>
      <trkpt lat="42.77413" lon="-0.1296">
        <ele>2655.1552544379</ele>
        <time>2014-06-15T08:55:52Z</time>
      </trkpt>
      <trkpt lat="42.77412" lon="-0.12964">
        <ele>2657.4995364372</ele>
        <time>2014-06-15T08:56:08Z</time>
      </trkpt>
      <trkpt lat="42.77412" lon="-0.12966">
        <ele>2657.4995364372</ele>
        <time>2014-06-15T08:56:13Z</time>
      </trkpt>
      <trkpt lat="42.77412" lon="-0.1297">
        <ele>2657.4995364372</ele>
        <time>2014-06-15T08:56:18Z</time>
      </trkpt>
      <trkpt lat="42.77411" lon="-0.12974">
        <ele>2657.4995364372</ele>
        <time>2014-06-15T08:56:23Z</time>
      </trkpt>
      <trkpt lat="42.77411" lon="-0.12978">
        <ele>2660.3090692563</ele>
        <time>2014-06-15T08:56:28Z</time>
      </trkpt>
      <trkpt lat="42.77411" lon="-0.1298">
        <ele>2660.3090692563</ele>
        <time>2014-06-15T08:56:33Z</time>
      </trkpt>
      <trkpt lat="42.77411" lon="-0.12985">
        <ele>2660.3090692563</ele>
        <time>2014-06-15T08:56:38Z</time>
      </trkpt>
      <trkpt lat="42.77411" lon="-0.12988">
        <ele>2660.3090692563</ele>
        <time>2014-06-15T08:56:43Z</time>
      </trkpt>
      <trkpt lat="42.77411" lon="-0.12991">
        <ele>2663.2594760401</ele>
        <time>2014-06-15T08:56:48Z</time>
      </trkpt>
      <trkpt lat="42.77412" lon="-0.12993">
        <ele>2663.2594760401</ele>
        <time>2014-06-15T08:57:33Z</time>
      </trkpt>
      <trkpt lat="42.77412" lon="-0.12995">
        <ele>2663.2594760401</ele>
        <time>2014-06-15T08:57:38Z</time>
      </trkpt>
      <trkpt lat="42.77412" lon="-0.12998">
        <ele>2663.2594760401</ele>
        <time>2014-06-15T08:57:43Z</time>
      </trkpt>
      <trkpt lat="42.77412" lon="-0.13003">
        <ele>2663.2594760401</ele>
        <time>2014-06-15T08:57:48Z</time>
      </trkpt>
      <trkpt lat="42.77411" lon="-0.13007">
        <ele>2666.1362189987</ele>
        <time>2014-06-15T08:57:53Z</time>
      </trkpt>
      <trkpt lat="42.77411" lon="-0.1301">
        <ele>2666.1362189987</ele>
        <time>2014-06-15T08:57:58Z</time>
      </trkpt>
      <trkpt lat="42.77409" lon="-0.13011">
        <ele>2666.1362189987</ele>
        <time>2014-06-15T08:58:03Z</time>
      </trkpt>
      <trkpt lat="42.77406" lon="-0.13012">
        <ele>2666.1362189987</ele>
        <time>2014-06-15T08:58:08Z</time>
      </trkpt>
      <trkpt lat="42.77403" lon="-0.13012">
        <ele>2669.1297835336</ele>
        <time>2014-06-15T08:58:13Z</time>
      </trkpt>
      <trkpt lat="42.77403" lon="-0.13012">
        <ele>2669.1297835336</ele>
        <time>2014-06-15T08:58:18Z</time>
      </trkpt>
      <trkpt lat="42.77399" lon="-0.13012">
        <ele>2669.1297835336</ele>
        <time>2014-06-15T08:58:28Z</time>
      </trkpt>
      <trkpt lat="42.77397" lon="-0.13012">
        <ele>2669.1297835336</ele>
        <time>2014-06-15T08:58:33Z</time>
      </trkpt>
      <trkpt lat="42.77394" lon="-0.13012">
        <ele>2669.1297835336</ele>
        <time>2014-06-15T08:58:38Z</time>
      </trkpt>
      <trkpt lat="42.77391" lon="-0.13011">
        <ele>2672.2001251499</ele>
        <time>2014-06-15T08:58:43Z</time>
      </trkpt>
      <trkpt lat="42.77388" lon="-0.1301">
        <ele>2672.2001251499</ele>
        <time>2014-06-15T08:58:48Z</time>
      </trkpt>
      <trkpt lat="42.77386" lon="-0.13008">
        <ele>2672.2001251499</ele>
        <time>2014-06-15T08:58:53Z</time>
      </trkpt>
      <trkpt lat="42.77385" lon="-0.13008">
        <ele>2672.2001251499</ele>
        <time>2014-06-15T08:58:58Z</time>
      </trkpt>
      <trkpt lat="42.77382" lon="-0.13007">
        <ele>2675.2666632695</ele>
        <time>2014-06-15T08:59:37Z</time>
      </trkpt>
      <trkpt lat="42.77378" lon="-0.13005">
        <ele>2675.2666632695</ele>
        <time>2014-06-15T08:59:43Z</time>
      </trkpt>
      <trkpt lat="42.77376" lon="-0.13009">
        <ele>2675.2666632695</ele>
        <time>2014-06-15T08:59:48Z</time>
      </trkpt>
      <trkpt lat="42.77375" lon="-0.13012">
        <ele>2678.6006052432</ele>
        <time>2014-06-15T08:59:53Z</time>
      </trkpt>
      <trkpt lat="42.77375" lon="-0.13015">
        <ele>2678.6006052432</ele>
        <time>2014-06-15T08:59:58Z</time>
      </trkpt>
      <trkpt lat="42.77375" lon="-0.13015">
        <ele>2678.6006052432</ele>
        <time>2014-06-15T09:00:02Z</time>
      </trkpt>
      <trkpt lat="42.77377" lon="-0.13022">
        <ele>2678.6006052432</ele>
        <time>2014-06-15T09:00:13Z</time>
      </trkpt>
      <trkpt lat="42.77377" lon="-0.13025">
        <ele>2682.0057243297</ele>
        <time>2014-06-15T09:00:18Z</time>
      </trkpt>
      <trkpt lat="42.77378" lon="-0.13029">
        <ele>2682.0057243297</ele>
        <time>2014-06-15T09:00:23Z</time>
      </trkpt>
      <trkpt lat="42.77378" lon="-0.13033">
        <ele>2682.0057243297</ele>
        <time>2014-06-15T09:00:27Z</time>
      </trkpt>
      <trkpt lat="42.77379" lon="-0.13037">
        <ele>2685.2711901505</ele>
        <time>2014-06-15T09:00:33Z</time>
      </trkpt>
      <trkpt lat="42.7738" lon="-0.1304">
        <ele>2685.2711901505</ele>
        <time>2014-06-15T09:00:38Z</time>
      </trkpt>
      <trkpt lat="42.7738" lon="-0.13041">
        <ele>2685.2711901505</ele>
        <time>2014-06-15T09:00:43Z</time>
      </trkpt>
      <trkpt lat="42.77378" lon="-0.13046">
        <ele>2685.2711901505</ele>
        <time>2014-06-15T09:00:52Z</time>
      </trkpt>
      <trkpt lat="42.77378" lon="-0.1305">
        <ele>2688.6344112813</ele>
        <time>2014-06-15T09:00:58Z</time>
      </trkpt>
      <trkpt lat="42.77378" lon="-0.13053">
        <ele>2688.6344112813</ele>
        <time>2014-06-15T09:01:03Z</time>
      </trkpt>
      <trkpt lat="42.77379" lon="-0.13057">
        <ele>2688.6344112813</ele>
        <time>2014-06-15T09:01:08Z</time>
      </trkpt>
      <trkpt lat="42.7738" lon="-0.1306">
        <ele>2688.6344112813</ele>
        <time>2014-06-15T09:01:13Z</time>
      </trkpt>
      <trkpt lat="42.77382" lon="-0.13064">
        <ele>2692.2574614667</ele>
        <time>2014-06-15T09:01:18Z</time>
      </trkpt>
      <trkpt lat="42.77383" lon="-0.13066">
        <ele>2692.2574614667</ele>
        <time>2014-06-15T09:01:23Z</time>
      </trkpt>
      <trkpt lat="42.77385" lon="-0.13069">
        <ele>2692.2574614667</ele>
        <time>2014-06-15T09:01:28Z</time>
      </trkpt>
      <trkpt lat="42.77386" lon="-0.13071">
        <ele>2692.2574614667</ele>
        <time>2014-06-15T09:01:33Z</time>
      </trkpt>
      <trkpt lat="42.77388" lon="-0.13073">
        <ele>2695.8718815546</ele>
        <time>2014-06-15T09:01:39Z</time>
      </trkpt>
      <trkpt lat="42.77388" lon="-0.13076">
        <ele>2695.8718815546</ele>
        <time>2014-06-15T09:01:42Z</time>
      </trkpt>
      <trkpt lat="42.77391" lon="-0.13079">
        <ele>2695.8718815546</ele>
        <time>2014-06-15T09:01:48Z</time>
      </trkpt>
      <trkpt lat="42.77393" lon="-0.13082">
        <ele>2695.8718815546</ele>
        <time>2014-06-15T09:01:53Z</time>
      </trkpt>
      <trkpt lat="42.77393" lon="-0.13084">
        <ele>2699.3154715555</ele>
        <time>2014-06-15T09:01:58Z</time>
      </trkpt>
      <trkpt lat="42.77394" lon="-0.13086">
        <ele>2699.3154715555</ele>
        <time>2014-06-15T09:02:23Z</time>
      </trkpt>
      <trkpt lat="42.77395" lon="-0.13088">
        <ele>2699.3154715555</ele>
        <time>2014-06-15T09:02:28Z</time>
      </trkpt>
      <trkpt lat="42.77397" lon="-0.13092">
        <ele>2699.3154715555</ele>
        <time>2014-06-15T09:02:33Z</time>
      </trkpt>
      <trkpt lat="42.77398" lon="-0.13094">
        <ele>2699.3154715555</ele>
        <time>2014-06-15T09:02:38Z</time>
      </trkpt>
      <trkpt lat="42.774" lon="-0.13097">
        <ele>2702.7843551067</ele>
        <time>2014-06-15T09:02:43Z</time>
      </trkpt>
      <trkpt lat="42.77401" lon="-0.13099">
        <ele>2702.7843551067</ele>
        <time>2014-06-15T09:02:48Z</time>
      </trkpt>
      <trkpt lat="42.77402" lon="-0.13099">
        <ele>2702.7843551067</ele>
        <time>2014-06-15T09:02:53Z</time>
      </trkpt>
      <trkpt lat="42.77398" lon="-0.131">
        <ele>2702.7843551067</ele>
        <time>2014-06-15T09:03:18Z</time>
      </trkpt>
      <trkpt lat="42.77395" lon="-0.13101">
        <ele>2705.9846600386</ele>
        <time>2014-06-15T09:03:23Z</time>
      </trkpt>
      <trkpt lat="42.77393" lon="-0.13101">
        <ele>2705.9846600386</ele>
        <time>2014-06-15T09:03:28Z</time>
      </trkpt>
      <trkpt lat="42.7739" lon="-0.13101">
        <ele>2705.9846600386</ele>
        <time>2014-06-15T09:03:33Z</time>
      </trkpt>
      <trkpt lat="42.77388" lon="-0.13101">
        <ele>2705.9846600386</ele>
        <time>2014-06-15T09:03:38Z</time>
      </trkpt>
      <trkpt lat="42.77386" lon="-0.131">
        <ele>2705.9846600386</ele>
        <time>2014-06-15T09:03:43Z</time>
      </trkpt>
      <trkpt lat="42.77383" lon="-0.131">
        <ele>2709.2646158479</ele>
        <time>2014-06-15T09:03:48Z</time>
      </trkpt>
      <trkpt lat="42.77381" lon="-0.131">
        <ele>2709.2646158479</ele>
        <time>2014-06-15T09:03:53Z</time>
      </trkpt>
      <trkpt lat="42.77378" lon="-0.131">
        <ele>2709.2646158479</ele>
        <time>2014-06-15T09:03:58Z</time>
      </trkpt>
      <trkpt lat="42.77377" lon="-0.131">
        <ele>2709.2646158479</ele>
        <time>2014-06-15T09:04:03Z</time>
      </trkpt>
      <trkpt lat="42.77376" lon="-0.13099">
        <ele>2709.2646158479</ele>
        <time>2014-06-15T09:04:18Z</time>
      </trkpt>
      <trkpt lat="42.77374" lon="-0.13099">
        <ele>2709.2646158479</ele>
        <time>2014-06-15T09:04:23Z</time>
      </trkpt>
      <trkpt lat="42.7737" lon="-0.13098">
        <ele>2712.4855526666</ele>
        <time>2014-06-15T09:04:28Z</time>
      </trkpt>
      <trkpt lat="42.77368" lon="-0.13098">
        <ele>2712.4855526666</ele>
        <time>2014-06-15T09:04:33Z</time>
      </trkpt>
      <trkpt lat="42.77365" lon="-0.13097">
        <ele>2712.4855526666</ele>
        <time>2014-06-15T09:04:38Z</time>
      </trkpt>
      <trkpt lat="42.77362" lon="-0.13097">
        <ele>2712.4855526666</ele>
        <time>2014-06-15T09:04:43Z</time>
      </trkpt>
      <trkpt lat="42.77359" lon="-0.13098">
        <ele>2715.6201091427</ele>
        <time>2014-06-15T09:04:48Z</time>
      </trkpt>
      <trkpt lat="42.77357" lon="-0.13098">
        <ele>2715.6201091427</ele>
        <time>2014-06-15T09:04:52Z</time>
      </trkpt>
      <trkpt lat="42.77353" lon="-0.13099">
        <ele>2715.6201091427</ele>
        <time>2014-06-15T09:04:58Z</time>
      </trkpt>
      <trkpt lat="42.77351" lon="-0.13099">
        <ele>2715.6201091427</ele>
        <time>2014-06-15T09:05:02Z</time>
      </trkpt>
      <trkpt lat="42.77347" lon="-0.131">
        <ele>2718.6864888948</ele>
        <time>2014-06-15T09:05:08Z</time>
      </trkpt>
      <trkpt lat="42.77345" lon="-0.131">
        <ele>2718.6864888948</ele>
        <time>2014-06-15T09:05:12Z</time>
      </trkpt>
      <trkpt lat="42.77342" lon="-0.131">
        <ele>2718.6864888948</ele>
        <time>2014-06-15T09:05:19Z</time>
      </trkpt>
      <trkpt lat="42.7734" lon="-0.13101">
        <ele>2718.6864888948</ele>
        <time>2014-06-15T09:05:23Z</time>
      </trkpt>
      <trkpt lat="42.7734" lon="-0.13101">
        <ele>2718.6864888948</ele>
        <time>2014-06-15T09:05:28Z</time>
      </trkpt>
      <trkpt lat="42.77339" lon="-0.13107">
        <ele>2721.8603549061</ele>
        <time>2014-06-15T09:05:58Z</time>
      </trkpt>
      <trkpt lat="42.77339" lon="-0.1311">
        <ele>2721.8603549061</ele>
        <time>2014-06-15T09:06:03Z</time>
      </trkpt>
      <trkpt lat="42.7734" lon="-0.13113">
        <ele>2721.8603549061</ele>
        <time>2014-06-15T09:06:08Z</time>
      </trkpt>
      <trkpt lat="42.7734" lon="-0.13117">
        <ele>2721.8603549061</ele>
        <time>2014-06-15T09:06:13Z</time>
      </trkpt>
      <trkpt lat="42.7734" lon="-0.13122">
        <ele>2724.9727843982</ele>
        <time>2014-06-15T09:06:18Z</time>
      </trkpt>
      <trkpt lat="42.77341" lon="-0.13125">
        <ele>2724.9727843982</ele>
        <time>2014-06-15T09:06:22Z</time>
      </trkpt>
      <trkpt lat="42.77342" lon="-0.13127">
        <ele>2724.9727843982</ele>
        <time>2014-06-15T09:06:27Z</time>
      </trkpt>
      <trkpt lat="42.77342" lon="-0.13131">
        <ele>2724.9727843982</ele>
        <time>2014-06-15T09:06:33Z</time>
      </trkpt>
      <trkpt lat="42.77344" lon="-0.13135">
        <ele>2728.1701574609</ele>
        <time>2014-06-15T09:06:38Z</time>
      </trkpt>
      <trkpt lat="42.77344" lon="-0.13137">
        <ele>2728.1701574609</ele>
        <time>2014-06-15T09:06:43Z</time>
      </trkpt>
      <trkpt lat="42.77345" lon="-0.13141">
        <ele>2728.1701574609</ele>
        <time>2014-06-15T09:06:48Z</time>
      </trkpt>
      <trkpt lat="42.77345" lon="-0.13141">
        <ele>2728.1701574609</ele>
        <time>2014-06-15T09:06:53Z</time>
      </trkpt>
      <trkpt lat="42.77346" lon="-0.13144">
        <ele>2728.1701574609</ele>
        <time>2014-06-15T09:07:18Z</time>
      </trkpt>
      <trkpt lat="42.77346" lon="-0.13148">
        <ele>2731.1123722865</ele>
        <time>2014-06-15T09:07:23Z</time>
      </trkpt>
      <trkpt lat="42.77344" lon="-0.1315">
        <ele>2731.1123722865</ele>
        <time>2014-06-15T09:07:28Z</time>
      </trkpt>
      <trkpt lat="42.77342" lon="-0.13151">
        <ele>2731.1123722865</ele>
        <time>2014-06-15T09:07:33Z</time>
      </trkpt>
      <trkpt lat="42.7734" lon="-0.13153">
        <ele>2731.1123722865</ele>
        <time>2014-06-15T09:07:38Z</time>
      </trkpt>
      <trkpt lat="42.77336" lon="-0.13156">
        <ele>2734.0183288774</ele>
        <time>2014-06-15T09:07:43Z</time>
      </trkpt>
      <trkpt lat="42.77334" lon="-0.13157">
        <ele>2734.0183288774</ele>
        <time>2014-06-15T09:07:48Z</time>
      </trkpt>
      <trkpt lat="42.77333" lon="-0.13157">
        <ele>2734.0183288774</ele>
        <time>2014-06-15T09:07:53Z</time>
      </trkpt>
      <trkpt lat="42.77332" lon="-0.13156">
        <ele>2734.0183288774</ele>
        <time>2014-06-15T09:08:22Z</time>
      </trkpt>
      <trkpt lat="42.77329" lon="-0.13158">
        <ele>2734.0183288774</ele>
        <time>2014-06-15T09:08:28Z</time>
      </trkpt>
      <trkpt lat="42.77327" lon="-0.13159">
        <ele>2737.30719923</ele>
        <time>2014-06-15T09:08:33Z</time>
      </trkpt>
      <trkpt lat="42.77325" lon="-0.13161">
        <ele>2737.30719923</ele>
        <time>2014-06-15T09:08:37Z</time>
      </trkpt>
      <trkpt lat="42.77322" lon="-0.13163">
        <ele>2737.30719923</ele>
        <time>2014-06-15T09:08:45Z</time>
      </trkpt>
      <trkpt lat="42.7732" lon="-0.13165">
        <ele>2737.30719923</ele>
        <time>2014-06-15T09:08:47Z</time>
      </trkpt>
      <trkpt lat="42.77317" lon="-0.13166">
        <ele>2740.7610974288</ele>
        <time>2014-06-15T09:08:53Z</time>
      </trkpt>
      <trkpt lat="42.77313" lon="-0.13166">
        <ele>2740.7610974288</ele>
        <time>2014-06-15T09:08:58Z</time>
      </trkpt>
      <trkpt lat="42.77311" lon="-0.13166">
        <ele>2740.7610974288</ele>
        <time>2014-06-15T09:09:03Z</time>
      </trkpt>
      <trkpt lat="42.77309" lon="-0.13167">
        <ele>2740.7610974288</ele>
        <time>2014-06-15T09:09:08Z</time>
      </trkpt>
      <trkpt lat="42.77307" lon="-0.13167">
        <ele>2744.2354094679</ele>
        <time>2014-06-15T09:09:13Z</time>
      </trkpt>
      <trkpt lat="42.77305" lon="-0.13168">
        <ele>2744.2354094679</ele>
        <time>2014-06-15T09:09:18Z</time>
      </trkpt>
      <trkpt lat="42.77305" lon="-0.13168">
        <ele>2744.2354094679</ele>
        <time>2014-06-15T09:09:24Z</time>
      </trkpt>
      <trkpt lat="42.77302" lon="-0.13167">
        <ele>2744.2354094679</ele>
        <time>2014-06-15T09:09:43Z</time>
      </trkpt>
      <trkpt lat="42.773" lon="-0.13168">
        <ele>2744.2354094679</ele>
        <time>2014-06-15T09:09:48Z</time>
      </trkpt>
      <trkpt lat="42.77296" lon="-0.13168">
        <ele>2747.8555742172</ele>
        <time>2014-06-15T09:09:53Z</time>
      </trkpt>
      <trkpt lat="42.77293" lon="-0.13168">
        <ele>2747.8555742172</ele>
        <time>2014-06-15T09:09:58Z</time>
      </trkpt>
      <trkpt lat="42.7729" lon="-0.13168">
        <ele>2747.8555742172</ele>
        <time>2014-06-15T09:10:03Z</time>
      </trkpt>
      <trkpt lat="42.77286" lon="-0.13168">
        <ele>2751.3916238242</ele>
        <time>2014-06-15T09:10:08Z</time>
      </trkpt>
      <trkpt lat="42.77283" lon="-0.13168">
        <ele>2751.3916238242</ele>
        <time>2014-06-15T09:10:13Z</time>
      </trkpt>
      <trkpt lat="42.7728" lon="-0.13168">
        <ele>2751.3916238242</ele>
        <time>2014-06-15T09:10:18Z</time>
      </trkpt>
      <trkpt lat="42.7728" lon="-0.13167">
        <ele>2751.3916238242</ele>
        <time>2014-06-15T09:10:23Z</time>
      </trkpt>
      <trkpt lat="42.77276" lon="-0.13165">
        <ele>2754.9910885954</ele>
        <time>2014-06-15T09:12:48Z</time>
      </trkpt>
      <trkpt lat="42.77275" lon="-0.13166">
        <ele>2754.9910885954</ele>
        <time>2014-06-15T09:12:53Z</time>
      </trkpt>
      <trkpt lat="42.77274" lon="-0.13166">
        <ele>2754.9910885954</ele>
        <time>2014-06-15T09:12:58Z</time>
      </trkpt>
      <trkpt lat="42.77273" lon="-0.13171">
        <ele>2754.9910885954</ele>
        <time>2014-06-15T09:13:08Z</time>
      </trkpt>
      <trkpt lat="42.77272" lon="-0.13176">
        <ele>2758.3294152546</ele>
        <time>2014-06-15T09:13:23Z</time>
      </trkpt>
      <trkpt lat="42.77271" lon="-0.1318">
        <ele>2758.3294152546</ele>
        <time>2014-06-15T09:13:28Z</time>
      </trkpt>
      <trkpt lat="42.77269" lon="-0.13185">
        <ele>2758.3294152546</ele>
        <time>2014-06-15T09:13:33Z</time>
      </trkpt>
      <trkpt lat="42.77269" lon="-0.13187">
        <ele>2758.3294152546</ele>
        <time>2014-06-15T09:13:38Z</time>
      </trkpt>
      <trkpt lat="42.77269" lon="-0.13187">
        <ele>2758.3294152546</ele>
        <time>2014-06-15T09:13:43Z</time>
      </trkpt>
      <trkpt lat="42.77268" lon="-0.13194">
        <ele>2761.4237613678</ele>
        <time>2014-06-15T09:13:48Z</time>
      </trkpt>
      <trkpt lat="42.77268" lon="-0.13197">
        <ele>2761.4237613678</ele>
        <time>2014-06-15T09:13:53Z</time>
      </trkpt>
      <trkpt lat="42.77268" lon="-0.132">
        <ele>2761.4237613678</ele>
        <time>2014-06-15T09:13:58Z</time>
      </trkpt>
      <trkpt lat="42.77268" lon="-0.13203">
        <ele>2761.4237613678</ele>
        <time>2014-06-15T09:14:03Z</time>
      </trkpt>
      <trkpt lat="42.77269" lon="-0.13206">
        <ele>2761.4237613678</ele>
        <time>2014-06-15T09:14:08Z</time>
      </trkpt>
      <trkpt lat="42.77269" lon="-0.13209">
        <ele>2764.3484423034</ele>
        <time>2014-06-15T09:14:13Z</time>
      </trkpt>
      <trkpt lat="42.77269" lon="-0.13212">
        <ele>2764.3484423034</ele>
        <time>2014-06-15T09:14:18Z</time>
      </trkpt>
      <trkpt lat="42.77269" lon="-0.13215">
        <ele>2764.3484423034</ele>
        <time>2014-06-15T09:14:22Z</time>
      </trkpt>
      <trkpt lat="42.77269" lon="-0.13218">
        <ele>2764.3484423034</ele>
        <time>2014-06-15T09:14:29Z</time>
      </trkpt>
      <trkpt lat="42.77269" lon="-0.13222">
        <ele>2767.4466889942</ele>
        <time>2014-06-15T09:14:32Z</time>
      </trkpt>
      <trkpt lat="42.77269" lon="-0.13226">
        <ele>2767.4466889942</ele>
        <time>2014-06-15T09:14:38Z</time>
      </trkpt>
      <trkpt lat="42.7727" lon="-0.13226">
        <ele>2767.4466889942</ele>
        <time>2014-06-15T09:14:43Z</time>
      </trkpt>
      <trkpt lat="42.7727" lon="-0.1323">
        <ele>2767.4466889942</ele>
        <time>2014-06-15T09:14:48Z</time>
      </trkpt>
      <trkpt lat="42.7727" lon="-0.13233">
        <ele>2767.4466889942</ele>
        <time>2014-06-15T09:14:53Z</time>
      </trkpt>
      <trkpt lat="42.77271" lon="-0.13236">
        <ele>2770.4740807792</ele>
        <time>2014-06-15T09:14:58Z</time>
      </trkpt>
      <trkpt lat="42.77272" lon="-0.13239">
        <ele>2770.4740807792</ele>
        <time>2014-06-15T09:15:03Z</time>
      </trkpt>
      <trkpt lat="42.77272" lon="-0.13241">
        <ele>2770.4740807792</ele>
        <time>2014-06-15T09:15:07Z</time>
      </trkpt>
      <trkpt lat="42.77272" lon="-0.13244">
        <ele>2770.4740807792</ele>
        <time>2014-06-15T09:15:13Z</time>
      </trkpt>
      <trkpt lat="42.77272" lon="-0.13245">
        <ele>2770.4740807792</ele>
        <time>2014-06-15T09:15:18Z</time>
      </trkpt>
      <trkpt lat="42.77273" lon="-0.13249">
        <ele>2773.4782429926</ele>
        <time>2014-06-15T09:15:23Z</time>
      </trkpt>
      <trkpt lat="42.77273" lon="-0.13253">
        <ele>2773.4782429926</ele>
        <time>2014-06-15T09:15:28Z</time>
      </trkpt>
      <trkpt lat="42.77273" lon="-0.13255">
        <ele>2773.4782429926</ele>
        <time>2014-06-15T09:15:33Z</time>
      </trkpt>
      <trkpt lat="42.77274" lon="-0.13259">
        <ele>2773.4782429926</ele>
        <time>2014-06-15T09:15:38Z</time>
      </trkpt>
      <trkpt lat="42.77274" lon="-0.13262">
        <ele>2776.445799476</ele>
        <time>2014-06-15T09:15:43Z</time>
      </trkpt>
      <trkpt lat="42.77274" lon="-0.13265">
        <ele>2776.445799476</ele>
        <time>2014-06-15T09:15:48Z</time>
      </trkpt>
      <trkpt lat="42.77274" lon="-0.13268">
        <ele>2776.445799476</ele>
        <time>2014-06-15T09:15:53Z</time>
      </trkpt>
      <trkpt lat="42.77274" lon="-0.1327">
        <ele>2776.445799476</ele>
        <time>2014-06-15T09:15:58Z</time>
      </trkpt>
      <trkpt lat="42.77274" lon="-0.13273">
        <ele>2776.445799476</ele>
        <time>2014-06-15T09:16:03Z</time>
      </trkpt>
      <trkpt lat="42.77274" lon="-0.13276">
        <ele>2779.53746585</ele>
        <time>2014-06-15T09:16:08Z</time>
      </trkpt>
      <trkpt lat="42.77274" lon="-0.13279">
        <ele>2779.53746585</ele>
        <time>2014-06-15T09:16:13Z</time>
      </trkpt>
      <trkpt lat="42.77274" lon="-0.13282">
        <ele>2779.53746585</ele>
        <time>2014-06-15T09:16:18Z</time>
      </trkpt>
      <trkpt lat="42.77274" lon="-0.13283">
        <ele>2779.53746585</ele>
        <time>2014-06-15T09:16:23Z</time>
      </trkpt>
      <trkpt lat="42.77273" lon="-0.13288">
        <ele>2779.53746585</ele>
        <time>2014-06-15T09:16:28Z</time>
      </trkpt>
      <trkpt lat="42.77273" lon="-0.13288">
        <ele>2779.53746585</ele>
        <time>2014-06-15T09:16:33Z</time>
      </trkpt>
      <trkpt lat="42.77272" lon="-0.13293">
        <ele>2782.829817527</ele>
        <time>2014-06-15T09:16:48Z</time>
      </trkpt>
      <trkpt lat="42.77272" lon="-0.13296">
        <ele>2782.829817527</ele>
        <time>2014-06-15T09:16:53Z</time>
      </trkpt>
      <trkpt lat="42.77273" lon="-0.13299">
        <ele>2782.829817527</ele>
        <time>2014-06-15T09:16:58Z</time>
      </trkpt>
      <trkpt lat="42.77273" lon="-0.13302">
        <ele>2782.829817527</ele>
        <time>2014-06-15T09:17:03Z</time>
      </trkpt>
      <trkpt lat="42.77273" lon="-0.13306">
        <ele>2786.1627308937</ele>
        <time>2014-06-15T09:17:08Z</time>
      </trkpt>
      <trkpt lat="42.77273" lon="-0.13308">
        <ele>2786.1627308937</ele>
        <time>2014-06-15T09:17:13Z</time>
      </trkpt>
      <trkpt lat="42.77273" lon="-0.13312">
        <ele>2786.1627308937</ele>
        <time>2014-06-15T09:17:18Z</time>
      </trkpt>
      <trkpt lat="42.77273" lon="-0.13315">
        <ele>2786.1627308937</ele>
        <time>2014-06-15T09:17:23Z</time>
      </trkpt>
      <trkpt lat="42.77273" lon="-0.13318">
        <ele>2789.4742630454</ele>
        <time>2014-06-15T09:17:28Z</time>
      </trkpt>
      <trkpt lat="42.77273" lon="-0.1332">
        <ele>2789.4742630454</ele>
        <time>2014-06-15T09:17:33Z</time>
      </trkpt>
      <trkpt lat="42.77273" lon="-0.13323">
        <ele>2789.4742630454</ele>
        <time>2014-06-15T09:17:58Z</time>
      </trkpt>
      <trkpt lat="42.77272" lon="-0.13326">
        <ele>2789.4742630454</ele>
        <time>2014-06-15T09:18:03Z</time>
      </trkpt>
      <trkpt lat="42.77272" lon="-0.13329">
        <ele>2789.4742630454</ele>
        <time>2014-06-15T09:18:08Z</time>
      </trkpt>
      <trkpt lat="42.77272" lon="-0.13333">
        <ele>2792.7503783081</ele>
        <time>2014-06-15T09:18:13Z</time>
      </trkpt>
      <trkpt lat="42.77272" lon="-0.13336">
        <ele>2792.7503783081</ele>
        <time>2014-06-15T09:18:18Z</time>
      </trkpt>
      <trkpt lat="42.77272" lon="-0.13339">
        <ele>2792.7503783081</ele>
        <time>2014-06-15T09:18:23Z</time>
      </trkpt>
      <trkpt lat="42.77272" lon="-0.13342">
        <ele>2792.7503783081</ele>
        <time>2014-06-15T09:18:28Z</time>
      </trkpt>
      <trkpt lat="42.77273" lon="-0.13345">
        <ele>2795.9494112937</ele>
        <time>2014-06-15T09:18:34Z</time>
      </trkpt>
      <trkpt lat="42.77272" lon="-0.13351">
        <ele>2795.9494112937</ele>
        <time>2014-06-15T09:18:38Z</time>
      </trkpt>
      <trkpt lat="42.77273" lon="-0.13355">
        <ele>2795.9494112937</ele>
        <time>2014-06-15T09:18:43Z</time>
      </trkpt>
      <trkpt lat="42.77273" lon="-0.13356">
        <ele>2795.9494112937</ele>
        <time>2014-06-15T09:18:48Z</time>
      </trkpt>
      <trkpt lat="42.77274" lon="-0.13361">
        <ele>2798.9033334785</ele>
        <time>2014-06-15T09:19:13Z</time>
      </trkpt>
      <trkpt lat="42.77274" lon="-0.13363">
        <ele>2798.9033334785</ele>
        <time>2014-06-15T09:19:18Z</time>
      </trkpt>
      <trkpt lat="42.77275" lon="-0.13366">
        <ele>2798.9033334785</ele>
        <time>2014-06-15T09:19:22Z</time>
      </trkpt>
      <trkpt lat="42.77276" lon="-0.1337">
        <ele>2798.9033334785</ele>
        <time>2014-06-15T09:19:28Z</time>
      </trkpt>
      <trkpt lat="42.77278" lon="-0.13373">
        <ele>2801.8318935738</ele>
        <time>2014-06-15T09:19:33Z</time>
      </trkpt>
      <trkpt lat="42.77279" lon="-0.13376">
        <ele>2801.8318935738</ele>
        <time>2014-06-15T09:19:38Z</time>
      </trkpt>
      <trkpt lat="42.7728" lon="-0.13379">
        <ele>2801.8318935738</ele>
        <time>2014-06-15T09:19:43Z</time>
      </trkpt>
      <trkpt lat="42.77281" lon="-0.13382">
        <ele>2801.8318935738</ele>
        <time>2014-06-15T09:19:48Z</time>
      </trkpt>
      <trkpt lat="42.77282" lon="-0.13385">
        <ele>2804.7082445503</ele>
        <time>2014-06-15T09:19:53Z</time>
      </trkpt>
      <trkpt lat="42.77284" lon="-0.13388">
        <ele>2804.7082445503</ele>
        <time>2014-06-15T09:19:58Z</time>
      </trkpt>
      <trkpt lat="42.77285" lon="-0.1339">
        <ele>2804.7082445503</ele>
        <time>2014-06-15T09:20:03Z</time>
      </trkpt>
      <trkpt lat="42.77285" lon="-0.13391">
        <ele>2804.7082445503</ele>
        <time>2014-06-15T09:20:08Z</time>
      </trkpt>
      <trkpt lat="42.77287" lon="-0.13393">
        <ele>2804.7082445503</ele>
        <time>2014-06-15T09:20:28Z</time>
      </trkpt>
      <trkpt lat="42.77289" lon="-0.13396">
        <ele>2807.6518188223</ele>
        <time>2014-06-15T09:20:33Z</time>
      </trkpt>
      <trkpt lat="42.7729" lon="-0.13399">
        <ele>2807.6518188223</ele>
        <time>2014-06-15T09:20:38Z</time>
      </trkpt>
      <trkpt lat="42.77292" lon="-0.13401">
        <ele>2807.6518188223</ele>
        <time>2014-06-15T09:20:43Z</time>
      </trkpt>
      <trkpt lat="42.77293" lon="-0.13404">
        <ele>2807.6518188223</ele>
        <time>2014-06-15T09:20:48Z</time>
      </trkpt>
      <trkpt lat="42.77295" lon="-0.13406">
        <ele>2810.5857874973</ele>
        <time>2014-06-15T09:20:53Z</time>
      </trkpt>
      <trkpt lat="42.77297" lon="-0.13408">
        <ele>2810.5857874973</ele>
        <time>2014-06-15T09:20:58Z</time>
      </trkpt>
      <trkpt lat="42.77298" lon="-0.13411">
        <ele>2810.5857874973</ele>
        <time>2014-06-15T09:21:03Z</time>
      </trkpt>
      <trkpt lat="42.773" lon="-0.13413">
        <ele>2810.5857874973</ele>
        <time>2014-06-15T09:21:08Z</time>
      </trkpt>
      <trkpt lat="42.77302" lon="-0.13416">
        <ele>2813.5543226188</ele>
        <time>2014-06-15T09:21:13Z</time>
      </trkpt>
      <trkpt lat="42.77303" lon="-0.13418">
        <ele>2813.5543226188</ele>
        <time>2014-06-15T09:21:18Z</time>
      </trkpt>
      <trkpt lat="42.77303" lon="-0.13419">
        <ele>2813.5543226188</ele>
        <time>2014-06-15T09:21:23Z</time>
      </trkpt>
      <trkpt lat="42.77305" lon="-0.1342">
        <ele>2813.5543226188</ele>
        <time>2014-06-15T09:21:53Z</time>
      </trkpt>
      <trkpt lat="42.77306" lon="-0.13423">
        <ele>2813.5543226188</ele>
        <time>2014-06-15T09:21:58Z</time>
      </trkpt>
      <trkpt lat="42.77308" lon="-0.13425">
        <ele>2816.5694696565</ele>
        <time>2014-06-15T09:22:03Z</time>
      </trkpt>
      <trkpt lat="42.77309" lon="-0.13427">
        <ele>2816.5694696565</ele>
        <time>2014-06-15T09:22:09Z</time>
      </trkpt>
      <trkpt lat="42.77311" lon="-0.1343">
        <ele>2816.5694696565</ele>
        <time>2014-06-15T09:22:13Z</time>
      </trkpt>
      <trkpt lat="42.77311" lon="-0.13433">
        <ele>2816.5694696565</ele>
        <time>2014-06-15T09:22:18Z</time>
      </trkpt>
      <trkpt lat="42.77308" lon="-0.13438">
        <ele>2819.6567038633</ele>
        <time>2014-06-15T09:22:28Z</time>
      </trkpt>
      <trkpt lat="42.77307" lon="-0.13441">
        <ele>2819.6567038633</ele>
        <time>2014-06-15T09:22:33Z</time>
      </trkpt>
      <trkpt lat="42.77304" lon="-0.13444">
        <ele>2819.6567038633</ele>
        <time>2014-06-15T09:22:38Z</time>
      </trkpt>
      <trkpt lat="42.77304" lon="-0.13444">
        <ele>2819.6567038633</ele>
        <time>2014-06-15T09:22:42Z</time>
      </trkpt>
      <trkpt lat="42.77302" lon="-0.13448">
        <ele>2822.69534698</ele>
        <time>2014-06-15T09:23:17Z</time>
      </trkpt>
      <trkpt lat="42.773" lon="-0.13451">
        <ele>2822.69534698</ele>
        <time>2014-06-15T09:23:22Z</time>
      </trkpt>
      <trkpt lat="42.77298" lon="-0.13453">
        <ele>2822.69534698</ele>
        <time>2014-06-15T09:23:28Z</time>
      </trkpt>
      <trkpt lat="42.77297" lon="-0.13454">
        <ele>2822.69534698</ele>
        <time>2014-06-15T09:23:33Z</time>
      </trkpt>
      <trkpt lat="42.77295" lon="-0.13457">
        <ele>2825.3431721132</ele>
        <time>2014-06-15T09:23:38Z</time>
      </trkpt>
      <trkpt lat="42.77292" lon="-0.1346">
        <ele>2825.3431721132</ele>
        <time>2014-06-15T09:23:42Z</time>
      </trkpt>
      <trkpt lat="42.77291" lon="-0.13463">
        <ele>2825.3431721132</ele>
        <time>2014-06-15T09:23:48Z</time>
      </trkpt>
      <trkpt lat="42.77289" lon="-0.13465">
        <ele>2825.3431721132</ele>
        <time>2014-06-15T09:23:52Z</time>
      </trkpt>
      <trkpt lat="42.77286" lon="-0.13468">
        <ele>2827.6877241183</ele>
        <time>2014-06-15T09:23:58Z</time>
      </trkpt>
      <trkpt lat="42.77285" lon="-0.1347">
        <ele>2827.6877241183</ele>
        <time>2014-06-15T09:24:03Z</time>
      </trkpt>
      <trkpt lat="42.77284" lon="-0.1347">
        <ele>2827.6877241183</ele>
        <time>2014-06-15T09:24:07Z</time>
      </trkpt>
      <trkpt lat="42.77283" lon="-0.1347">
        <ele>2827.6877241183</ele>
        <time>2014-06-15T09:24:33Z</time>
      </trkpt>
      <trkpt lat="42.77283" lon="-0.13471">
        <ele>2827.6877241183</ele>
        <time>2014-06-15T09:24:38Z</time>
      </trkpt>
      <trkpt lat="42.77281" lon="-0.13467">
        <ele>2827.6877241183</ele>
        <time>2014-06-15T09:27:48Z</time>
      </trkpt>
      <trkpt lat="42.77279" lon="-0.13469">
        <ele>2830.9350561427</ele>
        <time>2014-06-15T09:27:53Z</time>
      </trkpt>
      <trkpt lat="42.77277" lon="-0.13469">
        <ele>2830.9350561427</ele>
        <time>2014-06-15T09:27:57Z</time>
      </trkpt>
      <trkpt lat="42.77274" lon="-0.1347">
        <ele>2830.9350561427</ele>
        <time>2014-06-15T09:28:04Z</time>
      </trkpt>
      <trkpt lat="42.77272" lon="-0.1347">
        <ele>2830.9350561427</ele>
        <time>2014-06-15T09:28:08Z</time>
      </trkpt>
      <trkpt lat="42.77269" lon="-0.1347">
        <ele>2834.297841515</ele>
        <time>2014-06-15T09:28:13Z</time>
      </trkpt>
      <trkpt lat="42.77266" lon="-0.13469">
        <ele>2834.297841515</ele>
        <time>2014-06-15T09:28:18Z</time>
      </trkpt>
      <trkpt lat="42.77264" lon="-0.13469">
        <ele>2834.297841515</ele>
        <time>2014-06-15T09:28:23Z</time>
      </trkpt>
      <trkpt lat="42.77264" lon="-0.13469">
        <ele>2834.297841515</ele>
        <time>2014-06-15T09:28:28Z</time>
      </trkpt>
      <trkpt lat="42.77262" lon="-0.13467">
        <ele>2834.297841515</ele>
        <time>2014-06-15T09:30:28Z</time>
      </trkpt>
      <trkpt lat="42.77261" lon="-0.13468">
        <ele>2837.7812490486</ele>
        <time>2014-06-15T09:30:33Z</time>
      </trkpt>
      <trkpt lat="42.77257" lon="-0.13471">
        <ele>2837.7812490486</ele>
        <time>2014-06-15T09:31:13Z</time>
      </trkpt>
      <trkpt lat="42.77258" lon="-0.13474">
        <ele>2837.7812490486</ele>
        <time>2014-06-15T09:31:18Z</time>
      </trkpt>
      <trkpt lat="42.77259" lon="-0.13476">
        <ele>2837.7812490486</ele>
        <time>2014-06-15T09:31:23Z</time>
      </trkpt>
      <trkpt lat="42.7726" lon="-0.13479">
        <ele>2841.2023999829</ele>
        <time>2014-06-15T09:31:28Z</time>
      </trkpt>
      <trkpt lat="42.77262" lon="-0.13481">
        <ele>2841.2023999829</ele>
        <time>2014-06-15T09:31:33Z</time>
      </trkpt>
      <trkpt lat="42.77263" lon="-0.13484">
        <ele>2841.2023999829</ele>
        <time>2014-06-15T09:31:38Z</time>
      </trkpt>
      <trkpt lat="42.77265" lon="-0.13487">
        <ele>2841.2023999829</ele>
        <time>2014-06-15T09:31:43Z</time>
      </trkpt>
      <trkpt lat="42.77267" lon="-0.1349">
        <ele>2844.4064516575</ele>
        <time>2014-06-15T09:31:48Z</time>
      </trkpt>
      <trkpt lat="42.77268" lon="-0.13492">
        <ele>2844.4064516575</ele>
        <time>2014-06-15T09:31:53Z</time>
      </trkpt>
      <trkpt lat="42.77269" lon="-0.13494">
        <ele>2844.4064516575</ele>
        <time>2014-06-15T09:31:58Z</time>
      </trkpt>
      <trkpt lat="42.7727" lon="-0.13496">
        <ele>2844.4064516575</ele>
        <time>2014-06-15T09:32:03Z</time>
      </trkpt>
      <trkpt lat="42.77272" lon="-0.13499">
        <ele>2847.3658506882</ele>
        <time>2014-06-15T09:32:08Z</time>
      </trkpt>
      <trkpt lat="42.77274" lon="-0.13501">
        <ele>2847.3658506882</ele>
        <time>2014-06-15T09:32:13Z</time>
      </trkpt>
      <trkpt lat="42.77274" lon="-0.13502">
        <ele>2847.3658506882</ele>
        <time>2014-06-15T09:32:18Z</time>
      </trkpt>
      <trkpt lat="42.77275" lon="-0.13505">
        <ele>2847.3658506882</ele>
        <time>2014-06-15T09:32:33Z</time>
      </trkpt>
      <trkpt lat="42.77277" lon="-0.13507">
        <ele>2847.3658506882</ele>
        <time>2014-06-15T09:32:38Z</time>
      </trkpt>
      <trkpt lat="42.77278" lon="-0.13509">
        <ele>2847.3658506882</ele>
        <time>2014-06-15T09:32:43Z</time>
      </trkpt>
      <trkpt lat="42.77279" lon="-0.13511">
        <ele>2850.199881295</ele>
        <time>2014-06-15T09:32:49Z</time>
      </trkpt>
      <trkpt lat="42.7728" lon="-0.13512">
        <ele>2850.199881295</ele>
        <time>2014-06-15T09:32:53Z</time>
      </trkpt>
      <trkpt lat="42.77281" lon="-0.13513">
        <ele>2850.199881295</ele>
        <time>2014-06-15T09:33:08Z</time>
      </trkpt>
      <trkpt lat="42.77283" lon="-0.13515">
        <ele>2850.199881295</ele>
        <time>2014-06-15T09:33:13Z</time>
      </trkpt>
      <trkpt lat="42.77285" lon="-0.13516">
        <ele>2850.199881295</ele>
        <time>2014-06-15T09:33:18Z</time>
      </trkpt>
      <trkpt lat="42.77286" lon="-0.13517">
        <ele>2850.199881295</ele>
        <time>2014-06-15T09:33:22Z</time>
      </trkpt>
      <trkpt lat="42.77288" lon="-0.13519">
        <ele>2852.9473752132</ele>
        <time>2014-06-15T09:33:28Z</time>
      </trkpt>
      <trkpt lat="42.77291" lon="-0.13521">
        <ele>2852.9473752132</ele>
        <time>2014-06-15T09:33:33Z</time>
      </trkpt>
      <trkpt lat="42.77292" lon="-0.13522">
        <ele>2852.9473752132</ele>
        <time>2014-06-15T09:33:38Z</time>
      </trkpt>
      <trkpt lat="42.77294" lon="-0.13523">
        <ele>2852.9473752132</ele>
        <time>2014-06-15T09:33:43Z</time>
      </trkpt>
      <trkpt lat="42.77296" lon="-0.13525">
        <ele>2855.6733875949</ele>
        <time>2014-06-15T09:33:48Z</time>
      </trkpt>
      <trkpt lat="42.77298" lon="-0.13526">
        <ele>2855.6733875949</ele>
        <time>2014-06-15T09:33:53Z</time>
      </trkpt>
      <trkpt lat="42.773" lon="-0.13527">
        <ele>2855.6733875949</ele>
        <time>2014-06-15T09:33:58Z</time>
      </trkpt>
      <trkpt lat="42.77301" lon="-0.13528">
        <ele>2855.6733875949</ele>
        <time>2014-06-15T09:34:03Z</time>
      </trkpt>
      <trkpt lat="42.77303" lon="-0.13529">
        <ele>2855.6733875949</ele>
        <time>2014-06-15T09:34:48Z</time>
      </trkpt>
      <trkpt lat="42.77305" lon="-0.1353">
        <ele>2858.4814957828</ele>
        <time>2014-06-15T09:34:53Z</time>
      </trkpt>
      <trkpt lat="42.77307" lon="-0.13531">
        <ele>2858.4814957828</ele>
        <time>2014-06-15T09:34:58Z</time>
      </trkpt>
      <trkpt lat="42.77309" lon="-0.13533">
        <ele>2858.4814957828</ele>
        <time>2014-06-15T09:35:03Z</time>
      </trkpt>
      <trkpt lat="42.77311" lon="-0.13532">
        <ele>2858.4814957828</ele>
        <time>2014-06-15T09:35:18Z</time>
      </trkpt>
      <trkpt lat="42.77311" lon="-0.13532">
        <ele>2858.4814957828</ele>
        <time>2014-06-15T09:35:23Z</time>
      </trkpt>
      <trkpt lat="42.77308" lon="-0.13534">
        <ele>2861.1503970552</ele>
        <time>2014-06-15T09:35:53Z</time>
      </trkpt>
      <trkpt lat="42.77306" lon="-0.13536">
        <ele>2861.1503970552</ele>
        <time>2014-06-15T09:35:58Z</time>
      </trkpt>
      <trkpt lat="42.77304" lon="-0.13538">
        <ele>2861.1503970552</ele>
        <time>2014-06-15T09:36:03Z</time>
      </trkpt>
      <trkpt lat="42.77302" lon="-0.1354">
        <ele>2861.1503970552</ele>
        <time>2014-06-15T09:36:08Z</time>
      </trkpt>
      <trkpt lat="42.773" lon="-0.13541">
        <ele>2863.5619023515</ele>
        <time>2014-06-15T09:36:13Z</time>
      </trkpt>
      <trkpt lat="42.77297" lon="-0.13543">
        <ele>2863.5619023515</ele>
        <time>2014-06-15T09:36:18Z</time>
      </trkpt>
      <trkpt lat="42.77295" lon="-0.13545">
        <ele>2863.5619023515</ele>
        <time>2014-06-15T09:36:23Z</time>
      </trkpt>
      <trkpt lat="42.77295" lon="-0.13546">
        <ele>2863.5619023515</ele>
        <time>2014-06-15T09:36:28Z</time>
      </trkpt>
      <trkpt lat="42.77291" lon="-0.13548">
        <ele>2865.9963224649</ele>
        <time>2014-06-15T09:36:33Z</time>
      </trkpt>
      <trkpt lat="42.77289" lon="-0.13547">
        <ele>2865.9963224649</ele>
        <time>2014-06-15T09:36:38Z</time>
      </trkpt>
      <trkpt lat="42.77287" lon="-0.13548">
        <ele>2865.9963224649</ele>
        <time>2014-06-15T09:36:43Z</time>
      </trkpt>
      <trkpt lat="42.77285" lon="-0.1355">
        <ele>2865.9963224649</ele>
        <time>2014-06-15T09:36:48Z</time>
      </trkpt>
      <trkpt lat="42.77282" lon="-0.1355">
        <ele>2868.5980144685</ele>
        <time>2014-06-15T09:36:53Z</time>
      </trkpt>
      <trkpt lat="42.77279" lon="-0.13552">
        <ele>2868.5980144685</ele>
        <time>2014-06-15T09:36:58Z</time>
      </trkpt>
      <trkpt lat="42.77279" lon="-0.13553">
        <ele>2868.5980144685</ele>
        <time>2014-06-15T09:37:03Z</time>
      </trkpt>
      <trkpt lat="42.7728" lon="-0.13556">
        <ele>2868.5980144685</ele>
        <time>2014-06-15T09:37:43Z</time>
      </trkpt>
      <trkpt lat="42.77277" lon="-0.13558">
        <ele>2871.1687926087</ele>
        <time>2014-06-15T09:37:48Z</time>
      </trkpt>
      <trkpt lat="42.77276" lon="-0.13559">
        <ele>2871.1687926087</ele>
        <time>2014-06-15T09:37:53Z</time>
      </trkpt>
      <trkpt lat="42.77276" lon="-0.1356">
        <ele>2871.1687926087</ele>
        <time>2014-06-15T09:37:58Z</time>
      </trkpt>
      <trkpt lat="42.7727" lon="-0.13565">
        <ele>2871.1687926087</ele>
        <time>2014-06-15T09:41:53Z</time>
      </trkpt>
      <trkpt lat="42.77269" lon="-0.13565">
        <ele>2873.6836213179</ele>
        <time>2014-06-15T09:41:58Z</time>
      </trkpt>
      <trkpt lat="42.77267" lon="-0.13564">
        <ele>2873.6836213179</ele>
        <time>2014-06-15T09:42:03Z</time>
      </trkpt>
      <trkpt lat="42.77266" lon="-0.13565">
        <ele>2873.6836213179</ele>
        <time>2014-06-15T09:42:07Z</time>
      </trkpt>
      <trkpt lat="42.77257" lon="-0.13562">
        <ele>2876.5085408272</ele>
        <time>2014-06-15T09:44:18Z</time>
      </trkpt>
      <trkpt lat="42.77257" lon="-0.13563">
        <ele>2876.5085408272</ele>
        <time>2014-06-15T09:44:23Z</time>
      </trkpt>
      <trkpt lat="42.77255" lon="-0.13563">
        <ele>2876.5085408272</ele>
        <time>2014-06-15T09:45:07Z</time>
      </trkpt>
      <trkpt lat="42.77253" lon="-0.13564">
        <ele>2876.5085408272</ele>
        <time>2014-06-15T09:45:13Z</time>
      </trkpt>
      <trkpt lat="42.77243" lon="-0.13567">
        <ele>2878.9442082117</ele>
        <time>2014-06-15T09:46:53Z</time>
      </trkpt>
      <trkpt lat="42.7724" lon="-0.13567">
        <ele>2878.9442082117</ele>
        <time>2014-06-15T09:46:58Z</time>
      </trkpt>
      <trkpt lat="42.77239" lon="-0.13567">
        <ele>2878.9442082117</ele>
        <time>2014-06-15T09:47:03Z</time>
      </trkpt>
      <trkpt lat="42.77239" lon="-0.13568">
        <ele>2878.9442082117</ele>
        <time>2014-06-15T09:47:08Z</time>
      </trkpt>
      <trkpt lat="42.77234" lon="-0.13575">
        <ele>2881.3669092962</ele>
        <time>2014-06-15T09:48:28Z</time>
      </trkpt>
      <trkpt lat="42.77235" lon="-0.13578">
        <ele>2881.3669092962</ele>
        <time>2014-06-15T09:48:33Z</time>
      </trkpt>
      <trkpt lat="42.77236" lon="-0.1358">
        <ele>2881.3669092962</ele>
        <time>2014-06-15T09:48:38Z</time>
      </trkpt>
      <trkpt lat="42.77237" lon="-0.13582">
        <ele>2881.3669092962</ele>
        <time>2014-06-15T09:48:43Z</time>
      </trkpt>
      <trkpt lat="42.77236" lon="-0.13583">
        <ele>2881.3669092962</ele>
        <time>2014-06-15T09:51:53Z</time>
      </trkpt>
      <trkpt lat="42.77233" lon="-0.13583">
        <ele>2884.2405854107</ele>
        <time>2014-06-15T09:51:58Z</time>
      </trkpt>
      <trkpt lat="42.77232" lon="-0.13582">
        <ele>2884.2405854107</ele>
        <time>2014-06-15T09:52:03Z</time>
      </trkpt>
      <trkpt lat="42.77234" lon="-0.13588">
        <ele>2884.2405854107</ele>
        <time>2014-06-15T09:52:48Z</time>
      </trkpt>
      <trkpt lat="42.77234" lon="-0.13592">
        <ele>2884.2405854107</ele>
        <time>2014-06-15T09:53:03Z</time>
      </trkpt>
      <trkpt lat="42.77234" lon="-0.13592">
        <ele>2884.2405854107</ele>
        <time>2014-06-15T09:53:08Z</time>
      </trkpt>
      <trkpt lat="42.7723" lon="-0.13592">
        <ele>2887.1291352558</ele>
        <time>2014-06-15T09:53:19Z</time>
      </trkpt>
      <trkpt lat="42.77229" lon="-0.13591">
        <ele>2887.1291352558</ele>
        <time>2014-06-15T09:53:22Z</time>
      </trkpt>
      <trkpt lat="42.77227" lon="-0.1359">
        <ele>2887.1291352558</ele>
        <time>2014-06-15T09:53:28Z</time>
      </trkpt>
      <trkpt lat="42.77227" lon="-0.13589">
        <ele>2887.1291352558</ele>
        <time>2014-06-15T09:53:33Z</time>
      </trkpt>
      <trkpt lat="42.77225" lon="-0.13588">
        <ele>2887.1291352558</ele>
        <time>2014-06-15T09:54:02Z</time>
      </trkpt>
      <trkpt lat="42.77225" lon="-0.13588">
        <ele>2887.1291352558</ele>
        <time>2014-06-15T09:54:07Z</time>
      </trkpt>
      <trkpt lat="42.7722" lon="-0.13594">
        <ele>2890.1616329474</ele>
        <time>2014-06-15T09:54:57Z</time>
      </trkpt>
      <trkpt lat="42.7722" lon="-0.13594">
        <ele>2890.1616329474</ele>
        <time>2014-06-15T09:55:02Z</time>
      </trkpt>
      <trkpt lat="42.77219" lon="-0.13593">
        <ele>2890.1616329474</ele>
        <time>2014-06-15T09:55:12Z</time>
      </trkpt>
      <trkpt lat="42.77216" lon="-0.13592">
        <ele>2890.1616329474</ele>
        <time>2014-06-15T09:55:17Z</time>
      </trkpt>
      <trkpt lat="42.77215" lon="-0.13592">
        <ele>2890.1616329474</ele>
        <time>2014-06-15T09:55:23Z</time>
      </trkpt>
      <trkpt lat="42.77211" lon="-0.13592">
        <ele>2893.0537261251</ele>
        <time>2014-06-15T09:57:03Z</time>
      </trkpt>
      <trkpt lat="42.77211" lon="-0.13591">
        <ele>2893.0537261251</ele>
        <time>2014-06-15T09:57:08Z</time>
      </trkpt>
      <trkpt lat="42.77207" lon="-0.13599">
        <ele>2893.0537261251</ele>
        <time>2014-06-15T09:58:08Z</time>
      </trkpt>
      <trkpt lat="42.77207" lon="-0.13602">
        <ele>2896.0034721589</ele>
        <time>2014-06-15T09:58:13Z</time>
      </trkpt>
      <trkpt lat="42.77207" lon="-0.13608">
        <ele>2896.0034721589</ele>
        <time>2014-06-15T09:58:28Z</time>
      </trkpt>
      <trkpt lat="42.77207" lon="-0.1361">
        <ele>2896.0034721589</ele>
        <time>2014-06-15T09:58:33Z</time>
      </trkpt>
      <trkpt lat="42.77208" lon="-0.13612">
        <ele>2896.0034721589</ele>
        <time>2014-06-15T09:58:37Z</time>
      </trkpt>
      <trkpt lat="42.77208" lon="-0.13612">
        <ele>2896.0034721589</ele>
        <time>2014-06-15T09:58:43Z</time>
      </trkpt>
      <trkpt lat="42.77209" lon="-0.13616">
        <ele>2899.2950690125</ele>
        <time>2014-06-15T09:59:03Z</time>
      </trkpt>
      <trkpt lat="42.7721" lon="-0.13617">
        <ele>2899.2950690125</ele>
        <time>2014-06-15T09:59:08Z</time>
      </trkpt>
      <trkpt lat="42.77208" lon="-0.13613">
        <ele>2899.2950690125</ele>
        <time>2014-06-15T09:59:23Z</time>
      </trkpt>
      <trkpt lat="42.77206" lon="-0.13613">
        <ele>2899.2950690125</ele>
        <time>2014-06-15T09:59:28Z</time>
      </trkpt>
      <trkpt lat="42.77204" lon="-0.13612">
        <ele>2899.2950690125</ele>
        <time>2014-06-15T09:59:33Z</time>
      </trkpt>
      <trkpt lat="42.77202" lon="-0.13612">
        <ele>2902.3550095172</ele>
        <time>2014-06-15T09:59:37Z</time>
      </trkpt>
      <trkpt lat="42.772" lon="-0.13613">
        <ele>2902.3550095172</ele>
        <time>2014-06-15T09:59:43Z</time>
      </trkpt>
      <trkpt lat="42.77199" lon="-0.13613">
        <ele>2902.3550095172</ele>
        <time>2014-06-15T09:59:48Z</time>
      </trkpt>
      <trkpt lat="42.77196" lon="-0.13613">
        <ele>2902.3550095172</ele>
        <time>2014-06-15T09:59:58Z</time>
      </trkpt>
      <trkpt lat="42.77196" lon="-0.13613">
        <ele>2902.3550095172</ele>
        <time>2014-06-15T10:00:02Z</time>
      </trkpt>
      <trkpt lat="42.77193" lon="-0.13613">
        <ele>2905.3586885165</ele>
        <time>2014-06-15T10:00:08Z</time>
      </trkpt>
      <trkpt lat="42.77192" lon="-0.13613">
        <ele>2905.3586885165</ele>
        <time>2014-06-15T10:00:13Z</time>
      </trkpt>
      <trkpt lat="42.77188" lon="-0.13616">
        <ele>2905.3586885165</ele>
        <time>2014-06-15T10:00:53Z</time>
      </trkpt>
      <trkpt lat="42.77187" lon="-0.13617">
        <ele>2905.3586885165</ele>
        <time>2014-06-15T10:00:58Z</time>
      </trkpt>
      <trkpt lat="42.77188" lon="-0.13619">
        <ele>2905.3586885165</ele>
        <time>2014-06-15T10:01:03Z</time>
      </trkpt>
      <trkpt lat="42.77188" lon="-0.13621">
        <ele>2908.6560994373</ele>
        <time>2014-06-15T10:01:07Z</time>
      </trkpt>
      <trkpt lat="42.77188" lon="-0.13621">
        <ele>2908.6560994373</ele>
        <time>2014-06-15T10:01:12Z</time>
      </trkpt>
      <trkpt lat="42.77184" lon="-0.13622">
        <ele>2908.6560994373</ele>
        <time>2014-06-15T10:01:18Z</time>
      </trkpt>
      <trkpt lat="42.77182" lon="-0.13622">
        <ele>2908.6560994373</ele>
        <time>2014-06-15T10:01:23Z</time>
      </trkpt>
      <trkpt lat="42.77179" lon="-0.13623">
        <ele>2911.7060174659</ele>
        <time>2014-06-15T10:01:27Z</time>
      </trkpt>
      <trkpt lat="42.77177" lon="-0.13624">
        <ele>2911.7060174659</ele>
        <time>2014-06-15T10:01:33Z</time>
      </trkpt>
      <trkpt lat="42.77175" lon="-0.13625">
        <ele>2911.7060174659</ele>
        <time>2014-06-15T10:01:38Z</time>
      </trkpt>
      <trkpt lat="42.77175" lon="-0.13624">
        <ele>2911.7060174659</ele>
        <time>2014-06-15T10:01:43Z</time>
      </trkpt>
      <trkpt lat="42.77174" lon="-0.13625">
        <ele>2911.7060174659</ele>
        <time>2014-06-15T10:01:48Z</time>
      </trkpt>
      <trkpt lat="42.77171" lon="-0.13625">
        <ele>2911.7060174659</ele>
        <time>2014-06-15T10:02:12Z</time>
      </trkpt>
      <trkpt lat="42.77168" lon="-0.13626">
        <ele>2915.1173120838</ele>
        <time>2014-06-15T10:02:18Z</time>
      </trkpt>
      <trkpt lat="42.77167" lon="-0.13627">
        <ele>2915.1173120838</ele>
        <time>2014-06-15T10:02:23Z</time>
      </trkpt>
      <trkpt lat="42.77162" lon="-0.13627">
        <ele>2915.1173120838</ele>
        <time>2014-06-15T10:02:28Z</time>
      </trkpt>
      <trkpt lat="42.7716" lon="-0.13628">
        <ele>2915.1173120838</ele>
        <time>2014-06-15T10:02:33Z</time>
      </trkpt>
      <trkpt lat="42.77158" lon="-0.13627">
        <ele>2918.6749007826</ele>
        <time>2014-06-15T10:02:38Z</time>
      </trkpt>
      <trkpt lat="42.77155" lon="-0.13627">
        <ele>2918.6749007826</ele>
        <time>2014-06-15T10:02:43Z</time>
      </trkpt>
      <trkpt lat="42.77153" lon="-0.13627">
        <ele>2918.6749007826</ele>
        <time>2014-06-15T10:02:48Z</time>
      </trkpt>
      <trkpt lat="42.7715" lon="-0.13627">
        <ele>2918.6749007826</ele>
        <time>2014-06-15T10:02:53Z</time>
      </trkpt>
      <trkpt lat="42.7715" lon="-0.13627">
        <ele>2918.6749007826</ele>
        <time>2014-06-15T10:02:58Z</time>
      </trkpt>
      <trkpt lat="42.77147" lon="-0.13627">
        <ele>2922.3952508287</ele>
        <time>2014-06-15T10:03:27Z</time>
      </trkpt>
      <trkpt lat="42.77144" lon="-0.13627">
        <ele>2922.3952508287</ele>
        <time>2014-06-15T10:03:33Z</time>
      </trkpt>
      <trkpt lat="42.77142" lon="-0.13628">
        <ele>2922.3952508287</ele>
        <time>2014-06-15T10:03:38Z</time>
      </trkpt>
      <trkpt lat="42.77142" lon="-0.13628">
        <ele>2922.3952508287</ele>
        <time>2014-06-15T10:03:43Z</time>
      </trkpt>
      <trkpt lat="42.77141" lon="-0.13628">
        <ele>2922.3952508287</ele>
        <time>2014-06-15T10:05:13Z</time>
      </trkpt>
      <trkpt lat="42.7714" lon="-0.13628">
        <ele>2922.3952508287</ele>
        <time>2014-06-15T10:05:18Z</time>
      </trkpt>
      <trkpt lat="42.77139" lon="-0.13628">
        <ele>2922.3952508287</ele>
        <time>2014-06-15T10:08:43Z</time>
      </trkpt>
      <trkpt lat="42.77138" lon="-0.13628">
        <ele>2926.1202282826</ele>
        <time>2014-06-15T10:08:48Z</time>
      </trkpt>
      <trkpt lat="42.77137" lon="-0.13636">
        <ele>2926.1202282826</ele>
        <time>2014-06-15T10:09:13Z</time>
      </trkpt>
      <trkpt lat="42.77135" lon="-0.13638">
        <ele>2926.1202282826</ele>
        <time>2014-06-15T10:09:18Z</time>
      </trkpt>
      <trkpt lat="42.77134" lon="-0.1364">
        <ele>2929.5015505241</ele>
        <time>2014-06-15T10:09:23Z</time>
      </trkpt>
      <trkpt lat="42.77132" lon="-0.13641">
        <ele>2929.5015505241</ele>
        <time>2014-06-15T10:09:28Z</time>
      </trkpt>
      <trkpt lat="42.7713" lon="-0.13642">
        <ele>2929.5015505241</ele>
        <time>2014-06-15T10:09:33Z</time>
      </trkpt>
      <trkpt lat="42.77129" lon="-0.13642">
        <ele>2929.5015505241</ele>
        <time>2014-06-15T10:09:38Z</time>
      </trkpt>
      <trkpt lat="42.77127" lon="-0.13645">
        <ele>2929.5015505241</ele>
        <time>2014-06-15T10:10:03Z</time>
      </trkpt>
      <trkpt lat="42.77126" lon="-0.13647">
        <ele>2932.851580935</ele>
        <time>2014-06-15T10:10:08Z</time>
      </trkpt>
      <trkpt lat="42.77124" lon="-0.13649">
        <ele>2932.851580935</ele>
        <time>2014-06-15T10:10:13Z</time>
      </trkpt>
      <trkpt lat="42.77122" lon="-0.1365">
        <ele>2932.851580935</ele>
        <time>2014-06-15T10:10:18Z</time>
      </trkpt>
      <trkpt lat="42.77121" lon="-0.13652">
        <ele>2932.851580935</ele>
        <time>2014-06-15T10:10:23Z</time>
      </trkpt>
      <trkpt lat="42.77121" lon="-0.13654">
        <ele>2932.851580935</ele>
        <time>2014-06-15T10:10:27Z</time>
      </trkpt>
      <trkpt lat="42.77122" lon="-0.13658">
        <ele>2936.0275027809</ele>
        <time>2014-06-15T10:10:32Z</time>
      </trkpt>
      <trkpt lat="42.77123" lon="-0.1366">
        <ele>2936.0275027809</ele>
        <time>2014-06-15T10:10:37Z</time>
      </trkpt>
      <trkpt lat="42.77123" lon="-0.1366">
        <ele>2936.0275027809</ele>
        <time>2014-06-15T10:10:43Z</time>
      </trkpt>
      <trkpt lat="42.77121" lon="-0.13661">
        <ele>2936.0275027809</ele>
        <time>2014-06-15T10:11:28Z</time>
      </trkpt>
      <trkpt lat="42.77122" lon="-0.13663">
        <ele>2936.0275027809</ele>
        <time>2014-06-15T10:11:33Z</time>
      </trkpt>
      <trkpt lat="42.77122" lon="-0.13665">
        <ele>2936.0275027809</ele>
        <time>2014-06-15T10:11:38Z</time>
      </trkpt>
      <trkpt lat="42.77121" lon="-0.13669">
        <ele>2940.2089061822</ele>
        <time>2014-06-15T10:11:43Z</time>
      </trkpt>
      <trkpt lat="42.7712" lon="-0.13671">
        <ele>2940.2089061822</ele>
        <time>2014-06-15T10:11:48Z</time>
      </trkpt>
      <trkpt lat="42.77119" lon="-0.13672">
        <ele>2940.2089061822</ele>
        <time>2014-06-15T10:11:53Z</time>
      </trkpt>
      <trkpt lat="42.77113" lon="-0.13678">
        <ele>2944.5548388521</ele>
        <time>2014-06-15T10:12:23Z</time>
      </trkpt>
      <trkpt lat="42.77111" lon="-0.13679">
        <ele>2944.5548388521</ele>
        <time>2014-06-15T10:12:29Z</time>
      </trkpt>
      <trkpt lat="42.7711" lon="-0.1368">
        <ele>2944.5548388521</ele>
        <time>2014-06-15T10:12:33Z</time>
      </trkpt>
      <trkpt lat="42.77108" lon="-0.13682">
        <ele>2944.5548388521</ele>
        <time>2014-06-15T10:12:38Z</time>
      </trkpt>
      <trkpt lat="42.77106" lon="-0.13685">
        <ele>2944.5548388521</ele>
        <time>2014-06-15T10:12:43Z</time>
      </trkpt>
      <trkpt lat="42.77105" lon="-0.13686">
        <ele>2948.6459660385</ele>
        <time>2014-06-15T10:12:48Z</time>
      </trkpt>
      <trkpt lat="42.77105" lon="-0.13687">
        <ele>2948.6459660385</ele>
        <time>2014-06-15T10:12:53Z</time>
      </trkpt>
      <trkpt lat="42.77104" lon="-0.1369">
        <ele>2948.6459660385</ele>
        <time>2014-06-15T10:13:08Z</time>
      </trkpt>
      <trkpt lat="42.77104" lon="-0.13693">
        <ele>2948.6459660385</ele>
        <time>2014-06-15T10:13:13Z</time>
      </trkpt>
      <trkpt lat="42.77105" lon="-0.13694">
        <ele>2948.6459660385</ele>
        <time>2014-06-15T10:13:18Z</time>
      </trkpt>
      <trkpt lat="42.77107" lon="-0.13699">
        <ele>2952.8006486963</ele>
        <time>2014-06-15T10:13:38Z</time>
      </trkpt>
      <trkpt lat="42.77107" lon="-0.13701">
        <ele>2952.8006486963</ele>
        <time>2014-06-15T10:13:43Z</time>
      </trkpt>
      <trkpt lat="42.77108" lon="-0.13704">
        <ele>2952.8006486963</ele>
        <time>2014-06-15T10:13:48Z</time>
      </trkpt>
      <trkpt lat="42.77109" lon="-0.13706">
        <ele>2952.8006486963</ele>
        <time>2014-06-15T10:13:53Z</time>
      </trkpt>
      <trkpt lat="42.7711" lon="-0.13709">
        <ele>2952.8006486963</ele>
        <time>2014-06-15T10:13:58Z</time>
      </trkpt>
      <trkpt lat="42.77111" lon="-0.13712">
        <ele>2957.1119670425</ele>
        <time>2014-06-15T10:14:03Z</time>
      </trkpt>
      <trkpt lat="42.77112" lon="-0.13715">
        <ele>2957.1119670425</ele>
        <time>2014-06-15T10:14:08Z</time>
      </trkpt>
      <trkpt lat="42.77112" lon="-0.13716">
        <ele>2957.1119670425</ele>
        <time>2014-06-15T10:14:13Z</time>
      </trkpt>
      <trkpt lat="42.77112" lon="-0.13718">
        <ele>2957.1119670425</ele>
        <time>2014-06-15T10:14:18Z</time>
      </trkpt>
      <trkpt lat="42.77113" lon="-0.13722">
        <ele>2957.1119670425</ele>
        <time>2014-06-15T10:14:42Z</time>
      </trkpt>
      <trkpt lat="42.77113" lon="-0.13723">
        <ele>2957.1119670425</ele>
        <time>2014-06-15T10:14:48Z</time>
      </trkpt>
      <trkpt lat="42.77116" lon="-0.13726">
        <ele>2961.4928378327</ele>
        <time>2014-06-15T10:14:53Z</time>
      </trkpt>
      <trkpt lat="42.77117" lon="-0.13727">
        <ele>2961.4928378327</ele>
        <time>2014-06-15T10:14:58Z</time>
      </trkpt>
      <trkpt lat="42.7712" lon="-0.13732">
        <ele>2961.4928378327</ele>
        <time>2014-06-15T10:15:07Z</time>
      </trkpt>
      <trkpt lat="42.7712" lon="-0.13732">
        <ele>2961.4928378327</ele>
        <time>2014-06-15T10:15:13Z</time>
      </trkpt>
      <trkpt lat="42.77122" lon="-0.13739">
        <ele>2965.9200779841</ele>
        <time>2014-06-15T10:15:28Z</time>
      </trkpt>
      <trkpt lat="42.77122" lon="-0.13739">
        <ele>2965.9200779841</ele>
        <time>2014-06-15T10:15:33Z</time>
      </trkpt>
      <trkpt lat="42.77124" lon="-0.13746">
        <ele>2965.9200779841</ele>
        <time>2014-06-15T10:15:48Z</time>
      </trkpt>
      <trkpt lat="42.77124" lon="-0.13746">
        <ele>2965.9200779841</ele>
        <time>2014-06-15T10:15:53Z</time>
      </trkpt>
      <trkpt lat="42.77128" lon="-0.13755">
        <ele>2970.473015796</ele>
        <time>2014-06-15T10:16:13Z</time>
      </trkpt>
      <trkpt lat="42.77128" lon="-0.13755">
        <ele>2970.473015796</ele>
        <time>2014-06-15T10:16:18Z</time>
      </trkpt>
      <trkpt lat="42.77131" lon="-0.1376">
        <ele>2970.473015796</ele>
        <time>2014-06-15T10:16:28Z</time>
      </trkpt>
      <trkpt lat="42.77132" lon="-0.13761">
        <ele>2970.473015796</ele>
        <time>2014-06-15T10:16:32Z</time>
      </trkpt>
      <trkpt lat="42.77134" lon="-0.13764">
        <ele>2970.473015796</ele>
        <time>2014-06-15T10:16:43Z</time>
      </trkpt>
      <trkpt lat="42.77134" lon="-0.13764">
        <ele>2974.9366444825</ele>
        <time>2014-06-15T10:16:47Z</time>
      </trkpt>
      <trkpt lat="42.77135" lon="-0.13766">
        <ele>2974.9366444825</ele>
        <time>2014-06-15T10:16:53Z</time>
      </trkpt>
      <trkpt lat="42.77139" lon="-0.13775">
        <ele>2979.0544305479</ele>
        <time>2014-06-15T10:17:23Z</time>
      </trkpt>
      <trkpt lat="42.7714" lon="-0.13776">
        <ele>2979.0544305479</ele>
        <time>2014-06-15T10:17:28Z</time>
      </trkpt>
      <trkpt lat="42.77141" lon="-0.13778">
        <ele>2979.0544305479</ele>
        <time>2014-06-15T10:17:33Z</time>
      </trkpt>
      <trkpt lat="42.77143" lon="-0.13779">
        <ele>2979.0544305479</ele>
        <time>2014-06-15T10:17:38Z</time>
      </trkpt>
      <trkpt lat="42.77143" lon="-0.1378">
        <ele>2979.0544305479</ele>
        <time>2014-06-15T10:17:42Z</time>
      </trkpt>
      <trkpt lat="42.77147" lon="-0.13783">
        <ele>2983.0364775021</ele>
        <time>2014-06-15T10:18:13Z</time>
      </trkpt>
      <trkpt lat="42.77147" lon="-0.13784">
        <ele>2983.0364775021</ele>
        <time>2014-06-15T10:18:18Z</time>
      </trkpt>
      <trkpt lat="42.7715" lon="-0.13788">
        <ele>2983.0364775021</ele>
        <time>2014-06-15T10:18:33Z</time>
      </trkpt>
      <trkpt lat="42.77151" lon="-0.1379">
        <ele>2983.0364775021</ele>
        <time>2014-06-15T10:18:38Z</time>
      </trkpt>
      <trkpt lat="42.77153" lon="-0.13792">
        <ele>2986.8617488978</ele>
        <time>2014-06-15T10:18:43Z</time>
      </trkpt>
      <trkpt lat="42.77153" lon="-0.13792">
        <ele>2986.8617488978</ele>
        <time>2014-06-15T10:18:48Z</time>
      </trkpt>
      <trkpt lat="42.77154" lon="-0.13794">
        <ele>2986.8617488978</ele>
        <time>2014-06-15T10:18:53Z</time>
      </trkpt>
      <trkpt lat="42.77155" lon="-0.13795">
        <ele>2986.8617488978</ele>
        <time>2014-06-15T10:18:58Z</time>
      </trkpt>
      <trkpt lat="42.77161" lon="-0.13804">
        <ele>2990.7994969853</ele>
        <time>2014-06-15T10:19:28Z</time>
      </trkpt>
      <trkpt lat="42.77161" lon="-0.13804">
        <ele>2990.7994969853</ele>
        <time>2014-06-15T10:19:33Z</time>
      </trkpt>
      <trkpt lat="42.77164" lon="-0.13807">
        <ele>2990.7994969853</ele>
        <time>2014-06-15T10:19:43Z</time>
      </trkpt>
      <trkpt lat="42.77165" lon="-0.13808">
        <ele>2990.7994969853</ele>
        <time>2014-06-15T10:19:48Z</time>
      </trkpt>
      <trkpt lat="42.77165" lon="-0.13813">
        <ele>2990.7994969853</ele>
        <time>2014-06-15T10:20:08Z</time>
      </trkpt>
      <trkpt lat="42.77165" lon="-0.13814">
        <ele>2990.7994969853</ele>
        <time>2014-06-15T10:20:13Z</time>
      </trkpt>
      <trkpt lat="42.77164" lon="-0.13819">
        <ele>2994.6954491578</ele>
        <time>2014-06-15T10:20:33Z</time>
      </trkpt>
      <trkpt lat="42.77163" lon="-0.13821">
        <ele>2994.6954491578</ele>
        <time>2014-06-15T10:20:38Z</time>
      </trkpt>
      <trkpt lat="42.77163" lon="-0.13821">
        <ele>2994.6954491578</ele>
        <time>2014-06-15T10:20:43Z</time>
      </trkpt>
      <trkpt lat="42.77158" lon="-0.13826">
        <ele>2994.6954491578</ele>
        <time>2014-06-15T10:30:08Z</time>
      </trkpt>
      <trkpt lat="42.77161" lon="-0.13829">
        <ele>2998.9400750971</ele>
        <time>2014-06-15T10:30:28Z</time>
      </trkpt>
      <trkpt lat="42.77162" lon="-0.13829">
        <ele>2998.9400750971</ele>
        <time>2014-06-15T10:30:33Z</time>
      </trkpt>
      <trkpt lat="42.77165" lon="-0.13832">
        <ele>2998.9400750971</ele>
        <time>2014-06-15T10:30:43Z</time>
      </trkpt>
      <trkpt lat="42.77167" lon="-0.13833">
        <ele>2998.9400750971</ele>
        <time>2014-06-15T10:30:48Z</time>
      </trkpt>
      <trkpt lat="42.77167" lon="-0.13834">
        <ele>2998.9400750971</ele>
        <time>2014-06-15T10:30:53Z</time>
      </trkpt>
      <trkpt lat="42.77175" lon="-0.13841">
        <ele>3003.548397479</ele>
        <time>2014-06-15T10:31:23Z</time>
      </trkpt>
      <trkpt lat="42.77181" lon="-0.13846">
        <ele>3003.548397479</ele>
        <time>2014-06-15T10:31:53Z</time>
      </trkpt>
      <trkpt lat="42.77182" lon="-0.13846">
        <ele>3003.548397479</ele>
        <time>2014-06-15T10:31:58Z</time>
      </trkpt>
      <trkpt lat="42.77185" lon="-0.13849">
        <ele>3008.1442982206</ele>
        <time>2014-06-15T10:32:08Z</time>
      </trkpt>
      <trkpt lat="42.77183" lon="-0.13854">
        <ele>3008.1442982206</ele>
        <time>2014-06-15T10:33:18Z</time>
      </trkpt>
      <trkpt lat="42.77181" lon="-0.13856">
        <ele>3008.1442982206</ele>
        <time>2014-06-15T10:33:23Z</time>
      </trkpt>
      <trkpt lat="42.7718" lon="-0.13858">
        <ele>3008.1442982206</ele>
        <time>2014-06-15T10:33:28Z</time>
      </trkpt>
      <trkpt lat="42.77179" lon="-0.13858">
        <ele>3012.5091089983</ele>
        <time>2014-06-15T10:33:33Z</time>
      </trkpt>
      <trkpt lat="42.77177" lon="-0.13863">
        <ele>3012.5091089983</ele>
        <time>2014-06-15T10:33:43Z</time>
      </trkpt>
      <trkpt lat="42.77175" lon="-0.13866">
        <ele>3012.5091089983</ele>
        <time>2014-06-15T10:33:48Z</time>
      </trkpt>
      <trkpt lat="42.77174" lon="-0.13867">
        <ele>3012.5091089983</ele>
        <time>2014-06-15T10:33:54Z</time>
      </trkpt>
      <trkpt lat="42.77173" lon="-0.13868">
        <ele>3016.4409603573</ele>
        <time>2014-06-15T10:33:57Z</time>
      </trkpt>
      <trkpt lat="42.77173" lon="-0.13869">
        <ele>3016.4409603573</ele>
        <time>2014-06-15T10:34:02Z</time>
      </trkpt>
      <trkpt lat="42.77171" lon="-0.13872">
        <ele>3016.4409603573</ele>
        <time>2014-06-15T10:34:08Z</time>
      </trkpt>
      <trkpt lat="42.7717" lon="-0.13875">
        <ele>3016.4409603573</ele>
        <time>2014-06-15T10:34:13Z</time>
      </trkpt>
      <trkpt lat="42.7717" lon="-0.13877">
        <ele>3016.4409603573</ele>
        <time>2014-06-15T10:34:18Z</time>
      </trkpt>
      <trkpt lat="42.77169" lon="-0.1388">
        <ele>3020.0279255033</ele>
        <time>2014-06-15T10:34:27Z</time>
      </trkpt>
      <trkpt lat="42.77168" lon="-0.13883">
        <ele>3020.0279255033</ele>
        <time>2014-06-15T10:34:33Z</time>
      </trkpt>
      <trkpt lat="42.77167" lon="-0.13884">
        <ele>3020.0279255033</ele>
        <time>2014-06-15T10:34:37Z</time>
      </trkpt>
      <trkpt lat="42.77167" lon="-0.13888">
        <ele>3020.0279255033</ele>
        <time>2014-06-15T10:34:43Z</time>
      </trkpt>
      <trkpt lat="42.77167" lon="-0.1389">
        <ele>3020.0279255033</ele>
        <time>2014-06-15T10:34:48Z</time>
      </trkpt>
      <trkpt lat="42.77167" lon="-0.13891">
        <ele>3020.0279255033</ele>
        <time>2014-06-15T10:34:53Z</time>
      </trkpt>
      <trkpt lat="42.77165" lon="-0.13895">
        <ele>3023.5111832815</ele>
        <time>2014-06-15T10:35:28Z</time>
      </trkpt>
      <trkpt lat="42.77163" lon="-0.13897">
        <ele>3023.5111832815</ele>
        <time>2014-06-15T10:35:33Z</time>
      </trkpt>
      <trkpt lat="42.77162" lon="-0.139">
        <ele>3023.5111832815</ele>
        <time>2014-06-15T10:35:38Z</time>
      </trkpt>
      <trkpt lat="42.7716" lon="-0.13902">
        <ele>3023.5111832815</ele>
        <time>2014-06-15T10:35:43Z</time>
      </trkpt>
      <trkpt lat="42.77157" lon="-0.13904">
        <ele>3026.7542897942</ele>
        <time>2014-06-15T10:35:48Z</time>
      </trkpt>
      <trkpt lat="42.77156" lon="-0.13906">
        <ele>3026.7542897942</ele>
        <time>2014-06-15T10:35:53Z</time>
      </trkpt>
      <trkpt lat="42.77155" lon="-0.13908">
        <ele>3026.7542897942</ele>
        <time>2014-06-15T10:35:57Z</time>
      </trkpt>
      <trkpt lat="42.77153" lon="-0.1391">
        <ele>3026.7542897942</ele>
        <time>2014-06-15T10:36:03Z</time>
      </trkpt>
      <trkpt lat="42.77152" lon="-0.13912">
        <ele>3026.7542897942</ele>
        <time>2014-06-15T10:36:07Z</time>
      </trkpt>
      <trkpt lat="42.77151" lon="-0.13914">
        <ele>3029.8477392695</ele>
        <time>2014-06-15T10:36:13Z</time>
      </trkpt>
      <trkpt lat="42.7715" lon="-0.13919">
        <ele>3029.8477392695</ele>
        <time>2014-06-15T10:36:18Z</time>
      </trkpt>
      <trkpt lat="42.77149" lon="-0.13921">
        <ele>3029.8477392695</ele>
        <time>2014-06-15T10:36:23Z</time>
      </trkpt>
      <trkpt lat="42.77148" lon="-0.13924">
        <ele>3029.8477392695</ele>
        <time>2014-06-15T10:36:27Z</time>
      </trkpt>
      <trkpt lat="42.77148" lon="-0.13927">
        <ele>3032.8182204068</ele>
        <time>2014-06-15T10:36:32Z</time>
      </trkpt>
      <trkpt lat="42.77147" lon="-0.1393">
        <ele>3032.8182204068</ele>
        <time>2014-06-15T10:36:38Z</time>
      </trkpt>
      <trkpt lat="42.77147" lon="-0.13932">
        <ele>3032.8182204068</ele>
        <time>2014-06-15T10:36:42Z</time>
      </trkpt>
      <trkpt lat="42.77146" lon="-0.13935">
        <ele>3032.8182204068</ele>
        <time>2014-06-15T10:36:48Z</time>
      </trkpt>
      <trkpt lat="42.77146" lon="-0.13938">
        <ele>3032.8182204068</ele>
        <time>2014-06-15T10:36:53Z</time>
      </trkpt>
      <trkpt lat="42.77146" lon="-0.13939">
        <ele>3032.8182204068</ele>
        <time>2014-06-15T10:36:58Z</time>
      </trkpt>
      <trkpt lat="42.77144" lon="-0.1394">
        <ele>3035.6764532528</ele>
        <time>2014-06-15T10:37:07Z</time>
      </trkpt>
      <trkpt lat="42.77143" lon="-0.13943">
        <ele>3035.6764532528</ele>
        <time>2014-06-15T10:37:14Z</time>
      </trkpt>
      <trkpt lat="42.77143" lon="-0.13944">
        <ele>3035.6764532528</ele>
        <time>2014-06-15T10:37:17Z</time>
      </trkpt>
      <trkpt lat="42.77144" lon="-0.13947">
        <ele>3035.6764532528</ele>
        <time>2014-06-15T10:37:22Z</time>
      </trkpt>
      <trkpt lat="42.77144" lon="-0.13952">
        <ele>3035.6764532528</ele>
        <time>2014-06-15T10:37:28Z</time>
      </trkpt>
      <trkpt lat="42.77143" lon="-0.13954">
        <ele>3038.3606781458</ele>
        <time>2014-06-15T10:37:33Z</time>
      </trkpt>
      <trkpt lat="42.77142" lon="-0.13957">
        <ele>3038.3606781458</ele>
        <time>2014-06-15T10:37:37Z</time>
      </trkpt>
      <trkpt lat="42.77141" lon="-0.13959">
        <ele>3038.3606781458</ele>
        <time>2014-06-15T10:37:42Z</time>
      </trkpt>
      <trkpt lat="42.7714" lon="-0.13963">
        <ele>3038.3606781458</ele>
        <time>2014-06-15T10:37:48Z</time>
      </trkpt>
      <trkpt lat="42.7714" lon="-0.13966">
        <ele>3041.0735991291</ele>
        <time>2014-06-15T10:37:53Z</time>
      </trkpt>
      <trkpt lat="42.7714" lon="-0.13967">
        <ele>3041.0735991291</ele>
        <time>2014-06-15T10:37:58Z</time>
      </trkpt>
      <trkpt lat="42.77142" lon="-0.13977">
        <ele>3041.0735991291</ele>
        <time>2014-06-15T10:38:27Z</time>
      </trkpt>
      <trkpt lat="42.77141" lon="-0.13979">
        <ele>3043.8156334681</ele>
        <time>2014-06-15T10:38:33Z</time>
      </trkpt>
      <trkpt lat="42.7714" lon="-0.13982">
        <ele>3043.8156334681</ele>
        <time>2014-06-15T10:38:37Z</time>
      </trkpt>
      <trkpt lat="42.77139" lon="-0.13985">
        <ele>3043.8156334681</ele>
        <time>2014-06-15T10:38:43Z</time>
      </trkpt>
      <trkpt lat="42.77139" lon="-0.13987">
        <ele>3043.8156334681</ele>
        <time>2014-06-15T10:38:48Z</time>
      </trkpt>
      <trkpt lat="42.77138" lon="-0.1399">
        <ele>3043.8156334681</ele>
        <time>2014-06-15T10:38:53Z</time>
      </trkpt>
      <trkpt lat="42.77139" lon="-0.13993">
        <ele>3046.6303387373</ele>
        <time>2014-06-15T10:38:57Z</time>
      </trkpt>
      <trkpt lat="42.77139" lon="-0.13997">
        <ele>3046.6303387373</ele>
        <time>2014-06-15T10:39:03Z</time>
      </trkpt>
      <trkpt lat="42.77139" lon="-0.13999">
        <ele>3046.6303387373</ele>
        <time>2014-06-15T10:39:08Z</time>
      </trkpt>
      <trkpt lat="42.77139" lon="-0.13999">
        <ele>3046.6303387373</ele>
        <time>2014-06-15T10:39:13Z</time>
      </trkpt>
      <trkpt lat="42.77138" lon="-0.14001">
        <ele>3046.6303387373</ele>
        <time>2014-06-15T10:39:38Z</time>
      </trkpt>
      <trkpt lat="42.77138" lon="-0.14004">
        <ele>3046.6303387373</ele>
        <time>2014-06-15T10:39:43Z</time>
      </trkpt>
      <trkpt lat="42.77139" lon="-0.14008">
        <ele>3049.6011130018</ele>
        <time>2014-06-15T10:39:47Z</time>
      </trkpt>
      <trkpt lat="42.77139" lon="-0.14012">
        <ele>3049.6011130018</ele>
        <time>2014-06-15T10:39:53Z</time>
      </trkpt>
      <trkpt lat="42.77139" lon="-0.14015">
        <ele>3049.6011130018</ele>
        <time>2014-06-15T10:39:58Z</time>
      </trkpt>
      <trkpt lat="42.77139" lon="-0.14018">
        <ele>3049.6011130018</ele>
        <time>2014-06-15T10:40:03Z</time>
      </trkpt>
      <trkpt lat="42.77139" lon="-0.1402">
        <ele>3049.6011130018</ele>
        <time>2014-06-15T10:40:08Z</time>
      </trkpt>
      <trkpt lat="42.77139" lon="-0.14023">
        <ele>3052.7471492013</ele>
        <time>2014-06-15T10:40:13Z</time>
      </trkpt>
      <trkpt lat="42.77139" lon="-0.14023">
        <ele>3052.7471492013</ele>
        <time>2014-06-15T10:40:18Z</time>
      </trkpt>
      <trkpt lat="42.7714" lon="-0.14026">
        <ele>3052.7471492013</ele>
        <time>2014-06-15T10:40:48Z</time>
      </trkpt>
      <trkpt lat="42.7714" lon="-0.1403">
        <ele>3052.7471492013</ele>
        <time>2014-06-15T10:40:53Z</time>
      </trkpt>
      <trkpt lat="42.77141" lon="-0.14034">
        <ele>3052.7471492013</ele>
        <time>2014-06-15T10:40:58Z</time>
      </trkpt>
      <trkpt lat="42.77141" lon="-0.14036">
        <ele>3055.7831026981</ele>
        <time>2014-06-15T10:41:03Z</time>
      </trkpt>
      <trkpt lat="42.77141" lon="-0.14039">
        <ele>3055.7831026981</ele>
        <time>2014-06-15T10:41:07Z</time>
      </trkpt>
      <trkpt lat="42.77142" lon="-0.14043">
        <ele>3055.7831026981</ele>
        <time>2014-06-15T10:41:12Z</time>
      </trkpt>
      <trkpt lat="42.77142" lon="-0.14047">
        <ele>3055.7831026981</ele>
        <time>2014-06-15T10:41:18Z</time>
      </trkpt>
      <trkpt lat="42.77142" lon="-0.14048">
        <ele>3055.7831026981</ele>
        <time>2014-06-15T10:41:23Z</time>
      </trkpt>
      <trkpt lat="42.77143" lon="-0.14051">
        <ele>3058.8195803892</ele>
        <time>2014-06-15T10:43:18Z</time>
      </trkpt>
      <trkpt lat="42.77143" lon="-0.14054">
        <ele>3058.8195803892</ele>
        <time>2014-06-15T10:43:23Z</time>
      </trkpt>
      <trkpt lat="42.77142" lon="-0.14056">
        <ele>3058.8195803892</ele>
        <time>2014-06-15T10:43:28Z</time>
      </trkpt>
      <trkpt lat="42.77143" lon="-0.14059">
        <ele>3058.8195803892</ele>
        <time>2014-06-15T10:43:33Z</time>
      </trkpt>
      <trkpt lat="42.77143" lon="-0.14059">
        <ele>3058.8195803892</ele>
        <time>2014-06-15T10:43:38Z</time>
      </trkpt>
      <trkpt lat="42.77143" lon="-0.14064">
        <ele>3061.6708281023</ele>
        <time>2014-06-15T10:43:43Z</time>
      </trkpt>
      <trkpt lat="42.77143" lon="-0.14067">
        <ele>3061.6708281023</ele>
        <time>2014-06-15T10:43:48Z</time>
      </trkpt>
      <trkpt lat="42.77143" lon="-0.14071">
        <ele>3061.6708281023</ele>
        <time>2014-06-15T10:43:53Z</time>
      </trkpt>
      <trkpt lat="42.77143" lon="-0.14073">
        <ele>3061.6708281023</ele>
        <time>2014-06-15T10:43:58Z</time>
      </trkpt>
      <trkpt lat="42.77143" lon="-0.14076">
        <ele>3061.6708281023</ele>
        <time>2014-06-15T10:44:03Z</time>
      </trkpt>
      <trkpt lat="42.77143" lon="-0.1408">
        <ele>3064.5543403159</ele>
        <time>2014-06-15T10:44:08Z</time>
      </trkpt>
      <trkpt lat="42.77143" lon="-0.14083">
        <ele>3064.5543403159</ele>
        <time>2014-06-15T10:44:12Z</time>
      </trkpt>
      <trkpt lat="42.77144" lon="-0.14086">
        <ele>3064.5543403159</ele>
        <time>2014-06-15T10:44:18Z</time>
      </trkpt>
      <trkpt lat="42.77144" lon="-0.14089">
        <ele>3064.5543403159</ele>
        <time>2014-06-15T10:44:22Z</time>
      </trkpt>
      <trkpt lat="42.77145" lon="-0.14091">
        <ele>3064.5543403159</ele>
        <time>2014-06-15T10:44:28Z</time>
      </trkpt>
      <trkpt lat="42.77145" lon="-0.14095">
        <ele>3067.570645405</ele>
        <time>2014-06-15T10:44:47Z</time>
      </trkpt>
      <trkpt lat="42.77145" lon="-0.14099">
        <ele>3067.570645405</ele>
        <time>2014-06-15T10:44:53Z</time>
      </trkpt>
      <trkpt lat="42.77146" lon="-0.14103">
        <ele>3067.570645405</ele>
        <time>2014-06-15T10:44:58Z</time>
      </trkpt>
      <trkpt lat="42.77147" lon="-0.14106">
        <ele>3067.570645405</ele>
        <time>2014-06-15T10:45:02Z</time>
      </trkpt>
      <trkpt lat="42.77147" lon="-0.14109">
        <ele>3070.596322994</ele>
        <time>2014-06-15T10:45:07Z</time>
      </trkpt>
      <trkpt lat="42.77148" lon="-0.14113">
        <ele>3070.596322994</ele>
        <time>2014-06-15T10:45:12Z</time>
      </trkpt>
      <trkpt lat="42.77148" lon="-0.14117">
        <ele>3070.596322994</ele>
        <time>2014-06-15T10:45:18Z</time>
      </trkpt>
      <trkpt lat="42.77148" lon="-0.14119">
        <ele>3070.596322994</ele>
        <time>2014-06-15T10:45:23Z</time>
      </trkpt>
      <trkpt lat="42.77149" lon="-0.14122">
        <ele>3073.5169644104</ele>
        <time>2014-06-15T10:45:28Z</time>
      </trkpt>
      <trkpt lat="42.77149" lon="-0.14126">
        <ele>3073.5169644104</ele>
        <time>2014-06-15T10:45:33Z</time>
      </trkpt>
      <trkpt lat="42.7715" lon="-0.14128">
        <ele>3073.5169644104</ele>
        <time>2014-06-15T10:45:38Z</time>
      </trkpt>
      <trkpt lat="42.7715" lon="-0.1413">
        <ele>3073.5169644104</ele>
        <time>2014-06-15T10:45:43Z</time>
      </trkpt>
      <trkpt lat="42.77152" lon="-0.14135">
        <ele>3076.3132950076</ele>
        <time>2014-06-15T10:46:03Z</time>
      </trkpt>
      <trkpt lat="42.77152" lon="-0.1414">
        <ele>3076.3132950076</ele>
        <time>2014-06-15T10:46:08Z</time>
      </trkpt>
      <trkpt lat="42.77153" lon="-0.14142">
        <ele>3076.3132950076</ele>
        <time>2014-06-15T10:46:13Z</time>
      </trkpt>
      <trkpt lat="42.77153" lon="-0.14146">
        <ele>3076.3132950076</ele>
        <time>2014-06-15T10:46:19Z</time>
      </trkpt>
      <trkpt lat="42.77154" lon="-0.14151">
        <ele>3078.9965919145</ele>
        <time>2014-06-15T10:46:23Z</time>
      </trkpt>
      <trkpt lat="42.77154" lon="-0.14155">
        <ele>3078.9965919145</ele>
        <time>2014-06-15T10:46:27Z</time>
      </trkpt>
      <trkpt lat="42.77155" lon="-0.14159">
        <ele>3078.9965919145</ele>
        <time>2014-06-15T10:46:32Z</time>
      </trkpt>
      <trkpt lat="42.77155" lon="-0.14164">
        <ele>3081.5775820688</ele>
        <time>2014-06-15T10:46:38Z</time>
      </trkpt>
      <trkpt lat="42.77155" lon="-0.14169">
        <ele>3081.5775820688</ele>
        <time>2014-06-15T10:46:43Z</time>
      </trkpt>
      <trkpt lat="42.77154" lon="-0.1417">
        <ele>3081.5775820688</ele>
        <time>2014-06-15T10:46:48Z</time>
      </trkpt>
      <trkpt lat="42.77155" lon="-0.14176">
        <ele>3081.5775820688</ele>
        <time>2014-06-15T10:47:23Z</time>
      </trkpt>
      <trkpt lat="42.77155" lon="-0.1418">
        <ele>3083.936747968</ele>
        <time>2014-06-15T10:47:28Z</time>
      </trkpt>
      <trkpt lat="42.77155" lon="-0.14184">
        <ele>3083.936747968</ele>
        <time>2014-06-15T10:47:33Z</time>
      </trkpt>
      <trkpt lat="42.77156" lon="-0.14188">
        <ele>3083.936747968</ele>
        <time>2014-06-15T10:47:38Z</time>
      </trkpt>
      <trkpt lat="42.77157" lon="-0.14192">
        <ele>3086.1224477141</ele>
        <time>2014-06-15T10:47:42Z</time>
      </trkpt>
      <trkpt lat="42.77158" lon="-0.14195">
        <ele>3086.1224477141</ele>
        <time>2014-06-15T10:47:48Z</time>
      </trkpt>
      <trkpt lat="42.77159" lon="-0.14199">
        <ele>3086.1224477141</ele>
        <time>2014-06-15T10:47:53Z</time>
      </trkpt>
      <trkpt lat="42.77159" lon="-0.14202">
        <ele>3086.1224477141</ele>
        <time>2014-06-15T10:47:58Z</time>
      </trkpt>
      <trkpt lat="42.7716" lon="-0.14206">
        <ele>3088.3960861815</ele>
        <time>2014-06-15T10:48:03Z</time>
      </trkpt>
      <trkpt lat="42.77161" lon="-0.1421">
        <ele>3088.3960861815</ele>
        <time>2014-06-15T10:48:08Z</time>
      </trkpt>
      <trkpt lat="42.77162" lon="-0.14213">
        <ele>3088.3960861815</ele>
        <time>2014-06-15T10:48:13Z</time>
      </trkpt>
      <trkpt lat="42.77163" lon="-0.14217">
        <ele>3088.3960861815</ele>
        <time>2014-06-15T10:48:17Z</time>
      </trkpt>
      <trkpt lat="42.77164" lon="-0.14221">
        <ele>3090.6248697219</ele>
        <time>2014-06-15T10:48:23Z</time>
      </trkpt>
      <trkpt lat="42.77164" lon="-0.14224">
        <ele>3090.6248697219</ele>
        <time>2014-06-15T10:48:28Z</time>
      </trkpt>
      <trkpt lat="42.77165" lon="-0.14228">
        <ele>3090.6248697219</ele>
        <time>2014-06-15T10:48:33Z</time>
      </trkpt>
      <trkpt lat="42.77166" lon="-0.14233">
        <ele>3090.6248697219</ele>
        <time>2014-06-15T10:48:38Z</time>
      </trkpt>
      <trkpt lat="42.77168" lon="-0.14236">
        <ele>3092.656996941</ele>
        <time>2014-06-15T10:48:43Z</time>
      </trkpt>
      <trkpt lat="42.77169" lon="-0.14238">
        <ele>3092.656996941</ele>
        <time>2014-06-15T10:48:48Z</time>
      </trkpt>
      <trkpt lat="42.77169" lon="-0.14243">
        <ele>3092.656996941</ele>
        <time>2014-06-15T10:48:53Z</time>
      </trkpt>
      <trkpt lat="42.7717" lon="-0.14246">
        <ele>3092.656996941</ele>
        <time>2014-06-15T10:48:58Z</time>
      </trkpt>
      <trkpt lat="42.77171" lon="-0.14249">
        <ele>3094.5396414469</ele>
        <time>2014-06-15T10:49:03Z</time>
      </trkpt>
      <trkpt lat="42.77171" lon="-0.1425">
        <ele>3094.5396414469</ele>
        <time>2014-06-15T10:49:08Z</time>
      </trkpt>
      <trkpt lat="42.77171" lon="-0.14254">
        <ele>3094.5396414469</ele>
        <time>2014-06-15T10:49:32Z</time>
      </trkpt>
      <trkpt lat="42.77172" lon="-0.14257">
        <ele>3094.5396414469</ele>
        <time>2014-06-15T10:49:38Z</time>
      </trkpt>
      <trkpt lat="42.77173" lon="-0.14261">
        <ele>3096.2736187675</ele>
        <time>2014-06-15T10:49:43Z</time>
      </trkpt>
      <trkpt lat="42.77173" lon="-0.14265">
        <ele>3096.2736187675</ele>
        <time>2014-06-15T10:49:48Z</time>
      </trkpt>
      <trkpt lat="42.77174" lon="-0.14268">
        <ele>3096.2736187675</ele>
        <time>2014-06-15T10:49:53Z</time>
      </trkpt>
      <trkpt lat="42.77174" lon="-0.14272">
        <ele>3096.2736187675</ele>
        <time>2014-06-15T10:49:57Z</time>
      </trkpt>
      <trkpt lat="42.77175" lon="-0.14276">
        <ele>3097.9897163342</ele>
        <time>2014-06-15T10:50:02Z</time>
      </trkpt>
      <trkpt lat="42.77176" lon="-0.14281">
        <ele>3097.9897163342</ele>
        <time>2014-06-15T10:50:07Z</time>
      </trkpt>
      <trkpt lat="42.77176" lon="-0.14285">
        <ele>3097.9897163342</ele>
        <time>2014-06-15T10:50:12Z</time>
      </trkpt>
      <trkpt lat="42.77177" lon="-0.14289">
        <ele>3099.722605502</ele>
        <time>2014-06-15T10:50:18Z</time>
      </trkpt>
      <trkpt lat="42.77177" lon="-0.14291">
        <ele>3099.722605502</ele>
        <time>2014-06-15T10:50:23Z</time>
      </trkpt>
      <trkpt lat="42.77177" lon="-0.14297">
        <ele>3099.722605502</ele>
        <time>2014-06-15T10:50:28Z</time>
      </trkpt>
      <trkpt lat="42.77178" lon="-0.143">
        <ele>3099.722605502</ele>
        <time>2014-06-15T10:50:33Z</time>
      </trkpt>
      <trkpt lat="42.77178" lon="-0.14304">
        <ele>3101.4322095936</ele>
        <time>2014-06-15T10:50:38Z</time>
      </trkpt>
      <trkpt lat="42.77178" lon="-0.14305">
        <ele>3101.4322095936</ele>
        <time>2014-06-15T10:50:43Z</time>
      </trkpt>
      <trkpt lat="42.77178" lon="-0.14307">
        <ele>3101.4322095936</ele>
        <time>2014-06-15T10:51:23Z</time>
      </trkpt>
      <trkpt lat="42.77178" lon="-0.14311">
        <ele>3101.4322095936</ele>
        <time>2014-06-15T10:51:28Z</time>
      </trkpt>
      <trkpt lat="42.77179" lon="-0.14314">
        <ele>3101.4322095936</ele>
        <time>2014-06-15T10:51:32Z</time>
      </trkpt>
      <trkpt lat="42.77179" lon="-0.14318">
        <ele>3103.1966459992</ele>
        <time>2014-06-15T10:51:38Z</time>
      </trkpt>
      <trkpt lat="42.7718" lon="-0.14322">
        <ele>3103.1966459992</ele>
        <time>2014-06-15T10:51:43Z</time>
      </trkpt>
      <trkpt lat="42.7718" lon="-0.14327">
        <ele>3103.1966459992</ele>
        <time>2014-06-15T10:51:48Z</time>
      </trkpt>
      <trkpt lat="42.77181" lon="-0.14332">
        <ele>3104.8286303055</ele>
        <time>2014-06-15T10:51:52Z</time>
      </trkpt>
      <trkpt lat="42.77181" lon="-0.14336">
        <ele>3104.8286303055</ele>
        <time>2014-06-15T10:51:58Z</time>
      </trkpt>
      <trkpt lat="42.77182" lon="-0.1434">
        <ele>3104.8286303055</ele>
        <time>2014-06-15T10:52:03Z</time>
      </trkpt>
      <trkpt lat="42.77182" lon="-0.14344">
        <ele>3106.3422377678</ele>
        <time>2014-06-15T10:52:08Z</time>
      </trkpt>
      <trkpt lat="42.77182" lon="-0.14349">
        <ele>3106.3422377678</ele>
        <time>2014-06-15T10:52:13Z</time>
      </trkpt>
      <trkpt lat="42.77182" lon="-0.14352">
        <ele>3106.3422377678</ele>
        <time>2014-06-15T10:52:18Z</time>
      </trkpt>
      <trkpt lat="42.77182" lon="-0.14357">
        <ele>3107.8371897773</ele>
        <time>2014-06-15T10:52:23Z</time>
      </trkpt>
      <trkpt lat="42.77181" lon="-0.14361">
        <ele>3107.8371897773</ele>
        <time>2014-06-15T10:52:28Z</time>
      </trkpt>
      <trkpt lat="42.77182" lon="-0.14365">
        <ele>3107.8371897773</ele>
        <time>2014-06-15T10:52:32Z</time>
      </trkpt>
      <trkpt lat="42.77182" lon="-0.1437">
        <ele>3109.2761115244</ele>
        <time>2014-06-15T10:52:38Z</time>
      </trkpt>
      <trkpt lat="42.77182" lon="-0.1437">
        <ele>3109.2761115244</ele>
        <time>2014-06-15T10:52:43Z</time>
      </trkpt>
      <trkpt lat="42.77183" lon="-0.14372">
        <ele>3109.2761115244</ele>
        <time>2014-06-15T10:53:13Z</time>
      </trkpt>
      <trkpt lat="42.77183" lon="-0.14376">
        <ele>3109.2761115244</ele>
        <time>2014-06-15T10:53:18Z</time>
      </trkpt>
      <trkpt lat="42.77184" lon="-0.14382">
        <ele>3110.5091144601</ele>
        <time>2014-06-15T10:53:23Z</time>
      </trkpt>
      <trkpt lat="42.77184" lon="-0.14385">
        <ele>3110.5091144601</ele>
        <time>2014-06-15T10:53:28Z</time>
      </trkpt>
      <trkpt lat="42.77186" lon="-0.1439">
        <ele>3110.5091144601</ele>
        <time>2014-06-15T10:53:33Z</time>
      </trkpt>
      <trkpt lat="42.77186" lon="-0.14393">
        <ele>3110.5091144601</ele>
        <time>2014-06-15T10:53:38Z</time>
      </trkpt>
      <trkpt lat="42.77186" lon="-0.14397">
        <ele>3111.7003999124</ele>
        <time>2014-06-15T10:53:43Z</time>
      </trkpt>
      <trkpt lat="42.77186" lon="-0.14403">
        <ele>3111.7003999124</ele>
        <time>2014-06-15T10:53:48Z</time>
      </trkpt>
      <trkpt lat="42.77186" lon="-0.14407">
        <ele>3111.7003999124</ele>
        <time>2014-06-15T10:53:53Z</time>
      </trkpt>
      <trkpt lat="42.77187" lon="-0.14411">
        <ele>3112.9444434504</ele>
        <time>2014-06-15T10:53:58Z</time>
      </trkpt>
      <trkpt lat="42.77188" lon="-0.14414">
        <ele>3112.9444434504</ele>
        <time>2014-06-15T10:54:03Z</time>
      </trkpt>
      <trkpt lat="42.77189" lon="-0.14418">
        <ele>3112.9444434504</ele>
        <time>2014-06-15T10:54:08Z</time>
      </trkpt>
      <trkpt lat="42.7719" lon="-0.14422">
        <ele>3112.9444434504</ele>
        <time>2014-06-15T10:54:13Z</time>
      </trkpt>
      <trkpt lat="42.7719" lon="-0.14422">
        <ele>3112.9444434504</ele>
        <time>2014-06-15T10:54:18Z</time>
      </trkpt>
      <trkpt lat="42.77193" lon="-0.14426">
        <ele>3114.5302485643</ele>
        <time>2014-06-15T10:54:57Z</time>
      </trkpt>
      <trkpt lat="42.77194" lon="-0.14429">
        <ele>3114.5302485643</ele>
        <time>2014-06-15T10:55:04Z</time>
      </trkpt>
      <trkpt lat="42.77195" lon="-0.14431">
        <ele>3114.5302485643</ele>
        <time>2014-06-15T10:55:10Z</time>
      </trkpt>
      <trkpt lat="42.77196" lon="-0.14434">
        <ele>3114.5302485643</ele>
        <time>2014-06-15T10:55:12Z</time>
      </trkpt>
      <trkpt lat="42.77197" lon="-0.14438">
        <ele>3116.2777435348</ele>
        <time>2014-06-15T10:55:18Z</time>
      </trkpt>
      <trkpt lat="42.77197" lon="-0.14441">
        <ele>3116.2777435348</ele>
        <time>2014-06-15T10:55:23Z</time>
      </trkpt>
      <trkpt lat="42.77198" lon="-0.14444">
        <ele>3116.2777435348</ele>
        <time>2014-06-15T10:55:28Z</time>
      </trkpt>
      <trkpt lat="42.77198" lon="-0.14447">
        <ele>3116.2777435348</ele>
        <time>2014-06-15T10:55:33Z</time>
      </trkpt>
      <trkpt lat="42.77199" lon="-0.1445">
        <ele>3116.2777435348</ele>
        <time>2014-06-15T10:55:38Z</time>
      </trkpt>
      <trkpt lat="42.77201" lon="-0.14454">
        <ele>3118.0627219421</ele>
        <time>2014-06-15T10:55:43Z</time>
      </trkpt>
      <trkpt lat="42.77201" lon="-0.14457">
        <ele>3118.0627219421</ele>
        <time>2014-06-15T10:55:48Z</time>
      </trkpt>
      <trkpt lat="42.77201" lon="-0.14461">
        <ele>3118.0627219421</ele>
        <time>2014-06-15T10:55:53Z</time>
      </trkpt>
      <trkpt lat="42.77201" lon="-0.14463">
        <ele>3118.0627219421</ele>
        <time>2014-06-15T10:55:58Z</time>
      </trkpt>
      <trkpt lat="42.77201" lon="-0.14462">
        <ele>3118.0627219421</ele>
        <time>2014-06-15T10:56:34Z</time>
      </trkpt>
      <trkpt lat="42.77202" lon="-0.14465">
        <ele>3118.0627219421</ele>
        <time>2014-06-15T10:56:38Z</time>
      </trkpt>
      <trkpt lat="42.77202" lon="-0.14469">
        <ele>3120.0868999137</ele>
        <time>2014-06-15T10:56:43Z</time>
      </trkpt>
      <trkpt lat="42.77203" lon="-0.14472">
        <ele>3120.0868999137</ele>
        <time>2014-06-15T10:56:48Z</time>
      </trkpt>
      <trkpt lat="42.77204" lon="-0.14476">
        <ele>3120.0868999137</ele>
        <time>2014-06-15T10:56:53Z</time>
      </trkpt>
      <trkpt lat="42.77205" lon="-0.1448">
        <ele>3120.0868999137</ele>
        <time>2014-06-15T10:56:58Z</time>
      </trkpt>
      <trkpt lat="42.77206" lon="-0.14483">
        <ele>3122.1616775906</ele>
        <time>2014-06-15T10:57:03Z</time>
      </trkpt>
      <trkpt lat="42.77207" lon="-0.14487">
        <ele>3122.1616775906</ele>
        <time>2014-06-15T10:57:08Z</time>
      </trkpt>
      <trkpt lat="42.77208" lon="-0.1449">
        <ele>3122.1616775906</ele>
        <time>2014-06-15T10:57:12Z</time>
      </trkpt>
      <trkpt lat="42.77208" lon="-0.14493">
        <ele>3122.1616775906</ele>
        <time>2014-06-15T10:57:18Z</time>
      </trkpt>
      <trkpt lat="42.7721" lon="-0.14498">
        <ele>3124.4867231498</ele>
        <time>2014-06-15T10:57:23Z</time>
      </trkpt>
      <trkpt lat="42.7721" lon="-0.14501">
        <ele>3124.4867231498</ele>
        <time>2014-06-15T10:57:28Z</time>
      </trkpt>
      <trkpt lat="42.7721" lon="-0.14504">
        <ele>3124.4867231498</ele>
        <time>2014-06-15T10:57:33Z</time>
      </trkpt>
      <trkpt lat="42.77211" lon="-0.14508">
        <ele>3124.4867231498</ele>
        <time>2014-06-15T10:57:38Z</time>
      </trkpt>
      <trkpt lat="42.77212" lon="-0.14511">
        <ele>3127.0300408548</ele>
        <time>2014-06-15T10:57:43Z</time>
      </trkpt>
      <trkpt lat="42.77212" lon="-0.14512">
        <ele>3127.0300408548</ele>
        <time>2014-06-15T10:57:48Z</time>
      </trkpt>
      <trkpt lat="42.77214" lon="-0.14517">
        <ele>3127.0300408548</ele>
        <time>2014-06-15T10:58:35Z</time>
      </trkpt>
      <trkpt lat="42.77215" lon="-0.1452">
        <ele>3127.0300408548</ele>
        <time>2014-06-15T10:58:37Z</time>
      </trkpt>
      <trkpt lat="42.77215" lon="-0.14524">
        <ele>3129.3721520305</ele>
        <time>2014-06-15T10:58:43Z</time>
      </trkpt>
      <trkpt lat="42.77216" lon="-0.14528">
        <ele>3129.3721520305</ele>
        <time>2014-06-15T10:58:48Z</time>
      </trkpt>
      <trkpt lat="42.77216" lon="-0.14531">
        <ele>3129.3721520305</ele>
        <time>2014-06-15T10:58:53Z</time>
      </trkpt>
      <trkpt lat="42.77217" lon="-0.14534">
        <ele>3129.3721520305</ele>
        <time>2014-06-15T10:58:59Z</time>
      </trkpt>
      <trkpt lat="42.77218" lon="-0.14538">
        <ele>3131.5571767932</ele>
        <time>2014-06-15T10:59:03Z</time>
      </trkpt>
      <trkpt lat="42.77218" lon="-0.14542">
        <ele>3131.5571767932</ele>
        <time>2014-06-15T10:59:08Z</time>
      </trkpt>
      <trkpt lat="42.77219" lon="-0.14546">
        <ele>3131.5571767932</ele>
        <time>2014-06-15T10:59:13Z</time>
      </trkpt>
      <trkpt lat="42.77219" lon="-0.1455">
        <ele>3131.5571767932</ele>
        <time>2014-06-15T10:59:18Z</time>
      </trkpt>
      <trkpt lat="42.77219" lon="-0.14553">
        <ele>3133.7416170244</ele>
        <time>2014-06-15T10:59:23Z</time>
      </trkpt>
      <trkpt lat="42.77219" lon="-0.14553">
        <ele>3133.7416170244</ele>
        <time>2014-06-15T10:59:28Z</time>
      </trkpt>
      <trkpt lat="42.77221" lon="-0.14558">
        <ele>3133.7416170244</ele>
        <time>2014-06-15T10:59:43Z</time>
      </trkpt>
      <trkpt lat="42.77221" lon="-0.1456">
        <ele>3133.7416170244</ele>
        <time>2014-06-15T10:59:48Z</time>
      </trkpt>
      <trkpt lat="42.77223" lon="-0.14565">
        <ele>3136.0415572398</ele>
        <time>2014-06-15T11:04:13Z</time>
      </trkpt>
      <trkpt lat="42.77222" lon="-0.14564">
        <ele>3136.0415572398</ele>
        <time>2014-06-15T11:04:18Z</time>
      </trkpt>
      <trkpt lat="42.77223" lon="-0.1457">
        <ele>3136.0415572398</ele>
        <time>2014-06-15T11:04:28Z</time>
      </trkpt>
      <trkpt lat="42.77224" lon="-0.14573">
        <ele>3136.0415572398</ele>
        <time>2014-06-15T11:04:32Z</time>
      </trkpt>
      <trkpt lat="42.77225" lon="-0.14576">
        <ele>3138.0597465703</ele>
        <time>2014-06-15T11:04:38Z</time>
      </trkpt>
      <trkpt lat="42.77226" lon="-0.14578">
        <ele>3138.0597465703</ele>
        <time>2014-06-15T11:04:42Z</time>
      </trkpt>
      <trkpt lat="42.77226" lon="-0.14582">
        <ele>3138.0597465703</ele>
        <time>2014-06-15T11:04:47Z</time>
      </trkpt>
      <trkpt lat="42.77227" lon="-0.14584">
        <ele>3138.0597465703</ele>
        <time>2014-06-15T11:04:53Z</time>
      </trkpt>
      <trkpt lat="42.77227" lon="-0.14587">
        <ele>3138.0597465703</ele>
        <time>2014-06-15T11:04:58Z</time>
      </trkpt>
      <trkpt lat="42.77227" lon="-0.1459">
        <ele>3140.0773167794</ele>
        <time>2014-06-15T11:05:03Z</time>
      </trkpt>
      <trkpt lat="42.77227" lon="-0.14591">
        <ele>3140.0773167794</ele>
        <time>2014-06-15T11:05:08Z</time>
      </trkpt>
      <trkpt lat="42.77227" lon="-0.14595">
        <ele>3140.0773167794</ele>
        <time>2014-06-15T11:05:13Z</time>
      </trkpt>
      <trkpt lat="42.77228" lon="-0.14597">
        <ele>3140.0773167794</ele>
        <time>2014-06-15T11:05:18Z</time>
      </trkpt>
      <trkpt lat="42.77229" lon="-0.14598">
        <ele>3140.0773167794</ele>
        <time>2014-06-15T11:05:23Z</time>
      </trkpt>
      <trkpt lat="42.77229" lon="-0.14602">
        <ele>3140.0773167794</ele>
        <time>2014-06-15T11:05:28Z</time>
      </trkpt>
      <trkpt lat="42.77229" lon="-0.14602">
        <ele>3142.08085303</ele>
        <time>2014-06-15T11:05:32Z</time>
      </trkpt>
      <trkpt lat="42.7723" lon="-0.14609">
        <ele>3142.08085303</ele>
        <time>2014-06-15T11:05:43Z</time>
      </trkpt>
      <trkpt lat="42.7723" lon="-0.14611">
        <ele>3142.08085303</ele>
        <time>2014-06-15T11:05:48Z</time>
      </trkpt>
      <trkpt lat="42.77231" lon="-0.14614">
        <ele>3142.08085303</ele>
        <time>2014-06-15T11:05:53Z</time>
      </trkpt>
      <trkpt lat="42.77231" lon="-0.14617">
        <ele>3144.0867061636</ele>
        <time>2014-06-15T11:05:57Z</time>
      </trkpt>
      <trkpt lat="42.77231" lon="-0.1462">
        <ele>3144.0867061636</ele>
        <time>2014-06-15T11:06:03Z</time>
      </trkpt>
      <trkpt lat="42.77232" lon="-0.14622">
        <ele>3144.0867061636</ele>
        <time>2014-06-15T11:06:08Z</time>
      </trkpt>
      <trkpt lat="42.77232" lon="-0.14623">
        <ele>3144.0867061636</ele>
        <time>2014-06-15T11:06:13Z</time>
      </trkpt>
      <trkpt lat="42.77232" lon="-0.14626">
        <ele>3144.0867061636</ele>
        <time>2014-06-15T11:06:18Z</time>
      </trkpt>
      <trkpt lat="42.77233" lon="-0.14629">
        <ele>3146.1387638521</ele>
        <time>2014-06-15T11:06:22Z</time>
      </trkpt>
      <trkpt lat="42.77234" lon="-0.14632">
        <ele>3146.1387638521</ele>
        <time>2014-06-15T11:06:28Z</time>
      </trkpt>
      <trkpt lat="42.77235" lon="-0.14634">
        <ele>3146.1387638521</ele>
        <time>2014-06-15T11:06:33Z</time>
      </trkpt>
      <trkpt lat="42.77235" lon="-0.14636">
        <ele>3146.1387638521</ele>
        <time>2014-06-15T11:06:38Z</time>
      </trkpt>
      <trkpt lat="42.77235" lon="-0.1464">
        <ele>3146.1387638521</ele>
        <time>2014-06-15T11:06:47Z</time>
      </trkpt>
      <trkpt lat="42.77237" lon="-0.14643">
        <ele>3148.191019297</ele>
        <time>2014-06-15T11:06:53Z</time>
      </trkpt>
      <trkpt lat="42.77237" lon="-0.14645">
        <ele>3148.191019297</ele>
        <time>2014-06-15T11:06:58Z</time>
      </trkpt>
      <trkpt lat="42.77238" lon="-0.14647">
        <ele>3148.191019297</ele>
        <time>2014-06-15T11:07:03Z</time>
      </trkpt>
      <trkpt lat="42.77238" lon="-0.14648">
        <ele>3148.191019297</ele>
        <time>2014-06-15T11:07:08Z</time>
      </trkpt>
      <trkpt lat="42.7724" lon="-0.14652">
        <ele>3148.191019297</ele>
        <time>2014-06-15T11:07:12Z</time>
      </trkpt>
      <trkpt lat="42.7724" lon="-0.14653">
        <ele>3148.191019297</ele>
        <time>2014-06-15T11:07:18Z</time>
      </trkpt>
      <trkpt lat="42.77241" lon="-0.14657">
        <ele>3150.1863629926</ele>
        <time>2014-06-15T11:07:28Z</time>
      </trkpt>
      <trkpt lat="42.77241" lon="-0.1466">
        <ele>3150.1863629926</ele>
        <time>2014-06-15T11:07:33Z</time>
      </trkpt>
      <trkpt lat="42.77242" lon="-0.14662">
        <ele>3150.1863629926</ele>
        <time>2014-06-15T11:07:38Z</time>
      </trkpt>
      <trkpt lat="42.77242" lon="-0.14663">
        <ele>3150.1863629926</ele>
        <time>2014-06-15T11:07:43Z</time>
      </trkpt>
      <trkpt lat="42.77244" lon="-0.1467">
        <ele>3152.1440286555</ele>
        <time>2014-06-15T11:08:03Z</time>
      </trkpt>
      <trkpt lat="42.77246" lon="-0.14676">
        <ele>3152.1440286555</ele>
        <time>2014-06-15T11:08:33Z</time>
      </trkpt>
      <trkpt lat="42.77246" lon="-0.14678">
        <ele>3152.1440286555</ele>
        <time>2014-06-15T11:08:38Z</time>
      </trkpt>
      <trkpt lat="42.77247" lon="-0.1468">
        <ele>3152.1440286555</ele>
        <time>2014-06-15T11:08:43Z</time>
      </trkpt>
      <trkpt lat="42.77247" lon="-0.14682">
        <ele>3154.0386453563</ele>
        <time>2014-06-15T11:08:48Z</time>
      </trkpt>
      <trkpt lat="42.77248" lon="-0.14686">
        <ele>3154.0386453563</ele>
        <time>2014-06-15T11:08:52Z</time>
      </trkpt>
      <trkpt lat="42.77248" lon="-0.1469">
        <ele>3154.0386453563</ele>
        <time>2014-06-15T11:08:58Z</time>
      </trkpt>
      <trkpt lat="42.77249" lon="-0.14692">
        <ele>3154.0386453563</ele>
        <time>2014-06-15T11:09:03Z</time>
      </trkpt>
      <trkpt lat="42.77249" lon="-0.14695">
        <ele>3155.9621104861</ele>
        <time>2014-06-15T11:09:09Z</time>
      </trkpt>
      <trkpt lat="42.77249" lon="-0.14698">
        <ele>3155.9621104861</ele>
        <time>2014-06-15T11:09:13Z</time>
      </trkpt>
      <trkpt lat="42.77249" lon="-0.14698">
        <ele>3155.9621104861</ele>
        <time>2014-06-15T11:09:18Z</time>
      </trkpt>
      <trkpt lat="42.7725" lon="-0.14702">
        <ele>3155.9621104861</ele>
        <time>2014-06-15T11:09:23Z</time>
      </trkpt>
      <trkpt lat="42.7725" lon="-0.14703">
        <ele>3155.9621104861</ele>
        <time>2014-06-15T11:09:28Z</time>
      </trkpt>
      <trkpt lat="42.7725" lon="-0.14706">
        <ele>3155.9621104861</ele>
        <time>2014-06-15T11:09:58Z</time>
      </trkpt>
      <trkpt lat="42.7725" lon="-0.14707">
        <ele>3158.230009628</ele>
        <time>2014-06-15T11:10:03Z</time>
      </trkpt>
      <trkpt lat="42.7725" lon="-0.14711">
        <ele>3158.230009628</ele>
        <time>2014-06-15T11:10:07Z</time>
      </trkpt>
      <trkpt lat="42.7725" lon="-0.14714">
        <ele>3158.230009628</ele>
        <time>2014-06-15T11:10:13Z</time>
      </trkpt>
      <trkpt lat="42.77251" lon="-0.14717">
        <ele>3158.230009628</ele>
        <time>2014-06-15T11:10:18Z</time>
      </trkpt>
      <trkpt lat="42.77252" lon="-0.1472">
        <ele>3160.5861025737</ele>
        <time>2014-06-15T11:10:23Z</time>
      </trkpt>
      <trkpt lat="42.77252" lon="-0.14723">
        <ele>3160.5861025737</ele>
        <time>2014-06-15T11:10:28Z</time>
      </trkpt>
      <trkpt lat="42.77251" lon="-0.14726">
        <ele>3160.5861025737</ele>
        <time>2014-06-15T11:10:33Z</time>
      </trkpt>
      <trkpt lat="42.77251" lon="-0.14728">
        <ele>3160.5861025737</ele>
        <time>2014-06-15T11:10:38Z</time>
      </trkpt>
      <trkpt lat="42.77251" lon="-0.1473">
        <ele>3160.5861025737</ele>
        <time>2014-06-15T11:10:42Z</time>
      </trkpt>
      <trkpt lat="42.7725" lon="-0.14732">
        <ele>3160.5861025737</ele>
        <time>2014-06-15T11:10:47Z</time>
      </trkpt>
      <trkpt lat="42.77252" lon="-0.14735">
        <ele>3163.2250088796</ele>
        <time>2014-06-15T11:10:58Z</time>
      </trkpt>
      <trkpt lat="42.77252" lon="-0.14738">
        <ele>3163.2250088796</ele>
        <time>2014-06-15T11:11:03Z</time>
      </trkpt>
      <trkpt lat="42.77252" lon="-0.1474">
        <ele>3163.2250088796</ele>
        <time>2014-06-15T11:11:08Z</time>
      </trkpt>
      <trkpt lat="42.77253" lon="-0.14748">
        <ele>3165.8650586553</ele>
        <time>2014-06-15T11:11:28Z</time>
      </trkpt>
      <trkpt lat="42.77255" lon="-0.14759">
        <ele>3165.8650586553</ele>
        <time>2014-06-15T11:11:58Z</time>
      </trkpt>
      <trkpt lat="42.77254" lon="-0.14758">
        <ele>3169.0522566813</ele>
        <time>2014-06-15T11:12:58Z</time>
      </trkpt>
      <trkpt lat="42.77265" lon="-0.14756">
        <ele>3172.1668691325</ele>
        <time>2014-06-15T11:21:33Z</time>
      </trkpt>
      <trkpt lat="42.77266" lon="-0.14755">
        <ele>3172.1668691325</ele>
        <time>2014-06-15T11:21:38Z</time>
      </trkpt>
      <trkpt lat="42.77269" lon="-0.14753">
        <ele>3172.1668691325</ele>
        <time>2014-06-15T11:21:43Z</time>
      </trkpt>
      <trkpt lat="42.7727" lon="-0.14752">
        <ele>3172.1668691325</ele>
        <time>2014-06-15T11:21:47Z</time>
      </trkpt>
      <trkpt lat="42.77277" lon="-0.14755">
        <ele>3175.225728771</ele>
        <time>2014-06-15T11:22:53Z</time>
      </trkpt>
      <trkpt lat="42.77276" lon="-0.14756">
        <ele>3175.225728771</ele>
        <time>2014-06-15T11:22:57Z</time>
      </trkpt>
      <trkpt lat="42.77276" lon="-0.14762">
        <ele>3175.225728771</ele>
        <time>2014-06-15T11:23:18Z</time>
      </trkpt>
      <trkpt lat="42.77276" lon="-0.14764">
        <ele>3175.225728771</ele>
        <time>2014-06-15T11:23:23Z</time>
      </trkpt>
      <trkpt lat="42.77277" lon="-0.14771">
        <ele>3177.8987121814</ele>
        <time>2014-06-15T11:23:33Z</time>
      </trkpt>
      <trkpt lat="42.77278" lon="-0.14775">
        <ele>3177.8987121814</ele>
        <time>2014-06-15T11:23:38Z</time>
      </trkpt>
      <trkpt lat="42.77278" lon="-0.14778">
        <ele>3177.8987121814</ele>
        <time>2014-06-15T11:23:43Z</time>
      </trkpt>
      <trkpt lat="42.77278" lon="-0.1478">
        <ele>3177.8987121814</ele>
        <time>2014-06-15T11:23:48Z</time>
      </trkpt>
      <trkpt lat="42.77279" lon="-0.14782">
        <ele>3177.8987121814</ele>
        <time>2014-06-15T11:23:53Z</time>
      </trkpt>
      <trkpt lat="42.7728" lon="-0.14782">
        <ele>3180.2701276508</ele>
        <time>2014-06-15T11:23:58Z</time>
      </trkpt>
      <trkpt lat="42.77282" lon="-0.1478">
        <ele>3180.2701276508</ele>
        <time>2014-06-15T11:24:23Z</time>
      </trkpt>
      <trkpt lat="42.77282" lon="-0.14783">
        <ele>3180.2701276508</ele>
        <time>2014-06-15T11:24:27Z</time>
      </trkpt>
      <trkpt lat="42.77284" lon="-0.14786">
        <ele>3180.2701276508</ele>
        <time>2014-06-15T11:24:33Z</time>
      </trkpt>
      <trkpt lat="42.77285" lon="-0.14791">
        <ele>3182.5486401432</ele>
        <time>2014-06-15T11:24:37Z</time>
      </trkpt>
      <trkpt lat="42.77285" lon="-0.14795">
        <ele>3182.5486401432</ele>
        <time>2014-06-15T11:24:43Z</time>
      </trkpt>
      <trkpt lat="42.77287" lon="-0.14799">
        <ele>3182.5486401432</ele>
        <time>2014-06-15T11:24:48Z</time>
      </trkpt>
      <trkpt lat="42.77287" lon="-0.14799">
        <ele>3182.5486401432</ele>
        <time>2014-06-15T11:24:53Z</time>
      </trkpt>
      <trkpt lat="42.77287" lon="-0.14805">
        <ele>3184.9278543626</ele>
        <time>2014-06-15T11:25:47Z</time>
      </trkpt>
      <trkpt lat="42.77287" lon="-0.14806">
        <ele>3184.9278543626</ele>
        <time>2014-06-15T11:25:52Z</time>
      </trkpt>
      <trkpt lat="42.7729" lon="-0.14809">
        <ele>3184.9278543626</ele>
        <time>2014-06-15T11:27:03Z</time>
      </trkpt>
      <trkpt lat="42.7729" lon="-0.14809">
        <ele>3184.9278543626</ele>
        <time>2014-06-15T11:27:07Z</time>
      </trkpt>
      <trkpt lat="42.7729" lon="-0.14805">
        <ele>3184.9278543626</ele>
        <time>2014-06-15T11:27:13Z</time>
      </trkpt>
      <trkpt lat="42.77291" lon="-0.148">
        <ele>3187.5724694621</ele>
        <time>2014-06-15T11:27:17Z</time>
      </trkpt>
      <trkpt lat="42.77293" lon="-0.14796">
        <ele>3187.5724694621</ele>
        <time>2014-06-15T11:27:22Z</time>
      </trkpt>
      <trkpt lat="42.77294" lon="-0.14792">
        <ele>3187.5724694621</ele>
        <time>2014-06-15T11:27:28Z</time>
      </trkpt>
      <trkpt lat="42.77296" lon="-0.14789">
        <ele>3190.1011423631</ele>
        <time>2014-06-15T11:27:33Z</time>
      </trkpt>
      <trkpt lat="42.77297" lon="-0.14788">
        <ele>3190.1011423631</ele>
        <time>2014-06-15T11:27:38Z</time>
      </trkpt>
      <trkpt lat="42.77297" lon="-0.14788">
        <ele>3190.1011423631</ele>
        <time>2014-06-15T11:27:43Z</time>
      </trkpt>
      <trkpt lat="42.77302" lon="-0.14778">
        <ele>3193.140840038</ele>
        <time>2014-06-15T11:29:08Z</time>
      </trkpt>
      <trkpt lat="42.7731" lon="-0.14768">
        <ele>3196.5937372501</ele>
        <time>2014-06-15T11:33:13Z</time>
      </trkpt>
      <trkpt lat="42.77301" lon="-0.14771">
        <ele>3200.6706969581</ele>
        <time>2014-06-15T11:37:08Z</time>
      </trkpt>
      <trkpt lat="42.7731" lon="-0.1477">
        <ele>3203.7639871355</ele>
        <time>2014-06-15T11:46:13Z</time>
      </trkpt>
      <trkpt lat="42.7731" lon="-0.14771">
        <ele>3203.7639871355</ele>
        <time>2014-06-15T11:46:18Z</time>
      </trkpt>
      <trkpt lat="42.773" lon="-0.14771">
        <ele>3206.3755149388</ele>
        <time>2014-06-15T11:47:03Z</time>
      </trkpt>
      <trkpt lat="42.773" lon="-0.14771">
        <ele>3206.3755149388</ele>
        <time>2014-06-15T11:47:08Z</time>
      </trkpt>
      <trkpt lat="42.77309" lon="-0.14771">
        <ele>3208.5682056123</ele>
        <time>2014-06-15T11:55:03Z</time>
      </trkpt>
      <trkpt lat="42.77309" lon="-0.14771">
        <ele>3208.5682056123</ele>
        <time>2014-06-15T11:55:08Z</time>
      </trkpt>
      <trkpt lat="42.77299" lon="-0.14772">
        <ele>3210.2862967459</ele>
        <time>2014-06-15T11:56:08Z</time>
      </trkpt>
    </trkseg>
  </trk>
</gpx>